<?xml version="1.0" encoding="UTF-8" standalone="no" ?>
<gpx xmlns="http://www.topografix.com/GPX/1/1" xmlns:xsi="http://www.w3.org/2001/XMLSchema-instance" xsi:schemaLocation="http://www.topografix.com/GPX/1/1 http://www.topografix.com/GPX/1/1/gpx.xsd" version="1.1" creator="VisuGPX - https://www.visugpx.com">
  <metadata>
    <name>randonnée VTT forêt de haye 07/04/2013</name>
    <desc><![CDATA[randonnée VTT 12,74km 50minutes ]]></desc>
  </metadata>
  <trk>
    <name><![CDATA[07 avril 2013]]></name>
    <trkseg>
      <trkpt lat="48.68546" lon="6.15966">
        <ele>229</ele>
        <time>2013-04-07T10:33:38Z</time>
      </trkpt>
      <trkpt lat="48.68544" lon="6.15958">
        <ele>229</ele>
        <time>2013-04-07T10:33:40Z</time>
      </trkpt>
      <trkpt lat="48.68546" lon="6.15965">
        <ele>229</ele>
        <time>2013-04-07T10:33:46Z</time>
      </trkpt>
      <trkpt lat="48.68546" lon="6.15963">
        <ele>229</ele>
        <time>2013-04-07T10:33:48Z</time>
      </trkpt>
      <trkpt lat="48.68546" lon="6.15965">
        <ele>229</ele>
        <time>2013-04-07T10:33:54Z</time>
      </trkpt>
      <trkpt lat="48.68542" lon="6.15949">
        <ele>229</ele>
        <time>2013-04-07T10:33:56Z</time>
      </trkpt>
      <trkpt lat="48.68546" lon="6.15965">
        <ele>229</ele>
        <time>2013-04-07T10:34:04Z</time>
      </trkpt>
      <trkpt lat="48.68544" lon="6.15967">
        <ele>230</ele>
        <time>2013-04-07T10:34:18Z</time>
      </trkpt>
      <trkpt lat="48.68544" lon="6.15965">
        <ele>230</ele>
        <time>2013-04-07T10:34:32Z</time>
      </trkpt>
      <trkpt lat="48.68544" lon="6.15967">
        <ele>230</ele>
        <time>2013-04-07T10:34:42Z</time>
      </trkpt>
      <trkpt lat="48.68554" lon="6.15968">
        <ele>267</ele>
        <time>2013-04-07T10:34:44Z</time>
      </trkpt>
      <trkpt lat="48.68552" lon="6.15967">
        <ele>258</ele>
        <time>2013-04-07T10:34:48Z</time>
      </trkpt>
      <trkpt lat="48.68557" lon="6.1596">
        <ele>255</ele>
        <time>2013-04-07T10:34:50Z</time>
      </trkpt>
      <trkpt lat="48.68562" lon="6.15954">
        <ele>257</ele>
        <time>2013-04-07T10:34:52Z</time>
      </trkpt>
      <trkpt lat="48.68566" lon="6.1595">
        <ele>256</ele>
        <time>2013-04-07T10:34:54Z</time>
      </trkpt>
      <trkpt lat="48.6857" lon="6.15946">
        <ele>255</ele>
        <time>2013-04-07T10:34:56Z</time>
      </trkpt>
      <trkpt lat="48.68574" lon="6.15943">
        <ele>257</ele>
        <time>2013-04-07T10:34:58Z</time>
      </trkpt>
      <trkpt lat="48.68579" lon="6.15939">
        <ele>256</ele>
        <time>2013-04-07T10:35:00Z</time>
      </trkpt>
      <trkpt lat="48.68583" lon="6.15935">
        <ele>253</ele>
        <time>2013-04-07T10:35:02Z</time>
      </trkpt>
      <trkpt lat="48.68587" lon="6.15936">
        <ele>254</ele>
        <time>2013-04-07T10:35:04Z</time>
      </trkpt>
      <trkpt lat="48.68592" lon="6.15933">
        <ele>251</ele>
        <time>2013-04-07T10:35:06Z</time>
      </trkpt>
      <trkpt lat="48.68596" lon="6.15931">
        <ele>250</ele>
        <time>2013-04-07T10:35:08Z</time>
      </trkpt>
      <trkpt lat="48.68602" lon="6.1594">
        <ele>243</ele>
        <time>2013-04-07T10:35:12Z</time>
      </trkpt>
      <trkpt lat="48.68607" lon="6.15938">
        <ele>240</ele>
        <time>2013-04-07T10:35:14Z</time>
      </trkpt>
      <trkpt lat="48.68615" lon="6.15925">
        <ele>242</ele>
        <time>2013-04-07T10:35:16Z</time>
      </trkpt>
      <trkpt lat="48.6862" lon="6.15912">
        <ele>235</ele>
        <time>2013-04-07T10:35:18Z</time>
      </trkpt>
      <trkpt lat="48.68621" lon="6.15903">
        <ele>235</ele>
        <time>2013-04-07T10:35:20Z</time>
      </trkpt>
      <trkpt lat="48.68617" lon="6.15897">
        <ele>233</ele>
        <time>2013-04-07T10:35:22Z</time>
      </trkpt>
      <trkpt lat="48.68616" lon="6.15889">
        <ele>232</ele>
        <time>2013-04-07T10:35:24Z</time>
      </trkpt>
      <trkpt lat="48.68614" lon="6.15883">
        <ele>235</ele>
        <time>2013-04-07T10:35:26Z</time>
      </trkpt>
      <trkpt lat="48.68609" lon="6.15877">
        <ele>235</ele>
        <time>2013-04-07T10:35:28Z</time>
      </trkpt>
      <trkpt lat="48.68607" lon="6.15866">
        <ele>242</ele>
        <time>2013-04-07T10:35:30Z</time>
      </trkpt>
      <trkpt lat="48.68605" lon="6.15854">
        <ele>239</ele>
        <time>2013-04-07T10:35:32Z</time>
      </trkpt>
      <trkpt lat="48.68603" lon="6.15841">
        <ele>238</ele>
        <time>2013-04-07T10:35:34Z</time>
      </trkpt>
      <trkpt lat="48.68598" lon="6.1583">
        <ele>242</ele>
        <time>2013-04-07T10:35:36Z</time>
      </trkpt>
      <trkpt lat="48.68601" lon="6.15815">
        <ele>245</ele>
        <time>2013-04-07T10:35:38Z</time>
      </trkpt>
      <trkpt lat="48.686" lon="6.15806">
        <ele>241</ele>
        <time>2013-04-07T10:35:40Z</time>
      </trkpt>
      <trkpt lat="48.68599" lon="6.15801">
        <ele>235</ele>
        <time>2013-04-07T10:35:42Z</time>
      </trkpt>
      <trkpt lat="48.68597" lon="6.15787">
        <ele>242</ele>
        <time>2013-04-07T10:35:44Z</time>
      </trkpt>
      <trkpt lat="48.68593" lon="6.15774">
        <ele>242</ele>
        <time>2013-04-07T10:35:46Z</time>
      </trkpt>
      <trkpt lat="48.68586" lon="6.15762">
        <ele>238</ele>
        <time>2013-04-07T10:35:48Z</time>
      </trkpt>
      <trkpt lat="48.68579" lon="6.15752">
        <ele>234</ele>
        <time>2013-04-07T10:35:50Z</time>
      </trkpt>
      <trkpt lat="48.6857" lon="6.15746">
        <ele>239</ele>
        <time>2013-04-07T10:35:52Z</time>
      </trkpt>
      <trkpt lat="48.68564" lon="6.15738">
        <ele>243</ele>
        <time>2013-04-07T10:35:54Z</time>
      </trkpt>
      <trkpt lat="48.68562" lon="6.15727">
        <ele>235</ele>
        <time>2013-04-07T10:35:56Z</time>
      </trkpt>
      <trkpt lat="48.6856" lon="6.15716">
        <ele>234</ele>
        <time>2013-04-07T10:35:58Z</time>
      </trkpt>
      <trkpt lat="48.68558" lon="6.15706">
        <ele>236</ele>
        <time>2013-04-07T10:36:00Z</time>
      </trkpt>
      <trkpt lat="48.68551" lon="6.15694">
        <ele>235</ele>
        <time>2013-04-07T10:36:02Z</time>
      </trkpt>
      <trkpt lat="48.68544" lon="6.15687">
        <ele>237</ele>
        <time>2013-04-07T10:36:04Z</time>
      </trkpt>
      <trkpt lat="48.68538" lon="6.15678">
        <ele>238</ele>
        <time>2013-04-07T10:36:06Z</time>
      </trkpt>
      <trkpt lat="48.68535" lon="6.15665">
        <ele>233</ele>
        <time>2013-04-07T10:36:08Z</time>
      </trkpt>
      <trkpt lat="48.68533" lon="6.15651">
        <ele>235</ele>
        <time>2013-04-07T10:36:10Z</time>
      </trkpt>
      <trkpt lat="48.68533" lon="6.15638">
        <ele>241</ele>
        <time>2013-04-07T10:36:12Z</time>
      </trkpt>
      <trkpt lat="48.68528" lon="6.15626">
        <ele>239</ele>
        <time>2013-04-07T10:36:14Z</time>
      </trkpt>
      <trkpt lat="48.68527" lon="6.15613">
        <ele>237</ele>
        <time>2013-04-07T10:36:16Z</time>
      </trkpt>
      <trkpt lat="48.68528" lon="6.15596">
        <ele>233</ele>
        <time>2013-04-07T10:36:18Z</time>
      </trkpt>
      <trkpt lat="48.6853" lon="6.15586">
        <ele>230</ele>
        <time>2013-04-07T10:36:20Z</time>
      </trkpt>
      <trkpt lat="48.6853" lon="6.15576">
        <ele>234</ele>
        <time>2013-04-07T10:36:22Z</time>
      </trkpt>
      <trkpt lat="48.68525" lon="6.15566">
        <ele>232</ele>
        <time>2013-04-07T10:36:24Z</time>
      </trkpt>
      <trkpt lat="48.68522" lon="6.15552">
        <ele>231</ele>
        <time>2013-04-07T10:36:26Z</time>
      </trkpt>
      <trkpt lat="48.68515" lon="6.15539">
        <ele>231</ele>
        <time>2013-04-07T10:36:28Z</time>
      </trkpt>
      <trkpt lat="48.68511" lon="6.15525">
        <ele>232</ele>
        <time>2013-04-07T10:36:30Z</time>
      </trkpt>
      <trkpt lat="48.68507" lon="6.1551">
        <ele>232</ele>
        <time>2013-04-07T10:36:32Z</time>
      </trkpt>
      <trkpt lat="48.68502" lon="6.15495">
        <ele>231</ele>
        <time>2013-04-07T10:36:34Z</time>
      </trkpt>
      <trkpt lat="48.685" lon="6.15478">
        <ele>233</ele>
        <time>2013-04-07T10:36:36Z</time>
      </trkpt>
      <trkpt lat="48.68495" lon="6.15466">
        <ele>233</ele>
        <time>2013-04-07T10:36:38Z</time>
      </trkpt>
      <trkpt lat="48.6849" lon="6.15451">
        <ele>233</ele>
        <time>2013-04-07T10:36:40Z</time>
      </trkpt>
      <trkpt lat="48.68486" lon="6.15437">
        <ele>232</ele>
        <time>2013-04-07T10:36:42Z</time>
      </trkpt>
      <trkpt lat="48.6848" lon="6.15424">
        <ele>230</ele>
        <time>2013-04-07T10:36:44Z</time>
      </trkpt>
      <trkpt lat="48.68479" lon="6.15407">
        <ele>233</ele>
        <time>2013-04-07T10:36:46Z</time>
      </trkpt>
      <trkpt lat="48.68477" lon="6.15392">
        <ele>238</ele>
        <time>2013-04-07T10:36:48Z</time>
      </trkpt>
      <trkpt lat="48.68477" lon="6.15377">
        <ele>232</ele>
        <time>2013-04-07T10:36:50Z</time>
      </trkpt>
      <trkpt lat="48.68476" lon="6.15368">
        <ele>228</ele>
        <time>2013-04-07T10:36:52Z</time>
      </trkpt>
      <trkpt lat="48.68472" lon="6.15357">
        <ele>229</ele>
        <time>2013-04-07T10:36:54Z</time>
      </trkpt>
      <trkpt lat="48.6847" lon="6.15342">
        <ele>230</ele>
        <time>2013-04-07T10:36:56Z</time>
      </trkpt>
      <trkpt lat="48.68469" lon="6.1533">
        <ele>228</ele>
        <time>2013-04-07T10:36:58Z</time>
      </trkpt>
      <trkpt lat="48.68469" lon="6.15321">
        <ele>236</ele>
        <time>2013-04-07T10:37:00Z</time>
      </trkpt>
      <trkpt lat="48.68468" lon="6.15304">
        <ele>236</ele>
        <time>2013-04-07T10:37:02Z</time>
      </trkpt>
      <trkpt lat="48.68465" lon="6.15291">
        <ele>235</ele>
        <time>2013-04-07T10:37:04Z</time>
      </trkpt>
      <trkpt lat="48.68462" lon="6.15278">
        <ele>232</ele>
        <time>2013-04-07T10:37:06Z</time>
      </trkpt>
      <trkpt lat="48.68459" lon="6.15265">
        <ele>231</ele>
        <time>2013-04-07T10:37:08Z</time>
      </trkpt>
      <trkpt lat="48.68456" lon="6.15249">
        <ele>232</ele>
        <time>2013-04-07T10:37:10Z</time>
      </trkpt>
      <trkpt lat="48.68452" lon="6.15237">
        <ele>232</ele>
        <time>2013-04-07T10:37:12Z</time>
      </trkpt>
      <trkpt lat="48.6845" lon="6.15221">
        <ele>231</ele>
        <time>2013-04-07T10:37:14Z</time>
      </trkpt>
      <trkpt lat="48.68446" lon="6.15208">
        <ele>234</ele>
        <time>2013-04-07T10:37:16Z</time>
      </trkpt>
      <trkpt lat="48.68443" lon="6.15194">
        <ele>235</ele>
        <time>2013-04-07T10:37:18Z</time>
      </trkpt>
      <trkpt lat="48.6844" lon="6.15184">
        <ele>234</ele>
        <time>2013-04-07T10:37:20Z</time>
      </trkpt>
      <trkpt lat="48.68436" lon="6.15169">
        <ele>236</ele>
        <time>2013-04-07T10:37:22Z</time>
      </trkpt>
      <trkpt lat="48.68433" lon="6.15157">
        <ele>232</ele>
        <time>2013-04-07T10:37:24Z</time>
      </trkpt>
      <trkpt lat="48.68432" lon="6.15145">
        <ele>234</ele>
        <time>2013-04-07T10:37:26Z</time>
      </trkpt>
      <trkpt lat="48.6843" lon="6.15131">
        <ele>230</ele>
        <time>2013-04-07T10:37:28Z</time>
      </trkpt>
      <trkpt lat="48.68428" lon="6.1512">
        <ele>235</ele>
        <time>2013-04-07T10:37:30Z</time>
      </trkpt>
      <trkpt lat="48.68425" lon="6.15107">
        <ele>235</ele>
        <time>2013-04-07T10:37:32Z</time>
      </trkpt>
      <trkpt lat="48.68422" lon="6.15098">
        <ele>233</ele>
        <time>2013-04-07T10:37:34Z</time>
      </trkpt>
      <trkpt lat="48.68419" lon="6.15088">
        <ele>228</ele>
        <time>2013-04-07T10:37:36Z</time>
      </trkpt>
      <trkpt lat="48.68417" lon="6.15078">
        <ele>230</ele>
        <time>2013-04-07T10:37:38Z</time>
      </trkpt>
      <trkpt lat="48.68412" lon="6.15069">
        <ele>228</ele>
        <time>2013-04-07T10:37:40Z</time>
      </trkpt>
      <trkpt lat="48.68407" lon="6.15061">
        <ele>232</ele>
        <time>2013-04-07T10:37:42Z</time>
      </trkpt>
      <trkpt lat="48.68404" lon="6.15054">
        <ele>235</ele>
        <time>2013-04-07T10:37:44Z</time>
      </trkpt>
      <trkpt lat="48.68401" lon="6.15045">
        <ele>233</ele>
        <time>2013-04-07T10:37:46Z</time>
      </trkpt>
      <trkpt lat="48.68398" lon="6.15038">
        <ele>234</ele>
        <time>2013-04-07T10:37:48Z</time>
      </trkpt>
      <trkpt lat="48.68394" lon="6.15031">
        <ele>234</ele>
        <time>2013-04-07T10:37:50Z</time>
      </trkpt>
      <trkpt lat="48.68388" lon="6.15022">
        <ele>231</ele>
        <time>2013-04-07T10:37:52Z</time>
      </trkpt>
      <trkpt lat="48.68382" lon="6.1501">
        <ele>236</ele>
        <time>2013-04-07T10:37:54Z</time>
      </trkpt>
      <trkpt lat="48.68377" lon="6.15">
        <ele>237</ele>
        <time>2013-04-07T10:37:56Z</time>
      </trkpt>
      <trkpt lat="48.68369" lon="6.14991">
        <ele>235</ele>
        <time>2013-04-07T10:37:58Z</time>
      </trkpt>
      <trkpt lat="48.68362" lon="6.14985">
        <ele>232</ele>
        <time>2013-04-07T10:38:00Z</time>
      </trkpt>
      <trkpt lat="48.68355" lon="6.14979">
        <ele>235</ele>
        <time>2013-04-07T10:38:02Z</time>
      </trkpt>
      <trkpt lat="48.68351" lon="6.14972">
        <ele>233</ele>
        <time>2013-04-07T10:38:04Z</time>
      </trkpt>
      <trkpt lat="48.68347" lon="6.1497">
        <ele>233</ele>
        <time>2013-04-07T10:38:06Z</time>
      </trkpt>
      <trkpt lat="48.68342" lon="6.14964">
        <ele>232</ele>
        <time>2013-04-07T10:38:08Z</time>
      </trkpt>
      <trkpt lat="48.68337" lon="6.14954">
        <ele>232</ele>
        <time>2013-04-07T10:38:10Z</time>
      </trkpt>
      <trkpt lat="48.6833" lon="6.14946">
        <ele>233</ele>
        <time>2013-04-07T10:38:12Z</time>
      </trkpt>
      <trkpt lat="48.68321" lon="6.14948">
        <ele>236</ele>
        <time>2013-04-07T10:38:14Z</time>
      </trkpt>
      <trkpt lat="48.68316" lon="6.14941">
        <ele>239</ele>
        <time>2013-04-07T10:38:16Z</time>
      </trkpt>
      <trkpt lat="48.68314" lon="6.14933">
        <ele>233</ele>
        <time>2013-04-07T10:38:18Z</time>
      </trkpt>
      <trkpt lat="48.68313" lon="6.14927">
        <ele>234</ele>
        <time>2013-04-07T10:38:20Z</time>
      </trkpt>
      <trkpt lat="48.6831" lon="6.14917">
        <ele>236</ele>
        <time>2013-04-07T10:38:22Z</time>
      </trkpt>
      <trkpt lat="48.68308" lon="6.14909">
        <ele>237</ele>
        <time>2013-04-07T10:38:24Z</time>
      </trkpt>
      <trkpt lat="48.68306" lon="6.14906">
        <ele>241</ele>
        <time>2013-04-07T10:38:26Z</time>
      </trkpt>
      <trkpt lat="48.68303" lon="6.14901">
        <ele>242</ele>
        <time>2013-04-07T10:38:28Z</time>
      </trkpt>
      <trkpt lat="48.683" lon="6.14894">
        <ele>241</ele>
        <time>2013-04-07T10:38:30Z</time>
      </trkpt>
      <trkpt lat="48.683" lon="6.14883">
        <ele>240</ele>
        <time>2013-04-07T10:38:32Z</time>
      </trkpt>
      <trkpt lat="48.68294" lon="6.14873">
        <ele>239</ele>
        <time>2013-04-07T10:38:34Z</time>
      </trkpt>
      <trkpt lat="48.68289" lon="6.14871">
        <ele>236</ele>
        <time>2013-04-07T10:38:36Z</time>
      </trkpt>
      <trkpt lat="48.68284" lon="6.14867">
        <ele>236</ele>
        <time>2013-04-07T10:38:38Z</time>
      </trkpt>
      <trkpt lat="48.68275" lon="6.14863">
        <ele>235</ele>
        <time>2013-04-07T10:38:40Z</time>
      </trkpt>
      <trkpt lat="48.68271" lon="6.14856">
        <ele>235</ele>
        <time>2013-04-07T10:38:42Z</time>
      </trkpt>
      <trkpt lat="48.68267" lon="6.14851">
        <ele>233</ele>
        <time>2013-04-07T10:38:44Z</time>
      </trkpt>
      <trkpt lat="48.68264" lon="6.14848">
        <ele>233</ele>
        <time>2013-04-07T10:38:46Z</time>
      </trkpt>
      <trkpt lat="48.68261" lon="6.14844">
        <ele>231</ele>
        <time>2013-04-07T10:38:48Z</time>
      </trkpt>
      <trkpt lat="48.6826" lon="6.14842">
        <ele>232</ele>
        <time>2013-04-07T10:38:50Z</time>
      </trkpt>
      <trkpt lat="48.68256" lon="6.14834">
        <ele>237</ele>
        <time>2013-04-07T10:38:52Z</time>
      </trkpt>
      <trkpt lat="48.6825" lon="6.14824">
        <ele>238</ele>
        <time>2013-04-07T10:38:54Z</time>
      </trkpt>
      <trkpt lat="48.68242" lon="6.14819">
        <ele>240</ele>
        <time>2013-04-07T10:38:56Z</time>
      </trkpt>
      <trkpt lat="48.68239" lon="6.14813">
        <ele>242</ele>
        <time>2013-04-07T10:38:58Z</time>
      </trkpt>
      <trkpt lat="48.68237" lon="6.14807">
        <ele>244</ele>
        <time>2013-04-07T10:39:00Z</time>
      </trkpt>
      <trkpt lat="48.68236" lon="6.14802">
        <ele>246</ele>
        <time>2013-04-07T10:39:02Z</time>
      </trkpt>
      <trkpt lat="48.68235" lon="6.14797">
        <ele>249</ele>
        <time>2013-04-07T10:39:04Z</time>
      </trkpt>
      <trkpt lat="48.68234" lon="6.14793">
        <ele>252</ele>
        <time>2013-04-07T10:39:06Z</time>
      </trkpt>
      <trkpt lat="48.68234" lon="6.14789">
        <ele>253</ele>
        <time>2013-04-07T10:39:08Z</time>
      </trkpt>
      <trkpt lat="48.68233" lon="6.14785">
        <ele>249</ele>
        <time>2013-04-07T10:39:10Z</time>
      </trkpt>
      <trkpt lat="48.6823" lon="6.1478">
        <ele>248</ele>
        <time>2013-04-07T10:39:12Z</time>
      </trkpt>
      <trkpt lat="48.68227" lon="6.14774">
        <ele>246</ele>
        <time>2013-04-07T10:39:14Z</time>
      </trkpt>
      <trkpt lat="48.68223" lon="6.14768">
        <ele>247</ele>
        <time>2013-04-07T10:39:16Z</time>
      </trkpt>
      <trkpt lat="48.68221" lon="6.14763">
        <ele>249</ele>
        <time>2013-04-07T10:39:18Z</time>
      </trkpt>
      <trkpt lat="48.68218" lon="6.14757">
        <ele>250</ele>
        <time>2013-04-07T10:39:20Z</time>
      </trkpt>
      <trkpt lat="48.68212" lon="6.14751">
        <ele>250</ele>
        <time>2013-04-07T10:39:22Z</time>
      </trkpt>
      <trkpt lat="48.68207" lon="6.14744">
        <ele>247</ele>
        <time>2013-04-07T10:39:24Z</time>
      </trkpt>
      <trkpt lat="48.68204" lon="6.14739">
        <ele>247</ele>
        <time>2013-04-07T10:39:26Z</time>
      </trkpt>
      <trkpt lat="48.68198" lon="6.1473">
        <ele>253</ele>
        <time>2013-04-07T10:39:28Z</time>
      </trkpt>
      <trkpt lat="48.68193" lon="6.14722">
        <ele>257</ele>
        <time>2013-04-07T10:39:30Z</time>
      </trkpt>
      <trkpt lat="48.68187" lon="6.14712">
        <ele>247</ele>
        <time>2013-04-07T10:39:32Z</time>
      </trkpt>
      <trkpt lat="48.68183" lon="6.14704">
        <ele>248</ele>
        <time>2013-04-07T10:39:34Z</time>
      </trkpt>
      <trkpt lat="48.6818" lon="6.14698">
        <ele>247</ele>
        <time>2013-04-07T10:39:36Z</time>
      </trkpt>
      <trkpt lat="48.68177" lon="6.14691">
        <ele>243</ele>
        <time>2013-04-07T10:39:38Z</time>
      </trkpt>
      <trkpt lat="48.68175" lon="6.14684">
        <ele>241</ele>
        <time>2013-04-07T10:39:40Z</time>
      </trkpt>
      <trkpt lat="48.68173" lon="6.14674">
        <ele>238</ele>
        <time>2013-04-07T10:39:42Z</time>
      </trkpt>
      <trkpt lat="48.6817" lon="6.14661">
        <ele>242</ele>
        <time>2013-04-07T10:39:44Z</time>
      </trkpt>
      <trkpt lat="48.68168" lon="6.14653">
        <ele>240</ele>
        <time>2013-04-07T10:39:46Z</time>
      </trkpt>
      <trkpt lat="48.68165" lon="6.14643">
        <ele>248</ele>
        <time>2013-04-07T10:39:48Z</time>
      </trkpt>
      <trkpt lat="48.68162" lon="6.14633">
        <ele>250</ele>
        <time>2013-04-07T10:39:50Z</time>
      </trkpt>
      <trkpt lat="48.68153" lon="6.14623">
        <ele>243</ele>
        <time>2013-04-07T10:39:52Z</time>
      </trkpt>
      <trkpt lat="48.68145" lon="6.14615">
        <ele>245</ele>
        <time>2013-04-07T10:39:54Z</time>
      </trkpt>
      <trkpt lat="48.68139" lon="6.14606">
        <ele>245</ele>
        <time>2013-04-07T10:39:56Z</time>
      </trkpt>
      <trkpt lat="48.68135" lon="6.14598">
        <ele>244</ele>
        <time>2013-04-07T10:39:58Z</time>
      </trkpt>
      <trkpt lat="48.68129" lon="6.1459">
        <ele>242</ele>
        <time>2013-04-07T10:40:00Z</time>
      </trkpt>
      <trkpt lat="48.68124" lon="6.14584">
        <ele>245</ele>
        <time>2013-04-07T10:40:02Z</time>
      </trkpt>
      <trkpt lat="48.68121" lon="6.14577">
        <ele>245</ele>
        <time>2013-04-07T10:40:04Z</time>
      </trkpt>
      <trkpt lat="48.68116" lon="6.14569">
        <ele>250</ele>
        <time>2013-04-07T10:40:06Z</time>
      </trkpt>
      <trkpt lat="48.68111" lon="6.14557">
        <ele>246</ele>
        <time>2013-04-07T10:40:08Z</time>
      </trkpt>
      <trkpt lat="48.68107" lon="6.14548">
        <ele>247</ele>
        <time>2013-04-07T10:40:10Z</time>
      </trkpt>
      <trkpt lat="48.68104" lon="6.1454">
        <ele>247</ele>
        <time>2013-04-07T10:40:12Z</time>
      </trkpt>
      <trkpt lat="48.68102" lon="6.14529">
        <ele>246</ele>
        <time>2013-04-07T10:40:14Z</time>
      </trkpt>
      <trkpt lat="48.68098" lon="6.1452">
        <ele>247</ele>
        <time>2013-04-07T10:40:16Z</time>
      </trkpt>
      <trkpt lat="48.68093" lon="6.14511">
        <ele>251</ele>
        <time>2013-04-07T10:40:18Z</time>
      </trkpt>
      <trkpt lat="48.68089" lon="6.14506">
        <ele>247</ele>
        <time>2013-04-07T10:40:20Z</time>
      </trkpt>
      <trkpt lat="48.68086" lon="6.14503">
        <ele>253</ele>
        <time>2013-04-07T10:40:22Z</time>
      </trkpt>
      <trkpt lat="48.68081" lon="6.14497">
        <ele>253</ele>
        <time>2013-04-07T10:40:24Z</time>
      </trkpt>
      <trkpt lat="48.68076" lon="6.14491">
        <ele>257</ele>
        <time>2013-04-07T10:40:26Z</time>
      </trkpt>
      <trkpt lat="48.68073" lon="6.14485">
        <ele>253</ele>
        <time>2013-04-07T10:40:28Z</time>
      </trkpt>
      <trkpt lat="48.68068" lon="6.14476">
        <ele>246</ele>
        <time>2013-04-07T10:40:30Z</time>
      </trkpt>
      <trkpt lat="48.68065" lon="6.14467">
        <ele>241</ele>
        <time>2013-04-07T10:40:32Z</time>
      </trkpt>
      <trkpt lat="48.6806" lon="6.14459">
        <ele>245</ele>
        <time>2013-04-07T10:40:34Z</time>
      </trkpt>
      <trkpt lat="48.68058" lon="6.14453">
        <ele>247</ele>
        <time>2013-04-07T10:40:36Z</time>
      </trkpt>
      <trkpt lat="48.68056" lon="6.14447">
        <ele>245</ele>
        <time>2013-04-07T10:40:38Z</time>
      </trkpt>
      <trkpt lat="48.68053" lon="6.14438">
        <ele>251</ele>
        <time>2013-04-07T10:40:40Z</time>
      </trkpt>
      <trkpt lat="48.68047" lon="6.14437">
        <ele>253</ele>
        <time>2013-04-07T10:40:42Z</time>
      </trkpt>
      <trkpt lat="48.68042" lon="6.14433">
        <ele>254</ele>
        <time>2013-04-07T10:40:44Z</time>
      </trkpt>
      <trkpt lat="48.68039" lon="6.14424">
        <ele>249</ele>
        <time>2013-04-07T10:40:46Z</time>
      </trkpt>
      <trkpt lat="48.68035" lon="6.14416">
        <ele>250</ele>
        <time>2013-04-07T10:40:48Z</time>
      </trkpt>
      <trkpt lat="48.68033" lon="6.14407">
        <ele>251</ele>
        <time>2013-04-07T10:40:50Z</time>
      </trkpt>
      <trkpt lat="48.68031" lon="6.14394">
        <ele>250</ele>
        <time>2013-04-07T10:40:52Z</time>
      </trkpt>
      <trkpt lat="48.68027" lon="6.14386">
        <ele>247</ele>
        <time>2013-04-07T10:40:54Z</time>
      </trkpt>
      <trkpt lat="48.6802" lon="6.14378">
        <ele>252</ele>
        <time>2013-04-07T10:40:56Z</time>
      </trkpt>
      <trkpt lat="48.68016" lon="6.14373">
        <ele>257</ele>
        <time>2013-04-07T10:40:58Z</time>
      </trkpt>
      <trkpt lat="48.68012" lon="6.14367">
        <ele>253</ele>
        <time>2013-04-07T10:41:00Z</time>
      </trkpt>
      <trkpt lat="48.68008" lon="6.14359">
        <ele>250</ele>
        <time>2013-04-07T10:41:02Z</time>
      </trkpt>
      <trkpt lat="48.68005" lon="6.14351">
        <ele>245</ele>
        <time>2013-04-07T10:41:04Z</time>
      </trkpt>
      <trkpt lat="48.68003" lon="6.14343">
        <ele>242</ele>
        <time>2013-04-07T10:41:06Z</time>
      </trkpt>
      <trkpt lat="48.67999" lon="6.14336">
        <ele>241</ele>
        <time>2013-04-07T10:41:08Z</time>
      </trkpt>
      <trkpt lat="48.67995" lon="6.14328">
        <ele>238</ele>
        <time>2013-04-07T10:41:10Z</time>
      </trkpt>
      <trkpt lat="48.67991" lon="6.1432">
        <ele>240</ele>
        <time>2013-04-07T10:41:12Z</time>
      </trkpt>
      <trkpt lat="48.67987" lon="6.14314">
        <ele>239</ele>
        <time>2013-04-07T10:41:14Z</time>
      </trkpt>
      <trkpt lat="48.67985" lon="6.14309">
        <ele>241</ele>
        <time>2013-04-07T10:41:16Z</time>
      </trkpt>
      <trkpt lat="48.67982" lon="6.14304">
        <ele>242</ele>
        <time>2013-04-07T10:41:18Z</time>
      </trkpt>
      <trkpt lat="48.67979" lon="6.14297">
        <ele>249</ele>
        <time>2013-04-07T10:41:20Z</time>
      </trkpt>
      <trkpt lat="48.67975" lon="6.14289">
        <ele>251</ele>
        <time>2013-04-07T10:41:22Z</time>
      </trkpt>
      <trkpt lat="48.67972" lon="6.14285">
        <ele>251</ele>
        <time>2013-04-07T10:41:24Z</time>
      </trkpt>
      <trkpt lat="48.67968" lon="6.14281">
        <ele>252</ele>
        <time>2013-04-07T10:41:26Z</time>
      </trkpt>
      <trkpt lat="48.67966" lon="6.1428">
        <ele>251</ele>
        <time>2013-04-07T10:41:28Z</time>
      </trkpt>
      <trkpt lat="48.67963" lon="6.14277">
        <ele>252</ele>
        <time>2013-04-07T10:41:30Z</time>
      </trkpt>
      <trkpt lat="48.67962" lon="6.14273">
        <ele>248</ele>
        <time>2013-04-07T10:41:32Z</time>
      </trkpt>
      <trkpt lat="48.6796" lon="6.14269">
        <ele>248</ele>
        <time>2013-04-07T10:41:34Z</time>
      </trkpt>
      <trkpt lat="48.67958" lon="6.14266">
        <ele>242</ele>
        <time>2013-04-07T10:41:36Z</time>
      </trkpt>
      <trkpt lat="48.67956" lon="6.14263">
        <ele>245</ele>
        <time>2013-04-07T10:41:38Z</time>
      </trkpt>
      <trkpt lat="48.67955" lon="6.1426">
        <ele>250</ele>
        <time>2013-04-07T10:41:40Z</time>
      </trkpt>
      <trkpt lat="48.67955" lon="6.14255">
        <ele>249</ele>
        <time>2013-04-07T10:41:42Z</time>
      </trkpt>
      <trkpt lat="48.67955" lon="6.1425">
        <ele>249</ele>
        <time>2013-04-07T10:41:44Z</time>
      </trkpt>
      <trkpt lat="48.67951" lon="6.14245">
        <ele>251</ele>
        <time>2013-04-07T10:41:46Z</time>
      </trkpt>
      <trkpt lat="48.67949" lon="6.14241">
        <ele>249</ele>
        <time>2013-04-07T10:41:48Z</time>
      </trkpt>
      <trkpt lat="48.67943" lon="6.14235">
        <ele>252</ele>
        <time>2013-04-07T10:41:50Z</time>
      </trkpt>
      <trkpt lat="48.67938" lon="6.1423">
        <ele>247</ele>
        <time>2013-04-07T10:41:52Z</time>
      </trkpt>
      <trkpt lat="48.67934" lon="6.14226">
        <ele>246</ele>
        <time>2013-04-07T10:41:54Z</time>
      </trkpt>
      <trkpt lat="48.67931" lon="6.14222">
        <ele>247</ele>
        <time>2013-04-07T10:41:56Z</time>
      </trkpt>
      <trkpt lat="48.67927" lon="6.14217">
        <ele>248</ele>
        <time>2013-04-07T10:41:58Z</time>
      </trkpt>
      <trkpt lat="48.67922" lon="6.14212">
        <ele>245</ele>
        <time>2013-04-07T10:42:00Z</time>
      </trkpt>
      <trkpt lat="48.67917" lon="6.14208">
        <ele>248</ele>
        <time>2013-04-07T10:42:02Z</time>
      </trkpt>
      <trkpt lat="48.67916" lon="6.14205">
        <ele>246</ele>
        <time>2013-04-07T10:42:04Z</time>
      </trkpt>
      <trkpt lat="48.67914" lon="6.14201">
        <ele>249</ele>
        <time>2013-04-07T10:42:06Z</time>
      </trkpt>
      <trkpt lat="48.67915" lon="6.14196">
        <ele>249</ele>
        <time>2013-04-07T10:42:08Z</time>
      </trkpt>
      <trkpt lat="48.67914" lon="6.14192">
        <ele>251</ele>
        <time>2013-04-07T10:42:10Z</time>
      </trkpt>
      <trkpt lat="48.67913" lon="6.14187">
        <ele>255</ele>
        <time>2013-04-07T10:42:12Z</time>
      </trkpt>
      <trkpt lat="48.67913" lon="6.14182">
        <ele>258</ele>
        <time>2013-04-07T10:42:14Z</time>
      </trkpt>
      <trkpt lat="48.67913" lon="6.14176">
        <ele>258</ele>
        <time>2013-04-07T10:42:16Z</time>
      </trkpt>
      <trkpt lat="48.67913" lon="6.14172">
        <ele>259</ele>
        <time>2013-04-07T10:42:18Z</time>
      </trkpt>
      <trkpt lat="48.67915" lon="6.14167">
        <ele>258</ele>
        <time>2013-04-07T10:42:20Z</time>
      </trkpt>
      <trkpt lat="48.67915" lon="6.14162">
        <ele>256</ele>
        <time>2013-04-07T10:42:22Z</time>
      </trkpt>
      <trkpt lat="48.67917" lon="6.14157">
        <ele>254</ele>
        <time>2013-04-07T10:42:24Z</time>
      </trkpt>
      <trkpt lat="48.67918" lon="6.14153">
        <ele>259</ele>
        <time>2013-04-07T10:42:26Z</time>
      </trkpt>
      <trkpt lat="48.67921" lon="6.14147">
        <ele>259</ele>
        <time>2013-04-07T10:42:28Z</time>
      </trkpt>
      <trkpt lat="48.67925" lon="6.14142">
        <ele>257</ele>
        <time>2013-04-07T10:42:30Z</time>
      </trkpt>
      <trkpt lat="48.67926" lon="6.14141">
        <ele>253</ele>
        <time>2013-04-07T10:42:32Z</time>
      </trkpt>
      <trkpt lat="48.6793" lon="6.14143">
        <ele>249</ele>
        <time>2013-04-07T10:42:34Z</time>
      </trkpt>
      <trkpt lat="48.67935" lon="6.14147">
        <ele>247</ele>
        <time>2013-04-07T10:42:36Z</time>
      </trkpt>
      <trkpt lat="48.6794" lon="6.14152">
        <ele>246</ele>
        <time>2013-04-07T10:42:38Z</time>
      </trkpt>
      <trkpt lat="48.67946" lon="6.14158">
        <ele>246</ele>
        <time>2013-04-07T10:42:40Z</time>
      </trkpt>
      <trkpt lat="48.67952" lon="6.14164">
        <ele>247</ele>
        <time>2013-04-07T10:42:42Z</time>
      </trkpt>
      <trkpt lat="48.67961" lon="6.14166">
        <ele>247</ele>
        <time>2013-04-07T10:42:44Z</time>
      </trkpt>
      <trkpt lat="48.67971" lon="6.14164">
        <ele>247</ele>
        <time>2013-04-07T10:42:46Z</time>
      </trkpt>
      <trkpt lat="48.67981" lon="6.14161">
        <ele>248</ele>
        <time>2013-04-07T10:42:48Z</time>
      </trkpt>
      <trkpt lat="48.6799" lon="6.14157">
        <ele>248</ele>
        <time>2013-04-07T10:42:50Z</time>
      </trkpt>
      <trkpt lat="48.67996" lon="6.14154">
        <ele>248</ele>
        <time>2013-04-07T10:42:52Z</time>
      </trkpt>
      <trkpt lat="48.68002" lon="6.14151">
        <ele>248</ele>
        <time>2013-04-07T10:42:54Z</time>
      </trkpt>
      <trkpt lat="48.68007" lon="6.14148">
        <ele>249</ele>
        <time>2013-04-07T10:42:56Z</time>
      </trkpt>
      <trkpt lat="48.68013" lon="6.14146">
        <ele>250</ele>
        <time>2013-04-07T10:42:58Z</time>
      </trkpt>
      <trkpt lat="48.68018" lon="6.14144">
        <ele>251</ele>
        <time>2013-04-07T10:43:00Z</time>
      </trkpt>
      <trkpt lat="48.68023" lon="6.14142">
        <ele>250</ele>
        <time>2013-04-07T10:43:02Z</time>
      </trkpt>
      <trkpt lat="48.68028" lon="6.1414">
        <ele>250</ele>
        <time>2013-04-07T10:43:04Z</time>
      </trkpt>
      <trkpt lat="48.68033" lon="6.14138">
        <ele>251</ele>
        <time>2013-04-07T10:43:06Z</time>
      </trkpt>
      <trkpt lat="48.68038" lon="6.14136">
        <ele>254</ele>
        <time>2013-04-07T10:43:08Z</time>
      </trkpt>
      <trkpt lat="48.68043" lon="6.14134">
        <ele>251</ele>
        <time>2013-04-07T10:43:10Z</time>
      </trkpt>
      <trkpt lat="48.68047" lon="6.14134">
        <ele>252</ele>
        <time>2013-04-07T10:43:12Z</time>
      </trkpt>
      <trkpt lat="48.68052" lon="6.14132">
        <ele>250</ele>
        <time>2013-04-07T10:43:14Z</time>
      </trkpt>
      <trkpt lat="48.68056" lon="6.14131">
        <ele>249</ele>
        <time>2013-04-07T10:43:16Z</time>
      </trkpt>
      <trkpt lat="48.6806" lon="6.1413">
        <ele>251</ele>
        <time>2013-04-07T10:43:18Z</time>
      </trkpt>
      <trkpt lat="48.68063" lon="6.14127">
        <ele>255</ele>
        <time>2013-04-07T10:43:20Z</time>
      </trkpt>
      <trkpt lat="48.68068" lon="6.14124">
        <ele>249</ele>
        <time>2013-04-07T10:43:22Z</time>
      </trkpt>
      <trkpt lat="48.68072" lon="6.14119">
        <ele>247</ele>
        <time>2013-04-07T10:43:24Z</time>
      </trkpt>
      <trkpt lat="48.6808" lon="6.14113">
        <ele>251</ele>
        <time>2013-04-07T10:43:28Z</time>
      </trkpt>
      <trkpt lat="48.68085" lon="6.14111">
        <ele>253</ele>
        <time>2013-04-07T10:43:30Z</time>
      </trkpt>
      <trkpt lat="48.6809" lon="6.14109">
        <ele>256</ele>
        <time>2013-04-07T10:43:33Z</time>
      </trkpt>
      <trkpt lat="48.68094" lon="6.14108">
        <ele>258</ele>
        <time>2013-04-07T10:43:35Z</time>
      </trkpt>
      <trkpt lat="48.68098" lon="6.14106">
        <ele>258</ele>
        <time>2013-04-07T10:43:37Z</time>
      </trkpt>
      <trkpt lat="48.68102" lon="6.14107">
        <ele>257</ele>
        <time>2013-04-07T10:43:39Z</time>
      </trkpt>
      <trkpt lat="48.68105" lon="6.14106">
        <ele>262</ele>
        <time>2013-04-07T10:43:41Z</time>
      </trkpt>
      <trkpt lat="48.6811" lon="6.14106">
        <ele>262</ele>
        <time>2013-04-07T10:43:43Z</time>
      </trkpt>
      <trkpt lat="48.68113" lon="6.14105">
        <ele>262</ele>
        <time>2013-04-07T10:43:45Z</time>
      </trkpt>
      <trkpt lat="48.68116" lon="6.14104">
        <ele>263</ele>
        <time>2013-04-07T10:43:47Z</time>
      </trkpt>
      <trkpt lat="48.6812" lon="6.14101">
        <ele>260</ele>
        <time>2013-04-07T10:43:49Z</time>
      </trkpt>
      <trkpt lat="48.68126" lon="6.14096">
        <ele>258</ele>
        <time>2013-04-07T10:43:51Z</time>
      </trkpt>
      <trkpt lat="48.6813" lon="6.14091">
        <ele>258</ele>
        <time>2013-04-07T10:43:53Z</time>
      </trkpt>
      <trkpt lat="48.68136" lon="6.14086">
        <ele>259</ele>
        <time>2013-04-07T10:43:55Z</time>
      </trkpt>
      <trkpt lat="48.6814" lon="6.14081">
        <ele>257</ele>
        <time>2013-04-07T10:43:57Z</time>
      </trkpt>
      <trkpt lat="48.68145" lon="6.14076">
        <ele>257</ele>
        <time>2013-04-07T10:43:59Z</time>
      </trkpt>
      <trkpt lat="48.68149" lon="6.14073">
        <ele>257</ele>
        <time>2013-04-07T10:44:01Z</time>
      </trkpt>
      <trkpt lat="48.68153" lon="6.14069">
        <ele>258</ele>
        <time>2013-04-07T10:44:03Z</time>
      </trkpt>
      <trkpt lat="48.68157" lon="6.14066">
        <ele>258</ele>
        <time>2013-04-07T10:44:05Z</time>
      </trkpt>
      <trkpt lat="48.68161" lon="6.14062">
        <ele>257</ele>
        <time>2013-04-07T10:44:07Z</time>
      </trkpt>
      <trkpt lat="48.68166" lon="6.14058">
        <ele>258</ele>
        <time>2013-04-07T10:44:09Z</time>
      </trkpt>
      <trkpt lat="48.6817" lon="6.14054">
        <ele>261</ele>
        <time>2013-04-07T10:44:11Z</time>
      </trkpt>
      <trkpt lat="48.68174" lon="6.14051">
        <ele>262</ele>
        <time>2013-04-07T10:44:13Z</time>
      </trkpt>
      <trkpt lat="48.68179" lon="6.14047">
        <ele>262</ele>
        <time>2013-04-07T10:44:15Z</time>
      </trkpt>
      <trkpt lat="48.68183" lon="6.14043">
        <ele>265</ele>
        <time>2013-04-07T10:44:17Z</time>
      </trkpt>
      <trkpt lat="48.68187" lon="6.14039">
        <ele>264</ele>
        <time>2013-04-07T10:44:19Z</time>
      </trkpt>
      <trkpt lat="48.6819" lon="6.14036">
        <ele>265</ele>
        <time>2013-04-07T10:44:21Z</time>
      </trkpt>
      <trkpt lat="48.68194" lon="6.14033">
        <ele>264</ele>
        <time>2013-04-07T10:44:23Z</time>
      </trkpt>
      <trkpt lat="48.68198" lon="6.1403">
        <ele>264</ele>
        <time>2013-04-07T10:44:25Z</time>
      </trkpt>
      <trkpt lat="48.68202" lon="6.14027">
        <ele>264</ele>
        <time>2013-04-07T10:44:27Z</time>
      </trkpt>
      <trkpt lat="48.68206" lon="6.14023">
        <ele>264</ele>
        <time>2013-04-07T10:44:29Z</time>
      </trkpt>
      <trkpt lat="48.6821" lon="6.14019">
        <ele>263</ele>
        <time>2013-04-07T10:44:31Z</time>
      </trkpt>
      <trkpt lat="48.68214" lon="6.14016">
        <ele>264</ele>
        <time>2013-04-07T10:44:33Z</time>
      </trkpt>
      <trkpt lat="48.68219" lon="6.14013">
        <ele>264</ele>
        <time>2013-04-07T10:44:35Z</time>
      </trkpt>
      <trkpt lat="48.68222" lon="6.1401">
        <ele>264</ele>
        <time>2013-04-07T10:44:37Z</time>
      </trkpt>
      <trkpt lat="48.68226" lon="6.14007">
        <ele>266</ele>
        <time>2013-04-07T10:44:39Z</time>
      </trkpt>
      <trkpt lat="48.6823" lon="6.14004">
        <ele>265</ele>
        <time>2013-04-07T10:44:41Z</time>
      </trkpt>
      <trkpt lat="48.68234" lon="6.14002">
        <ele>265</ele>
        <time>2013-04-07T10:44:43Z</time>
      </trkpt>
      <trkpt lat="48.68237" lon="6.13998">
        <ele>265</ele>
        <time>2013-04-07T10:44:45Z</time>
      </trkpt>
      <trkpt lat="48.68241" lon="6.13995">
        <ele>263</ele>
        <time>2013-04-07T10:44:47Z</time>
      </trkpt>
      <trkpt lat="48.68245" lon="6.13991">
        <ele>264</ele>
        <time>2013-04-07T10:44:49Z</time>
      </trkpt>
      <trkpt lat="48.68249" lon="6.13987">
        <ele>265</ele>
        <time>2013-04-07T10:44:51Z</time>
      </trkpt>
      <trkpt lat="48.68253" lon="6.13984">
        <ele>265</ele>
        <time>2013-04-07T10:44:53Z</time>
      </trkpt>
      <trkpt lat="48.68256" lon="6.13981">
        <ele>266</ele>
        <time>2013-04-07T10:44:55Z</time>
      </trkpt>
      <trkpt lat="48.68259" lon="6.13977">
        <ele>266</ele>
        <time>2013-04-07T10:44:57Z</time>
      </trkpt>
      <trkpt lat="48.68261" lon="6.13974">
        <ele>266</ele>
        <time>2013-04-07T10:44:59Z</time>
      </trkpt>
      <trkpt lat="48.68264" lon="6.13972">
        <ele>269</ele>
        <time>2013-04-07T10:45:01Z</time>
      </trkpt>
      <trkpt lat="48.68267" lon="6.13971">
        <ele>269</ele>
        <time>2013-04-07T10:45:03Z</time>
      </trkpt>
      <trkpt lat="48.68271" lon="6.13969">
        <ele>271</ele>
        <time>2013-04-07T10:45:05Z</time>
      </trkpt>
      <trkpt lat="48.68274" lon="6.13966">
        <ele>271</ele>
        <time>2013-04-07T10:45:07Z</time>
      </trkpt>
      <trkpt lat="48.68277" lon="6.13963">
        <ele>269</ele>
        <time>2013-04-07T10:45:09Z</time>
      </trkpt>
      <trkpt lat="48.68281" lon="6.1396">
        <ele>269</ele>
        <time>2013-04-07T10:45:11Z</time>
      </trkpt>
      <trkpt lat="48.68284" lon="6.13957">
        <ele>270</ele>
        <time>2013-04-07T10:45:13Z</time>
      </trkpt>
      <trkpt lat="48.68288" lon="6.13955">
        <ele>272</ele>
        <time>2013-04-07T10:45:15Z</time>
      </trkpt>
      <trkpt lat="48.68291" lon="6.13953">
        <ele>274</ele>
        <time>2013-04-07T10:45:17Z</time>
      </trkpt>
      <trkpt lat="48.68294" lon="6.13949">
        <ele>274</ele>
        <time>2013-04-07T10:45:19Z</time>
      </trkpt>
      <trkpt lat="48.68298" lon="6.13946">
        <ele>273</ele>
        <time>2013-04-07T10:45:21Z</time>
      </trkpt>
      <trkpt lat="48.68301" lon="6.13942">
        <ele>272</ele>
        <time>2013-04-07T10:45:23Z</time>
      </trkpt>
      <trkpt lat="48.68303" lon="6.13939">
        <ele>272</ele>
        <time>2013-04-07T10:45:25Z</time>
      </trkpt>
      <trkpt lat="48.68305" lon="6.13935">
        <ele>272</ele>
        <time>2013-04-07T10:45:27Z</time>
      </trkpt>
      <trkpt lat="48.68308" lon="6.13933">
        <ele>274</ele>
        <time>2013-04-07T10:45:29Z</time>
      </trkpt>
      <trkpt lat="48.68311" lon="6.13932">
        <ele>277</ele>
        <time>2013-04-07T10:45:31Z</time>
      </trkpt>
      <trkpt lat="48.68314" lon="6.1393">
        <ele>277</ele>
        <time>2013-04-07T10:45:33Z</time>
      </trkpt>
      <trkpt lat="48.68317" lon="6.13927">
        <ele>280</ele>
        <time>2013-04-07T10:45:35Z</time>
      </trkpt>
      <trkpt lat="48.68321" lon="6.13924">
        <ele>282</ele>
        <time>2013-04-07T10:45:37Z</time>
      </trkpt>
      <trkpt lat="48.68324" lon="6.13921">
        <ele>282</ele>
        <time>2013-04-07T10:45:39Z</time>
      </trkpt>
      <trkpt lat="48.68325" lon="6.13917">
        <ele>282</ele>
        <time>2013-04-07T10:45:41Z</time>
      </trkpt>
      <trkpt lat="48.68327" lon="6.13915">
        <ele>282</ele>
        <time>2013-04-07T10:45:43Z</time>
      </trkpt>
      <trkpt lat="48.68329" lon="6.13914">
        <ele>281</ele>
        <time>2013-04-07T10:45:45Z</time>
      </trkpt>
      <trkpt lat="48.68332" lon="6.13914">
        <ele>279</ele>
        <time>2013-04-07T10:45:47Z</time>
      </trkpt>
      <trkpt lat="48.68337" lon="6.13916">
        <ele>278</ele>
        <time>2013-04-07T10:45:49Z</time>
      </trkpt>
      <trkpt lat="48.68343" lon="6.13919">
        <ele>276</ele>
        <time>2013-04-07T10:45:51Z</time>
      </trkpt>
      <trkpt lat="48.68351" lon="6.13921">
        <ele>275</ele>
        <time>2013-04-07T10:45:53Z</time>
      </trkpt>
      <trkpt lat="48.68361" lon="6.13917">
        <ele>274</ele>
        <time>2013-04-07T10:45:55Z</time>
      </trkpt>
      <trkpt lat="48.68367" lon="6.13913">
        <ele>276</ele>
        <time>2013-04-07T10:45:57Z</time>
      </trkpt>
      <trkpt lat="48.68372" lon="6.1391">
        <ele>278</ele>
        <time>2013-04-07T10:45:59Z</time>
      </trkpt>
      <trkpt lat="48.68374" lon="6.13908">
        <ele>280</ele>
        <time>2013-04-07T10:46:01Z</time>
      </trkpt>
      <trkpt lat="48.68377" lon="6.13905">
        <ele>280</ele>
        <time>2013-04-07T10:46:03Z</time>
      </trkpt>
      <trkpt lat="48.68381" lon="6.13902">
        <ele>280</ele>
        <time>2013-04-07T10:46:05Z</time>
      </trkpt>
      <trkpt lat="48.68385" lon="6.13899">
        <ele>279</ele>
        <time>2013-04-07T10:46:07Z</time>
      </trkpt>
      <trkpt lat="48.68388" lon="6.13896">
        <ele>278</ele>
        <time>2013-04-07T10:46:09Z</time>
      </trkpt>
      <trkpt lat="48.68391" lon="6.13893">
        <ele>278</ele>
        <time>2013-04-07T10:46:11Z</time>
      </trkpt>
      <trkpt lat="48.68395" lon="6.13891">
        <ele>279</ele>
        <time>2013-04-07T10:46:13Z</time>
      </trkpt>
      <trkpt lat="48.68398" lon="6.13889">
        <ele>280</ele>
        <time>2013-04-07T10:46:15Z</time>
      </trkpt>
      <trkpt lat="48.68401" lon="6.13887">
        <ele>282</ele>
        <time>2013-04-07T10:46:17Z</time>
      </trkpt>
      <trkpt lat="48.68403" lon="6.13885">
        <ele>282</ele>
        <time>2013-04-07T10:46:19Z</time>
      </trkpt>
      <trkpt lat="48.68406" lon="6.13881">
        <ele>282</ele>
        <time>2013-04-07T10:46:21Z</time>
      </trkpt>
      <trkpt lat="48.68409" lon="6.13878">
        <ele>282</ele>
        <time>2013-04-07T10:46:23Z</time>
      </trkpt>
      <trkpt lat="48.68413" lon="6.13873">
        <ele>280</ele>
        <time>2013-04-07T10:46:25Z</time>
      </trkpt>
      <trkpt lat="48.68417" lon="6.13868">
        <ele>279</ele>
        <time>2013-04-07T10:46:27Z</time>
      </trkpt>
      <trkpt lat="48.68421" lon="6.13864">
        <ele>280</ele>
        <time>2013-04-07T10:46:29Z</time>
      </trkpt>
      <trkpt lat="48.68424" lon="6.13859">
        <ele>281</ele>
        <time>2013-04-07T10:46:31Z</time>
      </trkpt>
      <trkpt lat="48.68428" lon="6.13855">
        <ele>281</ele>
        <time>2013-04-07T10:46:33Z</time>
      </trkpt>
      <trkpt lat="48.68431" lon="6.1385">
        <ele>281</ele>
        <time>2013-04-07T10:46:35Z</time>
      </trkpt>
      <trkpt lat="48.68434" lon="6.13845">
        <ele>281</ele>
        <time>2013-04-07T10:46:37Z</time>
      </trkpt>
      <trkpt lat="48.68437" lon="6.1384">
        <ele>282</ele>
        <time>2013-04-07T10:46:39Z</time>
      </trkpt>
      <trkpt lat="48.6844" lon="6.13836">
        <ele>283</ele>
        <time>2013-04-07T10:46:41Z</time>
      </trkpt>
      <trkpt lat="48.68443" lon="6.13831">
        <ele>283</ele>
        <time>2013-04-07T10:46:43Z</time>
      </trkpt>
      <trkpt lat="48.68446" lon="6.13826">
        <ele>284</ele>
        <time>2013-04-07T10:46:45Z</time>
      </trkpt>
      <trkpt lat="48.68448" lon="6.1382">
        <ele>286</ele>
        <time>2013-04-07T10:46:47Z</time>
      </trkpt>
      <trkpt lat="48.68451" lon="6.13815">
        <ele>288</ele>
        <time>2013-04-07T10:46:49Z</time>
      </trkpt>
      <trkpt lat="48.68453" lon="6.13811">
        <ele>289</ele>
        <time>2013-04-07T10:46:51Z</time>
      </trkpt>
      <trkpt lat="48.68456" lon="6.13806">
        <ele>286</ele>
        <time>2013-04-07T10:46:53Z</time>
      </trkpt>
      <trkpt lat="48.68457" lon="6.13801">
        <ele>289</ele>
        <time>2013-04-07T10:46:55Z</time>
      </trkpt>
      <trkpt lat="48.6846" lon="6.13796">
        <ele>289</ele>
        <time>2013-04-07T10:46:57Z</time>
      </trkpt>
      <trkpt lat="48.68461" lon="6.13791">
        <ele>286</ele>
        <time>2013-04-07T10:46:59Z</time>
      </trkpt>
      <trkpt lat="48.68463" lon="6.13785">
        <ele>286</ele>
        <time>2013-04-07T10:47:01Z</time>
      </trkpt>
      <trkpt lat="48.68464" lon="6.1378">
        <ele>287</ele>
        <time>2013-04-07T10:47:03Z</time>
      </trkpt>
      <trkpt lat="48.68467" lon="6.13774">
        <ele>289</ele>
        <time>2013-04-07T10:47:05Z</time>
      </trkpt>
      <trkpt lat="48.68468" lon="6.1377">
        <ele>287</ele>
        <time>2013-04-07T10:47:07Z</time>
      </trkpt>
      <trkpt lat="48.68469" lon="6.13765">
        <ele>287</ele>
        <time>2013-04-07T10:47:09Z</time>
      </trkpt>
      <trkpt lat="48.68471" lon="6.13759">
        <ele>285</ele>
        <time>2013-04-07T10:47:11Z</time>
      </trkpt>
      <trkpt lat="48.68472" lon="6.13753">
        <ele>287</ele>
        <time>2013-04-07T10:47:13Z</time>
      </trkpt>
      <trkpt lat="48.68473" lon="6.13747">
        <ele>285</ele>
        <time>2013-04-07T10:47:15Z</time>
      </trkpt>
      <trkpt lat="48.68475" lon="6.13739">
        <ele>287</ele>
        <time>2013-04-07T10:47:17Z</time>
      </trkpt>
      <trkpt lat="48.68475" lon="6.13734">
        <ele>291</ele>
        <time>2013-04-07T10:47:19Z</time>
      </trkpt>
      <trkpt lat="48.68477" lon="6.13728">
        <ele>294</ele>
        <time>2013-04-07T10:47:21Z</time>
      </trkpt>
      <trkpt lat="48.68478" lon="6.13722">
        <ele>293</ele>
        <time>2013-04-07T10:47:23Z</time>
      </trkpt>
      <trkpt lat="48.6848" lon="6.13715">
        <ele>293</ele>
        <time>2013-04-07T10:47:25Z</time>
      </trkpt>
      <trkpt lat="48.68481" lon="6.13706">
        <ele>293</ele>
        <time>2013-04-07T10:47:27Z</time>
      </trkpt>
      <trkpt lat="48.68482" lon="6.13698">
        <ele>292</ele>
        <time>2013-04-07T10:47:29Z</time>
      </trkpt>
      <trkpt lat="48.68483" lon="6.13692">
        <ele>289</ele>
        <time>2013-04-07T10:47:31Z</time>
      </trkpt>
      <trkpt lat="48.68483" lon="6.13687">
        <ele>290</ele>
        <time>2013-04-07T10:47:33Z</time>
      </trkpt>
      <trkpt lat="48.68485" lon="6.13679">
        <ele>290</ele>
        <time>2013-04-07T10:47:35Z</time>
      </trkpt>
      <trkpt lat="48.68485" lon="6.13672">
        <ele>292</ele>
        <time>2013-04-07T10:47:37Z</time>
      </trkpt>
      <trkpt lat="48.68486" lon="6.13666">
        <ele>288</ele>
        <time>2013-04-07T10:47:39Z</time>
      </trkpt>
      <trkpt lat="48.68485" lon="6.13659">
        <ele>287</ele>
        <time>2013-04-07T10:47:41Z</time>
      </trkpt>
      <trkpt lat="48.68485" lon="6.13652">
        <ele>289</ele>
        <time>2013-04-07T10:47:43Z</time>
      </trkpt>
      <trkpt lat="48.68485" lon="6.13645">
        <ele>288</ele>
        <time>2013-04-07T10:47:45Z</time>
      </trkpt>
      <trkpt lat="48.68486" lon="6.13639">
        <ele>289</ele>
        <time>2013-04-07T10:47:47Z</time>
      </trkpt>
      <trkpt lat="48.68486" lon="6.13633">
        <ele>285</ele>
        <time>2013-04-07T10:47:49Z</time>
      </trkpt>
      <trkpt lat="48.68486" lon="6.13626">
        <ele>288</ele>
        <time>2013-04-07T10:47:51Z</time>
      </trkpt>
      <trkpt lat="48.68486" lon="6.1362">
        <ele>289</ele>
        <time>2013-04-07T10:47:53Z</time>
      </trkpt>
      <trkpt lat="48.68486" lon="6.13613">
        <ele>288</ele>
        <time>2013-04-07T10:47:55Z</time>
      </trkpt>
      <trkpt lat="48.68485" lon="6.13606">
        <ele>287</ele>
        <time>2013-04-07T10:47:57Z</time>
      </trkpt>
      <trkpt lat="48.68484" lon="6.13599">
        <ele>287</ele>
        <time>2013-04-07T10:47:59Z</time>
      </trkpt>
      <trkpt lat="48.68483" lon="6.13593">
        <ele>288</ele>
        <time>2013-04-07T10:48:01Z</time>
      </trkpt>
      <trkpt lat="48.68481" lon="6.13587">
        <ele>286</ele>
        <time>2013-04-07T10:48:03Z</time>
      </trkpt>
      <trkpt lat="48.68481" lon="6.13581">
        <ele>284</ele>
        <time>2013-04-07T10:48:05Z</time>
      </trkpt>
      <trkpt lat="48.68481" lon="6.13576">
        <ele>283</ele>
        <time>2013-04-07T10:48:07Z</time>
      </trkpt>
      <trkpt lat="48.68481" lon="6.1357">
        <ele>285</ele>
        <time>2013-04-07T10:48:09Z</time>
      </trkpt>
      <trkpt lat="48.68481" lon="6.13563">
        <ele>285</ele>
        <time>2013-04-07T10:48:11Z</time>
      </trkpt>
      <trkpt lat="48.6848" lon="6.13557">
        <ele>288</ele>
        <time>2013-04-07T10:48:13Z</time>
      </trkpt>
      <trkpt lat="48.6848" lon="6.13551">
        <ele>288</ele>
        <time>2013-04-07T10:48:15Z</time>
      </trkpt>
      <trkpt lat="48.6848" lon="6.13545">
        <ele>288</ele>
        <time>2013-04-07T10:48:17Z</time>
      </trkpt>
      <trkpt lat="48.6848" lon="6.1354">
        <ele>286</ele>
        <time>2013-04-07T10:48:19Z</time>
      </trkpt>
      <trkpt lat="48.68479" lon="6.13535">
        <ele>291</ele>
        <time>2013-04-07T10:48:21Z</time>
      </trkpt>
      <trkpt lat="48.68479" lon="6.1353">
        <ele>289</ele>
        <time>2013-04-07T10:48:23Z</time>
      </trkpt>
      <trkpt lat="48.68479" lon="6.13525">
        <ele>291</ele>
        <time>2013-04-07T10:48:25Z</time>
      </trkpt>
      <trkpt lat="48.68478" lon="6.1352">
        <ele>292</ele>
        <time>2013-04-07T10:48:27Z</time>
      </trkpt>
      <trkpt lat="48.68478" lon="6.13512">
        <ele>292</ele>
        <time>2013-04-07T10:48:29Z</time>
      </trkpt>
      <trkpt lat="48.68478" lon="6.13505">
        <ele>298</ele>
        <time>2013-04-07T10:48:31Z</time>
      </trkpt>
      <trkpt lat="48.68478" lon="6.13499">
        <ele>302</ele>
        <time>2013-04-07T10:48:33Z</time>
      </trkpt>
      <trkpt lat="48.68478" lon="6.13494">
        <ele>302</ele>
        <time>2013-04-07T10:48:35Z</time>
      </trkpt>
      <trkpt lat="48.68479" lon="6.13488">
        <ele>299</ele>
        <time>2013-04-07T10:48:37Z</time>
      </trkpt>
      <trkpt lat="48.68479" lon="6.13481">
        <ele>299</ele>
        <time>2013-04-07T10:48:39Z</time>
      </trkpt>
      <trkpt lat="48.68479" lon="6.13474">
        <ele>303</ele>
        <time>2013-04-07T10:48:41Z</time>
      </trkpt>
      <trkpt lat="48.68478" lon="6.13468">
        <ele>300</ele>
        <time>2013-04-07T10:48:43Z</time>
      </trkpt>
      <trkpt lat="48.68478" lon="6.13462">
        <ele>301</ele>
        <time>2013-04-07T10:48:45Z</time>
      </trkpt>
      <trkpt lat="48.68478" lon="6.13457">
        <ele>301</ele>
        <time>2013-04-07T10:48:47Z</time>
      </trkpt>
      <trkpt lat="48.68479" lon="6.13451">
        <ele>298</ele>
        <time>2013-04-07T10:48:49Z</time>
      </trkpt>
      <trkpt lat="48.68479" lon="6.13446">
        <ele>300</ele>
        <time>2013-04-07T10:48:51Z</time>
      </trkpt>
      <trkpt lat="48.68479" lon="6.13439">
        <ele>300</ele>
        <time>2013-04-07T10:48:53Z</time>
      </trkpt>
      <trkpt lat="48.6848" lon="6.13433">
        <ele>301</ele>
        <time>2013-04-07T10:48:55Z</time>
      </trkpt>
      <trkpt lat="48.6848" lon="6.13428">
        <ele>303</ele>
        <time>2013-04-07T10:48:57Z</time>
      </trkpt>
      <trkpt lat="48.6848" lon="6.13423">
        <ele>301</ele>
        <time>2013-04-07T10:48:59Z</time>
      </trkpt>
      <trkpt lat="48.68481" lon="6.13416">
        <ele>301</ele>
        <time>2013-04-07T10:49:01Z</time>
      </trkpt>
      <trkpt lat="48.68483" lon="6.13411">
        <ele>301</ele>
        <time>2013-04-07T10:49:03Z</time>
      </trkpt>
      <trkpt lat="48.68483" lon="6.13406">
        <ele>305</ele>
        <time>2013-04-07T10:49:05Z</time>
      </trkpt>
      <trkpt lat="48.68485" lon="6.13401">
        <ele>306</ele>
        <time>2013-04-07T10:49:07Z</time>
      </trkpt>
      <trkpt lat="48.68486" lon="6.13396">
        <ele>308</ele>
        <time>2013-04-07T10:49:09Z</time>
      </trkpt>
      <trkpt lat="48.68488" lon="6.13391">
        <ele>310</ele>
        <time>2013-04-07T10:49:11Z</time>
      </trkpt>
      <trkpt lat="48.68488" lon="6.13387">
        <ele>309</ele>
        <time>2013-04-07T10:49:13Z</time>
      </trkpt>
      <trkpt lat="48.68489" lon="6.13383">
        <ele>311</ele>
        <time>2013-04-07T10:49:15Z</time>
      </trkpt>
      <trkpt lat="48.6849" lon="6.13378">
        <ele>311</ele>
        <time>2013-04-07T10:49:17Z</time>
      </trkpt>
      <trkpt lat="48.68491" lon="6.13372">
        <ele>311</ele>
        <time>2013-04-07T10:49:19Z</time>
      </trkpt>
      <trkpt lat="48.68493" lon="6.13365">
        <ele>310</ele>
        <time>2013-04-07T10:49:21Z</time>
      </trkpt>
      <trkpt lat="48.68494" lon="6.13359">
        <ele>311</ele>
        <time>2013-04-07T10:49:23Z</time>
      </trkpt>
      <trkpt lat="48.68494" lon="6.13354">
        <ele>313</ele>
        <time>2013-04-07T10:49:25Z</time>
      </trkpt>
      <trkpt lat="48.68496" lon="6.13348">
        <ele>315</ele>
        <time>2013-04-07T10:49:27Z</time>
      </trkpt>
      <trkpt lat="48.68498" lon="6.13343">
        <ele>317</ele>
        <time>2013-04-07T10:49:29Z</time>
      </trkpt>
      <trkpt lat="48.685" lon="6.13337">
        <ele>318</ele>
        <time>2013-04-07T10:49:31Z</time>
      </trkpt>
      <trkpt lat="48.68502" lon="6.13333">
        <ele>322</ele>
        <time>2013-04-07T10:49:33Z</time>
      </trkpt>
      <trkpt lat="48.68504" lon="6.13329">
        <ele>324</ele>
        <time>2013-04-07T10:49:35Z</time>
      </trkpt>
      <trkpt lat="48.68507" lon="6.13322">
        <ele>325</ele>
        <time>2013-04-07T10:49:37Z</time>
      </trkpt>
      <trkpt lat="48.68509" lon="6.13317">
        <ele>326</ele>
        <time>2013-04-07T10:49:39Z</time>
      </trkpt>
      <trkpt lat="48.68512" lon="6.13313">
        <ele>326</ele>
        <time>2013-04-07T10:49:41Z</time>
      </trkpt>
      <trkpt lat="48.68514" lon="6.13308">
        <ele>327</ele>
        <time>2013-04-07T10:49:43Z</time>
      </trkpt>
      <trkpt lat="48.68517" lon="6.13303">
        <ele>328</ele>
        <time>2013-04-07T10:49:45Z</time>
      </trkpt>
      <trkpt lat="48.68518" lon="6.13299">
        <ele>332</ele>
        <time>2013-04-07T10:49:47Z</time>
      </trkpt>
      <trkpt lat="48.68521" lon="6.13295">
        <ele>334</ele>
        <time>2013-04-07T10:49:49Z</time>
      </trkpt>
      <trkpt lat="48.68523" lon="6.1329">
        <ele>330</ele>
        <time>2013-04-07T10:49:51Z</time>
      </trkpt>
      <trkpt lat="48.68525" lon="6.13285">
        <ele>331</ele>
        <time>2013-04-07T10:49:53Z</time>
      </trkpt>
      <trkpt lat="48.68529" lon="6.1328">
        <ele>328</ele>
        <time>2013-04-07T10:49:55Z</time>
      </trkpt>
      <trkpt lat="48.68531" lon="6.13275">
        <ele>332</ele>
        <time>2013-04-07T10:49:57Z</time>
      </trkpt>
      <trkpt lat="48.68534" lon="6.1327">
        <ele>327</ele>
        <time>2013-04-07T10:49:59Z</time>
      </trkpt>
      <trkpt lat="48.68537" lon="6.13266">
        <ele>328</ele>
        <time>2013-04-07T10:50:01Z</time>
      </trkpt>
      <trkpt lat="48.68538" lon="6.13263">
        <ele>327</ele>
        <time>2013-04-07T10:50:03Z</time>
      </trkpt>
      <trkpt lat="48.68541" lon="6.1326">
        <ele>327</ele>
        <time>2013-04-07T10:50:05Z</time>
      </trkpt>
      <trkpt lat="48.68544" lon="6.13255">
        <ele>331</ele>
        <time>2013-04-07T10:50:07Z</time>
      </trkpt>
      <trkpt lat="48.68546" lon="6.1325">
        <ele>332</ele>
        <time>2013-04-07T10:50:09Z</time>
      </trkpt>
      <trkpt lat="48.68547" lon="6.13246">
        <ele>331</ele>
        <time>2013-04-07T10:50:11Z</time>
      </trkpt>
      <trkpt lat="48.68549" lon="6.13244">
        <ele>334</ele>
        <time>2013-04-07T10:50:13Z</time>
      </trkpt>
      <trkpt lat="48.68552" lon="6.13241">
        <ele>335</ele>
        <time>2013-04-07T10:50:15Z</time>
      </trkpt>
      <trkpt lat="48.68555" lon="6.13238">
        <ele>332</ele>
        <time>2013-04-07T10:50:17Z</time>
      </trkpt>
      <trkpt lat="48.68559" lon="6.13233">
        <ele>330</ele>
        <time>2013-04-07T10:50:19Z</time>
      </trkpt>
      <trkpt lat="48.68562" lon="6.13229">
        <ele>330</ele>
        <time>2013-04-07T10:50:21Z</time>
      </trkpt>
      <trkpt lat="48.68564" lon="6.13225">
        <ele>329</ele>
        <time>2013-04-07T10:50:23Z</time>
      </trkpt>
      <trkpt lat="48.6857" lon="6.13219">
        <ele>329</ele>
        <time>2013-04-07T10:50:27Z</time>
      </trkpt>
      <trkpt lat="48.68574" lon="6.13215">
        <ele>329</ele>
        <time>2013-04-07T10:50:29Z</time>
      </trkpt>
      <trkpt lat="48.68577" lon="6.13211">
        <ele>330</ele>
        <time>2013-04-07T10:50:31Z</time>
      </trkpt>
      <trkpt lat="48.6858" lon="6.13209">
        <ele>329</ele>
        <time>2013-04-07T10:50:33Z</time>
      </trkpt>
      <trkpt lat="48.68583" lon="6.13205">
        <ele>330</ele>
        <time>2013-04-07T10:50:35Z</time>
      </trkpt>
      <trkpt lat="48.68586" lon="6.13203">
        <ele>331</ele>
        <time>2013-04-07T10:50:37Z</time>
      </trkpt>
      <trkpt lat="48.6859" lon="6.132">
        <ele>333</ele>
        <time>2013-04-07T10:50:39Z</time>
      </trkpt>
      <trkpt lat="48.68594" lon="6.13197">
        <ele>334</ele>
        <time>2013-04-07T10:50:41Z</time>
      </trkpt>
      <trkpt lat="48.68596" lon="6.13194">
        <ele>328</ele>
        <time>2013-04-07T10:50:43Z</time>
      </trkpt>
      <trkpt lat="48.68599" lon="6.13191">
        <ele>327</ele>
        <time>2013-04-07T10:50:45Z</time>
      </trkpt>
      <trkpt lat="48.68601" lon="6.13189">
        <ele>327</ele>
        <time>2013-04-07T10:50:47Z</time>
      </trkpt>
      <trkpt lat="48.68606" lon="6.13186">
        <ele>328</ele>
        <time>2013-04-07T10:50:49Z</time>
      </trkpt>
      <trkpt lat="48.68608" lon="6.13183">
        <ele>326</ele>
        <time>2013-04-07T10:50:51Z</time>
      </trkpt>
      <trkpt lat="48.68612" lon="6.13179">
        <ele>326</ele>
        <time>2013-04-07T10:50:53Z</time>
      </trkpt>
      <trkpt lat="48.68617" lon="6.13175">
        <ele>326</ele>
        <time>2013-04-07T10:50:55Z</time>
      </trkpt>
      <trkpt lat="48.68621" lon="6.13171">
        <ele>324</ele>
        <time>2013-04-07T10:50:57Z</time>
      </trkpt>
      <trkpt lat="48.68625" lon="6.13168">
        <ele>324</ele>
        <time>2013-04-07T10:50:59Z</time>
      </trkpt>
      <trkpt lat="48.6863" lon="6.13163">
        <ele>323</ele>
        <time>2013-04-07T10:51:01Z</time>
      </trkpt>
      <trkpt lat="48.68634" lon="6.13161">
        <ele>323</ele>
        <time>2013-04-07T10:51:03Z</time>
      </trkpt>
      <trkpt lat="48.68638" lon="6.1316">
        <ele>322</ele>
        <time>2013-04-07T10:51:05Z</time>
      </trkpt>
      <trkpt lat="48.68641" lon="6.13159">
        <ele>324</ele>
        <time>2013-04-07T10:51:07Z</time>
      </trkpt>
      <trkpt lat="48.68644" lon="6.13158">
        <ele>323</ele>
        <time>2013-04-07T10:51:09Z</time>
      </trkpt>
      <trkpt lat="48.68648" lon="6.13157">
        <ele>323</ele>
        <time>2013-04-07T10:51:11Z</time>
      </trkpt>
      <trkpt lat="48.68652" lon="6.13155">
        <ele>325</ele>
        <time>2013-04-07T10:51:13Z</time>
      </trkpt>
      <trkpt lat="48.68657" lon="6.13153">
        <ele>323</ele>
        <time>2013-04-07T10:51:15Z</time>
      </trkpt>
      <trkpt lat="48.68661" lon="6.13152">
        <ele>325</ele>
        <time>2013-04-07T10:51:17Z</time>
      </trkpt>
      <trkpt lat="48.68665" lon="6.13151">
        <ele>323</ele>
        <time>2013-04-07T10:51:19Z</time>
      </trkpt>
      <trkpt lat="48.68669" lon="6.13152">
        <ele>325</ele>
        <time>2013-04-07T10:51:21Z</time>
      </trkpt>
      <trkpt lat="48.68673" lon="6.13152">
        <ele>327</ele>
        <time>2013-04-07T10:51:23Z</time>
      </trkpt>
      <trkpt lat="48.68677" lon="6.13152">
        <ele>325</ele>
        <time>2013-04-07T10:51:25Z</time>
      </trkpt>
      <trkpt lat="48.68682" lon="6.13151">
        <ele>323</ele>
        <time>2013-04-07T10:51:27Z</time>
      </trkpt>
      <trkpt lat="48.68686" lon="6.13151">
        <ele>321</ele>
        <time>2013-04-07T10:51:29Z</time>
      </trkpt>
      <trkpt lat="48.68691" lon="6.1315">
        <ele>321</ele>
        <time>2013-04-07T10:51:31Z</time>
      </trkpt>
      <trkpt lat="48.68695" lon="6.13149">
        <ele>320</ele>
        <time>2013-04-07T10:51:33Z</time>
      </trkpt>
      <trkpt lat="48.687" lon="6.1315">
        <ele>321</ele>
        <time>2013-04-07T10:51:35Z</time>
      </trkpt>
      <trkpt lat="48.68704" lon="6.1315">
        <ele>322</ele>
        <time>2013-04-07T10:51:37Z</time>
      </trkpt>
      <trkpt lat="48.68708" lon="6.1315">
        <ele>324</ele>
        <time>2013-04-07T10:51:39Z</time>
      </trkpt>
      <trkpt lat="48.68711" lon="6.13152">
        <ele>325</ele>
        <time>2013-04-07T10:51:41Z</time>
      </trkpt>
      <trkpt lat="48.68715" lon="6.13154">
        <ele>324</ele>
        <time>2013-04-07T10:51:43Z</time>
      </trkpt>
      <trkpt lat="48.6872" lon="6.13154">
        <ele>323</ele>
        <time>2013-04-07T10:51:45Z</time>
      </trkpt>
      <trkpt lat="48.68723" lon="6.13155">
        <ele>323</ele>
        <time>2013-04-07T10:51:47Z</time>
      </trkpt>
      <trkpt lat="48.68727" lon="6.13156">
        <ele>323</ele>
        <time>2013-04-07T10:51:49Z</time>
      </trkpt>
      <trkpt lat="48.68732" lon="6.13157">
        <ele>324</ele>
        <time>2013-04-07T10:51:51Z</time>
      </trkpt>
      <trkpt lat="48.68736" lon="6.13157">
        <ele>324</ele>
        <time>2013-04-07T10:51:53Z</time>
      </trkpt>
      <trkpt lat="48.6874" lon="6.13159">
        <ele>322</ele>
        <time>2013-04-07T10:51:55Z</time>
      </trkpt>
      <trkpt lat="48.68743" lon="6.1316">
        <ele>326</ele>
        <time>2013-04-07T10:51:57Z</time>
      </trkpt>
      <trkpt lat="48.68747" lon="6.13161">
        <ele>329</ele>
        <time>2013-04-07T10:51:59Z</time>
      </trkpt>
      <trkpt lat="48.6875" lon="6.13162">
        <ele>330</ele>
        <time>2013-04-07T10:52:01Z</time>
      </trkpt>
      <trkpt lat="48.68754" lon="6.13165">
        <ele>331</ele>
        <time>2013-04-07T10:52:03Z</time>
      </trkpt>
      <trkpt lat="48.68758" lon="6.13167">
        <ele>331</ele>
        <time>2013-04-07T10:52:05Z</time>
      </trkpt>
      <trkpt lat="48.68762" lon="6.13169">
        <ele>332</ele>
        <time>2013-04-07T10:52:07Z</time>
      </trkpt>
      <trkpt lat="48.68766" lon="6.1317">
        <ele>334</ele>
        <time>2013-04-07T10:52:09Z</time>
      </trkpt>
      <trkpt lat="48.6877" lon="6.13171">
        <ele>332</ele>
        <time>2013-04-07T10:52:11Z</time>
      </trkpt>
      <trkpt lat="48.68773" lon="6.13172">
        <ele>331</ele>
        <time>2013-04-07T10:52:13Z</time>
      </trkpt>
      <trkpt lat="48.68778" lon="6.13173">
        <ele>330</ele>
        <time>2013-04-07T10:52:15Z</time>
      </trkpt>
      <trkpt lat="48.68782" lon="6.13174">
        <ele>330</ele>
        <time>2013-04-07T10:52:17Z</time>
      </trkpt>
      <trkpt lat="48.68786" lon="6.13176">
        <ele>331</ele>
        <time>2013-04-07T10:52:19Z</time>
      </trkpt>
      <trkpt lat="48.6879" lon="6.13178">
        <ele>333</ele>
        <time>2013-04-07T10:52:21Z</time>
      </trkpt>
      <trkpt lat="48.68794" lon="6.1318">
        <ele>332</ele>
        <time>2013-04-07T10:52:23Z</time>
      </trkpt>
      <trkpt lat="48.68798" lon="6.13183">
        <ele>332</ele>
        <time>2013-04-07T10:52:25Z</time>
      </trkpt>
      <trkpt lat="48.68801" lon="6.13186">
        <ele>333</ele>
        <time>2013-04-07T10:52:27Z</time>
      </trkpt>
      <trkpt lat="48.68805" lon="6.1319">
        <ele>333</ele>
        <time>2013-04-07T10:52:29Z</time>
      </trkpt>
      <trkpt lat="48.68808" lon="6.13192">
        <ele>334</ele>
        <time>2013-04-07T10:52:31Z</time>
      </trkpt>
      <trkpt lat="48.68812" lon="6.13194">
        <ele>334</ele>
        <time>2013-04-07T10:52:33Z</time>
      </trkpt>
      <trkpt lat="48.68816" lon="6.13194">
        <ele>334</ele>
        <time>2013-04-07T10:52:35Z</time>
      </trkpt>
      <trkpt lat="48.6882" lon="6.13193">
        <ele>334</ele>
        <time>2013-04-07T10:52:37Z</time>
      </trkpt>
      <trkpt lat="48.68824" lon="6.13188">
        <ele>334</ele>
        <time>2013-04-07T10:52:39Z</time>
      </trkpt>
      <trkpt lat="48.68827" lon="6.13182">
        <ele>335</ele>
        <time>2013-04-07T10:52:41Z</time>
      </trkpt>
      <trkpt lat="48.68829" lon="6.13175">
        <ele>336</ele>
        <time>2013-04-07T10:52:43Z</time>
      </trkpt>
      <trkpt lat="48.68829" lon="6.13166">
        <ele>339</ele>
        <time>2013-04-07T10:52:45Z</time>
      </trkpt>
      <trkpt lat="48.68829" lon="6.13157">
        <ele>339</ele>
        <time>2013-04-07T10:52:47Z</time>
      </trkpt>
      <trkpt lat="48.68829" lon="6.13149">
        <ele>332</ele>
        <time>2013-04-07T10:52:49Z</time>
      </trkpt>
      <trkpt lat="48.68829" lon="6.13141">
        <ele>330</ele>
        <time>2013-04-07T10:52:51Z</time>
      </trkpt>
      <trkpt lat="48.68829" lon="6.13134">
        <ele>328</ele>
        <time>2013-04-07T10:52:53Z</time>
      </trkpt>
      <trkpt lat="48.68828" lon="6.13128">
        <ele>329</ele>
        <time>2013-04-07T10:52:55Z</time>
      </trkpt>
      <trkpt lat="48.68829" lon="6.13123">
        <ele>331</ele>
        <time>2013-04-07T10:52:57Z</time>
      </trkpt>
      <trkpt lat="48.68829" lon="6.13117">
        <ele>331</ele>
        <time>2013-04-07T10:52:59Z</time>
      </trkpt>
      <trkpt lat="48.68829" lon="6.13111">
        <ele>335</ele>
        <time>2013-04-07T10:53:01Z</time>
      </trkpt>
      <trkpt lat="48.68828" lon="6.13105">
        <ele>336</ele>
        <time>2013-04-07T10:53:03Z</time>
      </trkpt>
      <trkpt lat="48.68828" lon="6.13099">
        <ele>338</ele>
        <time>2013-04-07T10:53:05Z</time>
      </trkpt>
      <trkpt lat="48.68828" lon="6.13093">
        <ele>339</ele>
        <time>2013-04-07T10:53:07Z</time>
      </trkpt>
      <trkpt lat="48.68827" lon="6.13087">
        <ele>337</ele>
        <time>2013-04-07T10:53:09Z</time>
      </trkpt>
      <trkpt lat="48.68827" lon="6.1308">
        <ele>340</ele>
        <time>2013-04-07T10:53:11Z</time>
      </trkpt>
      <trkpt lat="48.68826" lon="6.13073">
        <ele>342</ele>
        <time>2013-04-07T10:53:13Z</time>
      </trkpt>
      <trkpt lat="48.68825" lon="6.13068">
        <ele>342</ele>
        <time>2013-04-07T10:53:15Z</time>
      </trkpt>
      <trkpt lat="48.68825" lon="6.13062">
        <ele>339</ele>
        <time>2013-04-07T10:53:17Z</time>
      </trkpt>
      <trkpt lat="48.68824" lon="6.13056">
        <ele>339</ele>
        <time>2013-04-07T10:53:19Z</time>
      </trkpt>
      <trkpt lat="48.68823" lon="6.1305">
        <ele>338</ele>
        <time>2013-04-07T10:53:21Z</time>
      </trkpt>
      <trkpt lat="48.68822" lon="6.13044">
        <ele>337</ele>
        <time>2013-04-07T10:53:23Z</time>
      </trkpt>
      <trkpt lat="48.68822" lon="6.13038">
        <ele>337</ele>
        <time>2013-04-07T10:53:25Z</time>
      </trkpt>
      <trkpt lat="48.68821" lon="6.13032">
        <ele>342</ele>
        <time>2013-04-07T10:53:27Z</time>
      </trkpt>
      <trkpt lat="48.6882" lon="6.13026">
        <ele>348</ele>
        <time>2013-04-07T10:53:29Z</time>
      </trkpt>
      <trkpt lat="48.68819" lon="6.1302">
        <ele>349</ele>
        <time>2013-04-07T10:53:31Z</time>
      </trkpt>
      <trkpt lat="48.6882" lon="6.13014">
        <ele>349</ele>
        <time>2013-04-07T10:53:33Z</time>
      </trkpt>
      <trkpt lat="48.6882" lon="6.13007">
        <ele>350</ele>
        <time>2013-04-07T10:53:35Z</time>
      </trkpt>
      <trkpt lat="48.6882" lon="6.13">
        <ele>349</ele>
        <time>2013-04-07T10:53:37Z</time>
      </trkpt>
      <trkpt lat="48.68819" lon="6.12994">
        <ele>349</ele>
        <time>2013-04-07T10:53:39Z</time>
      </trkpt>
      <trkpt lat="48.6882" lon="6.12986">
        <ele>344</ele>
        <time>2013-04-07T10:53:41Z</time>
      </trkpt>
      <trkpt lat="48.6882" lon="6.1298">
        <ele>345</ele>
        <time>2013-04-07T10:53:43Z</time>
      </trkpt>
      <trkpt lat="48.68819" lon="6.12974">
        <ele>341</ele>
        <time>2013-04-07T10:53:45Z</time>
      </trkpt>
      <trkpt lat="48.6882" lon="6.12968">
        <ele>344</ele>
        <time>2013-04-07T10:53:47Z</time>
      </trkpt>
      <trkpt lat="48.68821" lon="6.12961">
        <ele>343</ele>
        <time>2013-04-07T10:53:49Z</time>
      </trkpt>
      <trkpt lat="48.6882" lon="6.12955">
        <ele>348</ele>
        <time>2013-04-07T10:53:51Z</time>
      </trkpt>
      <trkpt lat="48.68819" lon="6.12948">
        <ele>351</ele>
        <time>2013-04-07T10:53:53Z</time>
      </trkpt>
      <trkpt lat="48.68817" lon="6.1294">
        <ele>352</ele>
        <time>2013-04-07T10:53:55Z</time>
      </trkpt>
      <trkpt lat="48.68817" lon="6.12933">
        <ele>349</ele>
        <time>2013-04-07T10:53:57Z</time>
      </trkpt>
      <trkpt lat="48.68816" lon="6.12926">
        <ele>350</ele>
        <time>2013-04-07T10:53:59Z</time>
      </trkpt>
      <trkpt lat="48.68815" lon="6.12918">
        <ele>348</ele>
        <time>2013-04-07T10:54:01Z</time>
      </trkpt>
      <trkpt lat="48.68815" lon="6.12911">
        <ele>346</ele>
        <time>2013-04-07T10:54:03Z</time>
      </trkpt>
      <trkpt lat="48.68815" lon="6.12905">
        <ele>348</ele>
        <time>2013-04-07T10:54:05Z</time>
      </trkpt>
      <trkpt lat="48.68815" lon="6.12898">
        <ele>344</ele>
        <time>2013-04-07T10:54:07Z</time>
      </trkpt>
      <trkpt lat="48.68814" lon="6.12891">
        <ele>347</ele>
        <time>2013-04-07T10:54:09Z</time>
      </trkpt>
      <trkpt lat="48.68813" lon="6.12884">
        <ele>343</ele>
        <time>2013-04-07T10:54:11Z</time>
      </trkpt>
      <trkpt lat="48.68812" lon="6.12877">
        <ele>347</ele>
        <time>2013-04-07T10:54:13Z</time>
      </trkpt>
      <trkpt lat="48.68812" lon="6.12872">
        <ele>346</ele>
        <time>2013-04-07T10:54:15Z</time>
      </trkpt>
      <trkpt lat="48.68811" lon="6.12866">
        <ele>347</ele>
        <time>2013-04-07T10:54:17Z</time>
      </trkpt>
      <trkpt lat="48.68811" lon="6.12859">
        <ele>345</ele>
        <time>2013-04-07T10:54:19Z</time>
      </trkpt>
      <trkpt lat="48.6881" lon="6.12853">
        <ele>349</ele>
        <time>2013-04-07T10:54:21Z</time>
      </trkpt>
      <trkpt lat="48.68809" lon="6.12846">
        <ele>351</ele>
        <time>2013-04-07T10:54:23Z</time>
      </trkpt>
      <trkpt lat="48.68809" lon="6.12839">
        <ele>347</ele>
        <time>2013-04-07T10:54:25Z</time>
      </trkpt>
      <trkpt lat="48.68808" lon="6.12832">
        <ele>349</ele>
        <time>2013-04-07T10:54:27Z</time>
      </trkpt>
      <trkpt lat="48.68808" lon="6.12823">
        <ele>348</ele>
        <time>2013-04-07T10:54:29Z</time>
      </trkpt>
      <trkpt lat="48.68807" lon="6.12813">
        <ele>351</ele>
        <time>2013-04-07T10:54:31Z</time>
      </trkpt>
      <trkpt lat="48.68806" lon="6.12804">
        <ele>350</ele>
        <time>2013-04-07T10:54:33Z</time>
      </trkpt>
      <trkpt lat="48.68804" lon="6.12796">
        <ele>349</ele>
        <time>2013-04-07T10:54:35Z</time>
      </trkpt>
      <trkpt lat="48.68803" lon="6.12788">
        <ele>349</ele>
        <time>2013-04-07T10:54:37Z</time>
      </trkpt>
      <trkpt lat="48.68802" lon="6.1278">
        <ele>348</ele>
        <time>2013-04-07T10:54:39Z</time>
      </trkpt>
      <trkpt lat="48.68802" lon="6.12771">
        <ele>347</ele>
        <time>2013-04-07T10:54:41Z</time>
      </trkpt>
      <trkpt lat="48.68801" lon="6.12764">
        <ele>347</ele>
        <time>2013-04-07T10:54:43Z</time>
      </trkpt>
      <trkpt lat="48.688" lon="6.12756">
        <ele>347</ele>
        <time>2013-04-07T10:54:45Z</time>
      </trkpt>
      <trkpt lat="48.68799" lon="6.12749">
        <ele>350</ele>
        <time>2013-04-07T10:54:47Z</time>
      </trkpt>
      <trkpt lat="48.68798" lon="6.12742">
        <ele>348</ele>
        <time>2013-04-07T10:54:49Z</time>
      </trkpt>
      <trkpt lat="48.68796" lon="6.12737">
        <ele>346</ele>
        <time>2013-04-07T10:54:51Z</time>
      </trkpt>
      <trkpt lat="48.68794" lon="6.12733">
        <ele>347</ele>
        <time>2013-04-07T10:54:53Z</time>
      </trkpt>
      <trkpt lat="48.68791" lon="6.1273">
        <ele>346</ele>
        <time>2013-04-07T10:54:55Z</time>
      </trkpt>
      <trkpt lat="48.68785" lon="6.12727">
        <ele>349</ele>
        <time>2013-04-07T10:54:57Z</time>
      </trkpt>
      <trkpt lat="48.68778" lon="6.12725">
        <ele>345</ele>
        <time>2013-04-07T10:54:59Z</time>
      </trkpt>
      <trkpt lat="48.68769" lon="6.12725">
        <ele>343</ele>
        <time>2013-04-07T10:55:01Z</time>
      </trkpt>
      <trkpt lat="48.68762" lon="6.12726">
        <ele>345</ele>
        <time>2013-04-07T10:55:03Z</time>
      </trkpt>
      <trkpt lat="48.68755" lon="6.12728">
        <ele>347</ele>
        <time>2013-04-07T10:55:05Z</time>
      </trkpt>
      <trkpt lat="48.68747" lon="6.1273">
        <ele>347</ele>
        <time>2013-04-07T10:55:07Z</time>
      </trkpt>
      <trkpt lat="48.68738" lon="6.12733">
        <ele>351</ele>
        <time>2013-04-07T10:55:09Z</time>
      </trkpt>
      <trkpt lat="48.68729" lon="6.12736">
        <ele>354</ele>
        <time>2013-04-07T10:55:11Z</time>
      </trkpt>
      <trkpt lat="48.68722" lon="6.12738">
        <ele>358</ele>
        <time>2013-04-07T10:55:13Z</time>
      </trkpt>
      <trkpt lat="48.68714" lon="6.12741">
        <ele>362</ele>
        <time>2013-04-07T10:55:15Z</time>
      </trkpt>
      <trkpt lat="48.68705" lon="6.12741">
        <ele>363</ele>
        <time>2013-04-07T10:55:17Z</time>
      </trkpt>
      <trkpt lat="48.68695" lon="6.12743">
        <ele>365</ele>
        <time>2013-04-07T10:55:19Z</time>
      </trkpt>
      <trkpt lat="48.68685" lon="6.12747">
        <ele>366</ele>
        <time>2013-04-07T10:55:21Z</time>
      </trkpt>
      <trkpt lat="48.68675" lon="6.12753">
        <ele>365</ele>
        <time>2013-04-07T10:55:23Z</time>
      </trkpt>
      <trkpt lat="48.68667" lon="6.1276">
        <ele>357</ele>
        <time>2013-04-07T10:55:25Z</time>
      </trkpt>
      <trkpt lat="48.68658" lon="6.12767">
        <ele>353</ele>
        <time>2013-04-07T10:55:27Z</time>
      </trkpt>
      <trkpt lat="48.68647" lon="6.12769">
        <ele>354</ele>
        <time>2013-04-07T10:55:29Z</time>
      </trkpt>
      <trkpt lat="48.68636" lon="6.12773">
        <ele>351</ele>
        <time>2013-04-07T10:55:31Z</time>
      </trkpt>
      <trkpt lat="48.68626" lon="6.12777">
        <ele>350</ele>
        <time>2013-04-07T10:55:33Z</time>
      </trkpt>
      <trkpt lat="48.68615" lon="6.12781">
        <ele>351</ele>
        <time>2013-04-07T10:55:35Z</time>
      </trkpt>
      <trkpt lat="48.68605" lon="6.12783">
        <ele>353</ele>
        <time>2013-04-07T10:55:37Z</time>
      </trkpt>
      <trkpt lat="48.68595" lon="6.12786">
        <ele>350</ele>
        <time>2013-04-07T10:55:39Z</time>
      </trkpt>
      <trkpt lat="48.68588" lon="6.12788">
        <ele>349</ele>
        <time>2013-04-07T10:55:41Z</time>
      </trkpt>
      <trkpt lat="48.68581" lon="6.12793">
        <ele>350</ele>
        <time>2013-04-07T10:55:43Z</time>
      </trkpt>
      <trkpt lat="48.6858" lon="6.12796">
        <ele>339</ele>
        <time>2013-04-07T10:56:07Z</time>
      </trkpt>
      <trkpt lat="48.68584" lon="6.12797">
        <ele>338</ele>
        <time>2013-04-07T10:57:13Z</time>
      </trkpt>
      <trkpt lat="48.68582" lon="6.12799">
        <ele>343</ele>
        <time>2013-04-07T10:57:35Z</time>
      </trkpt>
      <trkpt lat="48.68578" lon="6.12802">
        <ele>346</ele>
        <time>2013-04-07T10:57:37Z</time>
      </trkpt>
      <trkpt lat="48.68574" lon="6.12804">
        <ele>346</ele>
        <time>2013-04-07T10:57:39Z</time>
      </trkpt>
      <trkpt lat="48.68569" lon="6.12806">
        <ele>345</ele>
        <time>2013-04-07T10:57:41Z</time>
      </trkpt>
      <trkpt lat="48.68562" lon="6.12809">
        <ele>337</ele>
        <time>2013-04-07T10:57:43Z</time>
      </trkpt>
      <trkpt lat="48.68557" lon="6.12812">
        <ele>337</ele>
        <time>2013-04-07T10:57:45Z</time>
      </trkpt>
      <trkpt lat="48.68552" lon="6.12814">
        <ele>338</ele>
        <time>2013-04-07T10:57:47Z</time>
      </trkpt>
      <trkpt lat="48.68546" lon="6.12816">
        <ele>340</ele>
        <time>2013-04-07T10:57:49Z</time>
      </trkpt>
      <trkpt lat="48.68539" lon="6.12818">
        <ele>339</ele>
        <time>2013-04-07T10:57:51Z</time>
      </trkpt>
      <trkpt lat="48.68533" lon="6.12822">
        <ele>341</ele>
        <time>2013-04-07T10:57:53Z</time>
      </trkpt>
      <trkpt lat="48.68527" lon="6.12825">
        <ele>341</ele>
        <time>2013-04-07T10:57:55Z</time>
      </trkpt>
      <trkpt lat="48.6852" lon="6.1283">
        <ele>345</ele>
        <time>2013-04-07T10:57:57Z</time>
      </trkpt>
      <trkpt lat="48.68514" lon="6.12835">
        <ele>345</ele>
        <time>2013-04-07T10:57:59Z</time>
      </trkpt>
      <trkpt lat="48.68509" lon="6.12837">
        <ele>345</ele>
        <time>2013-04-07T10:58:01Z</time>
      </trkpt>
      <trkpt lat="48.68504" lon="6.12841">
        <ele>348</ele>
        <time>2013-04-07T10:58:03Z</time>
      </trkpt>
      <trkpt lat="48.68497" lon="6.12843">
        <ele>351</ele>
        <time>2013-04-07T10:58:05Z</time>
      </trkpt>
      <trkpt lat="48.68491" lon="6.12846">
        <ele>349</ele>
        <time>2013-04-07T10:58:07Z</time>
      </trkpt>
      <trkpt lat="48.68483" lon="6.12848">
        <ele>345</ele>
        <time>2013-04-07T10:58:09Z</time>
      </trkpt>
      <trkpt lat="48.68474" lon="6.1285">
        <ele>346</ele>
        <time>2013-04-07T10:58:11Z</time>
      </trkpt>
      <trkpt lat="48.6847" lon="6.12851">
        <ele>351</ele>
        <time>2013-04-07T10:58:13Z</time>
      </trkpt>
      <trkpt lat="48.68463" lon="6.12855">
        <ele>346</ele>
        <time>2013-04-07T10:58:15Z</time>
      </trkpt>
      <trkpt lat="48.68458" lon="6.12862">
        <ele>343</ele>
        <time>2013-04-07T10:58:17Z</time>
      </trkpt>
      <trkpt lat="48.68456" lon="6.12866">
        <ele>346</ele>
        <time>2013-04-07T10:58:19Z</time>
      </trkpt>
      <trkpt lat="48.68453" lon="6.12865">
        <ele>341</ele>
        <time>2013-04-07T10:58:21Z</time>
      </trkpt>
      <trkpt lat="48.6845" lon="6.12864">
        <ele>342</ele>
        <time>2013-04-07T10:58:23Z</time>
      </trkpt>
      <trkpt lat="48.68444" lon="6.1286">
        <ele>341</ele>
        <time>2013-04-07T10:58:25Z</time>
      </trkpt>
      <trkpt lat="48.6844" lon="6.12856">
        <ele>338</ele>
        <time>2013-04-07T10:58:27Z</time>
      </trkpt>
      <trkpt lat="48.68437" lon="6.1285">
        <ele>334</ele>
        <time>2013-04-07T10:58:29Z</time>
      </trkpt>
      <trkpt lat="48.68435" lon="6.12844">
        <ele>336</ele>
        <time>2013-04-07T10:58:31Z</time>
      </trkpt>
      <trkpt lat="48.68431" lon="6.12838">
        <ele>338</ele>
        <time>2013-04-07T10:58:33Z</time>
      </trkpt>
      <trkpt lat="48.68429" lon="6.12835">
        <ele>341</ele>
        <time>2013-04-07T10:58:35Z</time>
      </trkpt>
      <trkpt lat="48.68426" lon="6.12829">
        <ele>341</ele>
        <time>2013-04-07T10:58:37Z</time>
      </trkpt>
      <trkpt lat="48.68423" lon="6.12824">
        <ele>345</ele>
        <time>2013-04-07T10:58:39Z</time>
      </trkpt>
      <trkpt lat="48.68419" lon="6.1282">
        <ele>340</ele>
        <time>2013-04-07T10:58:41Z</time>
      </trkpt>
      <trkpt lat="48.68414" lon="6.12815">
        <ele>340</ele>
        <time>2013-04-07T10:58:43Z</time>
      </trkpt>
      <trkpt lat="48.68411" lon="6.12812">
        <ele>338</ele>
        <time>2013-04-07T10:58:45Z</time>
      </trkpt>
      <trkpt lat="48.68407" lon="6.12809">
        <ele>334</ele>
        <time>2013-04-07T10:58:47Z</time>
      </trkpt>
      <trkpt lat="48.68405" lon="6.12806">
        <ele>338</ele>
        <time>2013-04-07T10:58:49Z</time>
      </trkpt>
      <trkpt lat="48.68402" lon="6.12801">
        <ele>336</ele>
        <time>2013-04-07T10:58:51Z</time>
      </trkpt>
      <trkpt lat="48.68396" lon="6.12795">
        <ele>340</ele>
        <time>2013-04-07T10:58:53Z</time>
      </trkpt>
      <trkpt lat="48.68391" lon="6.1279">
        <ele>343</ele>
        <time>2013-04-07T10:58:55Z</time>
      </trkpt>
      <trkpt lat="48.68387" lon="6.12787">
        <ele>337</ele>
        <time>2013-04-07T10:58:57Z</time>
      </trkpt>
      <trkpt lat="48.68382" lon="6.12783">
        <ele>337</ele>
        <time>2013-04-07T10:58:59Z</time>
      </trkpt>
      <trkpt lat="48.68377" lon="6.12778">
        <ele>335</ele>
        <time>2013-04-07T10:59:01Z</time>
      </trkpt>
      <trkpt lat="48.68372" lon="6.12773">
        <ele>335</ele>
        <time>2013-04-07T10:59:03Z</time>
      </trkpt>
      <trkpt lat="48.68367" lon="6.12767">
        <ele>340</ele>
        <time>2013-04-07T10:59:05Z</time>
      </trkpt>
      <trkpt lat="48.68363" lon="6.12761">
        <ele>342</ele>
        <time>2013-04-07T10:59:07Z</time>
      </trkpt>
      <trkpt lat="48.68352" lon="6.12748">
        <ele>345</ele>
        <time>2013-04-07T10:59:11Z</time>
      </trkpt>
      <trkpt lat="48.6835" lon="6.12745">
        <ele>347</ele>
        <time>2013-04-07T10:59:13Z</time>
      </trkpt>
      <trkpt lat="48.68346" lon="6.12739">
        <ele>353</ele>
        <time>2013-04-07T10:59:15Z</time>
      </trkpt>
      <trkpt lat="48.68341" lon="6.12731">
        <ele>354</ele>
        <time>2013-04-07T10:59:17Z</time>
      </trkpt>
      <trkpt lat="48.68332" lon="6.12724">
        <ele>353</ele>
        <time>2013-04-07T10:59:19Z</time>
      </trkpt>
      <trkpt lat="48.68325" lon="6.1272">
        <ele>352</ele>
        <time>2013-04-07T10:59:21Z</time>
      </trkpt>
      <trkpt lat="48.68321" lon="6.12716">
        <ele>354</ele>
        <time>2013-04-07T10:59:23Z</time>
      </trkpt>
      <trkpt lat="48.68315" lon="6.12711">
        <ele>349</ele>
        <time>2013-04-07T10:59:25Z</time>
      </trkpt>
      <trkpt lat="48.68311" lon="6.12705">
        <ele>353</ele>
        <time>2013-04-07T10:59:27Z</time>
      </trkpt>
      <trkpt lat="48.68307" lon="6.127">
        <ele>350</ele>
        <time>2013-04-07T10:59:29Z</time>
      </trkpt>
      <trkpt lat="48.68302" lon="6.12692">
        <ele>345</ele>
        <time>2013-04-07T10:59:31Z</time>
      </trkpt>
      <trkpt lat="48.68296" lon="6.12687">
        <ele>346</ele>
        <time>2013-04-07T10:59:33Z</time>
      </trkpt>
      <trkpt lat="48.6829" lon="6.12682">
        <ele>343</ele>
        <time>2013-04-07T10:59:35Z</time>
      </trkpt>
      <trkpt lat="48.68284" lon="6.12678">
        <ele>342</ele>
        <time>2013-04-07T10:59:37Z</time>
      </trkpt>
      <trkpt lat="48.6828" lon="6.12674">
        <ele>343</ele>
        <time>2013-04-07T10:59:39Z</time>
      </trkpt>
      <trkpt lat="48.68276" lon="6.12668">
        <ele>340</ele>
        <time>2013-04-07T10:59:41Z</time>
      </trkpt>
      <trkpt lat="48.68272" lon="6.12661">
        <ele>345</ele>
        <time>2013-04-07T10:59:43Z</time>
      </trkpt>
      <trkpt lat="48.68265" lon="6.12652">
        <ele>338</ele>
        <time>2013-04-07T10:59:45Z</time>
      </trkpt>
      <trkpt lat="48.68259" lon="6.12647">
        <ele>340</ele>
        <time>2013-04-07T10:59:47Z</time>
      </trkpt>
      <trkpt lat="48.68252" lon="6.12644">
        <ele>346</ele>
        <time>2013-04-07T10:59:49Z</time>
      </trkpt>
      <trkpt lat="48.68246" lon="6.12642">
        <ele>351</ele>
        <time>2013-04-07T10:59:51Z</time>
      </trkpt>
      <trkpt lat="48.68237" lon="6.12635">
        <ele>348</ele>
        <time>2013-04-07T10:59:53Z</time>
      </trkpt>
      <trkpt lat="48.68227" lon="6.12631">
        <ele>346</ele>
        <time>2013-04-07T10:59:55Z</time>
      </trkpt>
      <trkpt lat="48.68221" lon="6.12626">
        <ele>342</ele>
        <time>2013-04-07T10:59:57Z</time>
      </trkpt>
      <trkpt lat="48.68215" lon="6.12621">
        <ele>338</ele>
        <time>2013-04-07T10:59:59Z</time>
      </trkpt>
      <trkpt lat="48.68212" lon="6.12615">
        <ele>337</ele>
        <time>2013-04-07T11:00:01Z</time>
      </trkpt>
      <trkpt lat="48.68208" lon="6.12607">
        <ele>330</ele>
        <time>2013-04-07T11:00:03Z</time>
      </trkpt>
      <trkpt lat="48.68205" lon="6.12601">
        <ele>332</ele>
        <time>2013-04-07T11:00:05Z</time>
      </trkpt>
      <trkpt lat="48.682" lon="6.12596">
        <ele>335</ele>
        <time>2013-04-07T11:00:07Z</time>
      </trkpt>
      <trkpt lat="48.68187" lon="6.1259">
        <ele>335</ele>
        <time>2013-04-07T11:00:09Z</time>
      </trkpt>
      <trkpt lat="48.68173" lon="6.12591">
        <ele>338</ele>
        <time>2013-04-07T11:00:11Z</time>
      </trkpt>
      <trkpt lat="48.68161" lon="6.12592">
        <ele>337</ele>
        <time>2013-04-07T11:00:13Z</time>
      </trkpt>
      <trkpt lat="48.68153" lon="6.1259">
        <ele>340</ele>
        <time>2013-04-07T11:00:15Z</time>
      </trkpt>
      <trkpt lat="48.68138" lon="6.12589">
        <ele>343</ele>
        <time>2013-04-07T11:00:19Z</time>
      </trkpt>
      <trkpt lat="48.68132" lon="6.1259">
        <ele>344</ele>
        <time>2013-04-07T11:00:21Z</time>
      </trkpt>
      <trkpt lat="48.68125" lon="6.1259">
        <ele>350</ele>
        <time>2013-04-07T11:00:23Z</time>
      </trkpt>
      <trkpt lat="48.68119" lon="6.12589">
        <ele>350</ele>
        <time>2013-04-07T11:00:25Z</time>
      </trkpt>
      <trkpt lat="48.68114" lon="6.12589">
        <ele>347</ele>
        <time>2013-04-07T11:00:27Z</time>
      </trkpt>
      <trkpt lat="48.68109" lon="6.1259">
        <ele>353</ele>
        <time>2013-04-07T11:00:29Z</time>
      </trkpt>
      <trkpt lat="48.68103" lon="6.12588">
        <ele>354</ele>
        <time>2013-04-07T11:00:31Z</time>
      </trkpt>
      <trkpt lat="48.68098" lon="6.12588">
        <ele>357</ele>
        <time>2013-04-07T11:00:33Z</time>
      </trkpt>
      <trkpt lat="48.6809" lon="6.12588">
        <ele>361</ele>
        <time>2013-04-07T11:00:35Z</time>
      </trkpt>
      <trkpt lat="48.68084" lon="6.12588">
        <ele>366</ele>
        <time>2013-04-07T11:00:37Z</time>
      </trkpt>
      <trkpt lat="48.68078" lon="6.12589">
        <ele>367</ele>
        <time>2013-04-07T11:00:39Z</time>
      </trkpt>
      <trkpt lat="48.68072" lon="6.12591">
        <ele>372</ele>
        <time>2013-04-07T11:00:41Z</time>
      </trkpt>
      <trkpt lat="48.68066" lon="6.12593">
        <ele>368</ele>
        <time>2013-04-07T11:00:43Z</time>
      </trkpt>
      <trkpt lat="48.68061" lon="6.12595">
        <ele>372</ele>
        <time>2013-04-07T11:00:45Z</time>
      </trkpt>
      <trkpt lat="48.68054" lon="6.12597">
        <ele>369</ele>
        <time>2013-04-07T11:00:47Z</time>
      </trkpt>
      <trkpt lat="48.68047" lon="6.12599">
        <ele>368</ele>
        <time>2013-04-07T11:00:49Z</time>
      </trkpt>
      <trkpt lat="48.6804" lon="6.12601">
        <ele>367</ele>
        <time>2013-04-07T11:00:51Z</time>
      </trkpt>
      <trkpt lat="48.68033" lon="6.12603">
        <ele>364</ele>
        <time>2013-04-07T11:00:53Z</time>
      </trkpt>
      <trkpt lat="48.68021" lon="6.12605">
        <ele>359</ele>
        <time>2013-04-07T11:00:55Z</time>
      </trkpt>
      <trkpt lat="48.68012" lon="6.12607">
        <ele>354</ele>
        <time>2013-04-07T11:00:57Z</time>
      </trkpt>
      <trkpt lat="48.68004" lon="6.12609">
        <ele>361</ele>
        <time>2013-04-07T11:00:59Z</time>
      </trkpt>
      <trkpt lat="48.67997" lon="6.12611">
        <ele>361</ele>
        <time>2013-04-07T11:01:01Z</time>
      </trkpt>
      <trkpt lat="48.67989" lon="6.12615">
        <ele>369</ele>
        <time>2013-04-07T11:01:03Z</time>
      </trkpt>
      <trkpt lat="48.67983" lon="6.12619">
        <ele>369</ele>
        <time>2013-04-07T11:01:05Z</time>
      </trkpt>
      <trkpt lat="48.67976" lon="6.12622">
        <ele>371</ele>
        <time>2013-04-07T11:01:07Z</time>
      </trkpt>
      <trkpt lat="48.6797" lon="6.12626">
        <ele>376</ele>
        <time>2013-04-07T11:01:09Z</time>
      </trkpt>
      <trkpt lat="48.67963" lon="6.12629">
        <ele>371</ele>
        <time>2013-04-07T11:01:11Z</time>
      </trkpt>
      <trkpt lat="48.67957" lon="6.1263">
        <ele>366</ele>
        <time>2013-04-07T11:01:13Z</time>
      </trkpt>
      <trkpt lat="48.67949" lon="6.12632">
        <ele>366</ele>
        <time>2013-04-07T11:01:15Z</time>
      </trkpt>
      <trkpt lat="48.67941" lon="6.12634">
        <ele>372</ele>
        <time>2013-04-07T11:01:17Z</time>
      </trkpt>
      <trkpt lat="48.67935" lon="6.12636">
        <ele>373</ele>
        <time>2013-04-07T11:01:19Z</time>
      </trkpt>
      <trkpt lat="48.67929" lon="6.12636">
        <ele>370</ele>
        <time>2013-04-07T11:01:21Z</time>
      </trkpt>
      <trkpt lat="48.67921" lon="6.12637">
        <ele>374</ele>
        <time>2013-04-07T11:01:23Z</time>
      </trkpt>
      <trkpt lat="48.67915" lon="6.1264">
        <ele>377</ele>
        <time>2013-04-07T11:01:25Z</time>
      </trkpt>
      <trkpt lat="48.67907" lon="6.12642">
        <ele>382</ele>
        <time>2013-04-07T11:01:27Z</time>
      </trkpt>
      <trkpt lat="48.679" lon="6.12644">
        <ele>372</ele>
        <time>2013-04-07T11:01:29Z</time>
      </trkpt>
      <trkpt lat="48.67891" lon="6.12646">
        <ele>375</ele>
        <time>2013-04-07T11:01:31Z</time>
      </trkpt>
      <trkpt lat="48.67883" lon="6.12646">
        <ele>376</ele>
        <time>2013-04-07T11:01:33Z</time>
      </trkpt>
      <trkpt lat="48.67874" lon="6.12648">
        <ele>375</ele>
        <time>2013-04-07T11:01:35Z</time>
      </trkpt>
      <trkpt lat="48.67865" lon="6.1265">
        <ele>375</ele>
        <time>2013-04-07T11:01:37Z</time>
      </trkpt>
      <trkpt lat="48.67856" lon="6.12652">
        <ele>369</ele>
        <time>2013-04-07T11:01:39Z</time>
      </trkpt>
      <trkpt lat="48.67848" lon="6.12655">
        <ele>374</ele>
        <time>2013-04-07T11:01:41Z</time>
      </trkpt>
      <trkpt lat="48.67839" lon="6.12658">
        <ele>367</ele>
        <time>2013-04-07T11:01:43Z</time>
      </trkpt>
      <trkpt lat="48.67829" lon="6.12662">
        <ele>369</ele>
        <time>2013-04-07T11:01:45Z</time>
      </trkpt>
      <trkpt lat="48.6782" lon="6.12665">
        <ele>369</ele>
        <time>2013-04-07T11:01:47Z</time>
      </trkpt>
      <trkpt lat="48.6781" lon="6.12667">
        <ele>370</ele>
        <time>2013-04-07T11:01:49Z</time>
      </trkpt>
      <trkpt lat="48.67801" lon="6.12669">
        <ele>368</ele>
        <time>2013-04-07T11:01:51Z</time>
      </trkpt>
      <trkpt lat="48.67791" lon="6.12675">
        <ele>373</ele>
        <time>2013-04-07T11:01:53Z</time>
      </trkpt>
      <trkpt lat="48.6778" lon="6.1268">
        <ele>364</ele>
        <time>2013-04-07T11:01:55Z</time>
      </trkpt>
      <trkpt lat="48.67769" lon="6.12683">
        <ele>362</ele>
        <time>2013-04-07T11:01:57Z</time>
      </trkpt>
      <trkpt lat="48.67758" lon="6.12686">
        <ele>364</ele>
        <time>2013-04-07T11:01:59Z</time>
      </trkpt>
      <trkpt lat="48.67749" lon="6.12688">
        <ele>365</ele>
        <time>2013-04-07T11:02:01Z</time>
      </trkpt>
      <trkpt lat="48.67739" lon="6.12691">
        <ele>363</ele>
        <time>2013-04-07T11:02:03Z</time>
      </trkpt>
      <trkpt lat="48.67729" lon="6.12694">
        <ele>361</ele>
        <time>2013-04-07T11:02:05Z</time>
      </trkpt>
      <trkpt lat="48.67719" lon="6.12698">
        <ele>361</ele>
        <time>2013-04-07T11:02:07Z</time>
      </trkpt>
      <trkpt lat="48.67709" lon="6.12702">
        <ele>359</ele>
        <time>2013-04-07T11:02:09Z</time>
      </trkpt>
      <trkpt lat="48.677" lon="6.12705">
        <ele>362</ele>
        <time>2013-04-07T11:02:11Z</time>
      </trkpt>
      <trkpt lat="48.67691" lon="6.12707">
        <ele>363</ele>
        <time>2013-04-07T11:02:13Z</time>
      </trkpt>
      <trkpt lat="48.67682" lon="6.12709">
        <ele>363</ele>
        <time>2013-04-07T11:02:15Z</time>
      </trkpt>
      <trkpt lat="48.67673" lon="6.12713">
        <ele>368</ele>
        <time>2013-04-07T11:02:17Z</time>
      </trkpt>
      <trkpt lat="48.67664" lon="6.12718">
        <ele>369</ele>
        <time>2013-04-07T11:02:19Z</time>
      </trkpt>
      <trkpt lat="48.67658" lon="6.1272">
        <ele>367</ele>
        <time>2013-04-07T11:02:21Z</time>
      </trkpt>
      <trkpt lat="48.67651" lon="6.12724">
        <ele>370</ele>
        <time>2013-04-07T11:02:23Z</time>
      </trkpt>
      <trkpt lat="48.67642" lon="6.12726">
        <ele>368</ele>
        <time>2013-04-07T11:02:25Z</time>
      </trkpt>
      <trkpt lat="48.67634" lon="6.12728">
        <ele>370</ele>
        <time>2013-04-07T11:02:27Z</time>
      </trkpt>
      <trkpt lat="48.67627" lon="6.1273">
        <ele>373</ele>
        <time>2013-04-07T11:02:29Z</time>
      </trkpt>
      <trkpt lat="48.67619" lon="6.1273">
        <ele>369</ele>
        <time>2013-04-07T11:02:31Z</time>
      </trkpt>
      <trkpt lat="48.67609" lon="6.12731">
        <ele>362</ele>
        <time>2013-04-07T11:02:33Z</time>
      </trkpt>
      <trkpt lat="48.67599" lon="6.12733">
        <ele>360</ele>
        <time>2013-04-07T11:02:35Z</time>
      </trkpt>
      <trkpt lat="48.67588" lon="6.12735">
        <ele>365</ele>
        <time>2013-04-07T11:02:37Z</time>
      </trkpt>
      <trkpt lat="48.67578" lon="6.12738">
        <ele>370</ele>
        <time>2013-04-07T11:02:39Z</time>
      </trkpt>
      <trkpt lat="48.67567" lon="6.12742">
        <ele>368</ele>
        <time>2013-04-07T11:02:41Z</time>
      </trkpt>
      <trkpt lat="48.67558" lon="6.12744">
        <ele>368</ele>
        <time>2013-04-07T11:02:43Z</time>
      </trkpt>
      <trkpt lat="48.6755" lon="6.12747">
        <ele>371</ele>
        <time>2013-04-07T11:02:45Z</time>
      </trkpt>
      <trkpt lat="48.67541" lon="6.12749">
        <ele>373</ele>
        <time>2013-04-07T11:02:47Z</time>
      </trkpt>
      <trkpt lat="48.67531" lon="6.12751">
        <ele>366</ele>
        <time>2013-04-07T11:02:49Z</time>
      </trkpt>
      <trkpt lat="48.67521" lon="6.12755">
        <ele>367</ele>
        <time>2013-04-07T11:02:51Z</time>
      </trkpt>
      <trkpt lat="48.67511" lon="6.12758">
        <ele>365</ele>
        <time>2013-04-07T11:02:53Z</time>
      </trkpt>
      <trkpt lat="48.67501" lon="6.12759">
        <ele>363</ele>
        <time>2013-04-07T11:02:55Z</time>
      </trkpt>
      <trkpt lat="48.67488" lon="6.12763">
        <ele>358</ele>
        <time>2013-04-07T11:02:57Z</time>
      </trkpt>
      <trkpt lat="48.67476" lon="6.12769">
        <ele>357</ele>
        <time>2013-04-07T11:02:59Z</time>
      </trkpt>
      <trkpt lat="48.67467" lon="6.12774">
        <ele>359</ele>
        <time>2013-04-07T11:03:01Z</time>
      </trkpt>
      <trkpt lat="48.67459" lon="6.12779">
        <ele>364</ele>
        <time>2013-04-07T11:03:03Z</time>
      </trkpt>
      <trkpt lat="48.67452" lon="6.12781">
        <ele>361</ele>
        <time>2013-04-07T11:03:05Z</time>
      </trkpt>
      <trkpt lat="48.67446" lon="6.12782">
        <ele>361</ele>
        <time>2013-04-07T11:03:07Z</time>
      </trkpt>
      <trkpt lat="48.67435" lon="6.12786">
        <ele>361</ele>
        <time>2013-04-07T11:03:09Z</time>
      </trkpt>
      <trkpt lat="48.67426" lon="6.12791">
        <ele>359</ele>
        <time>2013-04-07T11:03:11Z</time>
      </trkpt>
      <trkpt lat="48.67419" lon="6.12795">
        <ele>358</ele>
        <time>2013-04-07T11:03:13Z</time>
      </trkpt>
      <trkpt lat="48.67412" lon="6.12799">
        <ele>361</ele>
        <time>2013-04-07T11:03:15Z</time>
      </trkpt>
      <trkpt lat="48.67405" lon="6.12804">
        <ele>364</ele>
        <time>2013-04-07T11:03:17Z</time>
      </trkpt>
      <trkpt lat="48.67399" lon="6.12806">
        <ele>367</ele>
        <time>2013-04-07T11:03:19Z</time>
      </trkpt>
      <trkpt lat="48.67392" lon="6.12806">
        <ele>371</ele>
        <time>2013-04-07T11:03:21Z</time>
      </trkpt>
      <trkpt lat="48.67384" lon="6.12807">
        <ele>364</ele>
        <time>2013-04-07T11:03:23Z</time>
      </trkpt>
      <trkpt lat="48.67374" lon="6.1281">
        <ele>363</ele>
        <time>2013-04-07T11:03:25Z</time>
      </trkpt>
      <trkpt lat="48.67366" lon="6.12811">
        <ele>361</ele>
        <time>2013-04-07T11:03:27Z</time>
      </trkpt>
      <trkpt lat="48.67359" lon="6.12814">
        <ele>367</ele>
        <time>2013-04-07T11:03:29Z</time>
      </trkpt>
      <trkpt lat="48.67353" lon="6.12817">
        <ele>368</ele>
        <time>2013-04-07T11:03:31Z</time>
      </trkpt>
      <trkpt lat="48.67348" lon="6.1282">
        <ele>364</ele>
        <time>2013-04-07T11:03:33Z</time>
      </trkpt>
      <trkpt lat="48.67342" lon="6.12823">
        <ele>365</ele>
        <time>2013-04-07T11:03:35Z</time>
      </trkpt>
      <trkpt lat="48.67336" lon="6.12826">
        <ele>361</ele>
        <time>2013-04-07T11:03:37Z</time>
      </trkpt>
      <trkpt lat="48.67329" lon="6.12828">
        <ele>363</ele>
        <time>2013-04-07T11:03:39Z</time>
      </trkpt>
      <trkpt lat="48.67324" lon="6.12829">
        <ele>368</ele>
        <time>2013-04-07T11:03:41Z</time>
      </trkpt>
      <trkpt lat="48.67319" lon="6.12831">
        <ele>371</ele>
        <time>2013-04-07T11:03:43Z</time>
      </trkpt>
      <trkpt lat="48.67315" lon="6.12832">
        <ele>371</ele>
        <time>2013-04-07T11:03:45Z</time>
      </trkpt>
      <trkpt lat="48.67309" lon="6.12833">
        <ele>367</ele>
        <time>2013-04-07T11:03:47Z</time>
      </trkpt>
      <trkpt lat="48.67304" lon="6.12834">
        <ele>371</ele>
        <time>2013-04-07T11:03:49Z</time>
      </trkpt>
      <trkpt lat="48.673" lon="6.12834">
        <ele>371</ele>
        <time>2013-04-07T11:03:51Z</time>
      </trkpt>
      <trkpt lat="48.67296" lon="6.12836">
        <ele>372</ele>
        <time>2013-04-07T11:03:53Z</time>
      </trkpt>
      <trkpt lat="48.67291" lon="6.12838">
        <ele>376</ele>
        <time>2013-04-07T11:03:55Z</time>
      </trkpt>
      <trkpt lat="48.67286" lon="6.12839">
        <ele>378</ele>
        <time>2013-04-07T11:03:57Z</time>
      </trkpt>
      <trkpt lat="48.67279" lon="6.1284">
        <ele>374</ele>
        <time>2013-04-07T11:03:59Z</time>
      </trkpt>
      <trkpt lat="48.67274" lon="6.12841">
        <ele>377</ele>
        <time>2013-04-07T11:04:01Z</time>
      </trkpt>
      <trkpt lat="48.67268" lon="6.12843">
        <ele>377</ele>
        <time>2013-04-07T11:04:03Z</time>
      </trkpt>
      <trkpt lat="48.67262" lon="6.12845">
        <ele>381</ele>
        <time>2013-04-07T11:04:05Z</time>
      </trkpt>
      <trkpt lat="48.67255" lon="6.12847">
        <ele>381</ele>
        <time>2013-04-07T11:04:07Z</time>
      </trkpt>
      <trkpt lat="48.6725" lon="6.12848">
        <ele>383</ele>
        <time>2013-04-07T11:04:09Z</time>
      </trkpt>
      <trkpt lat="48.67243" lon="6.1285">
        <ele>382</ele>
        <time>2013-04-07T11:04:11Z</time>
      </trkpt>
      <trkpt lat="48.67237" lon="6.12851">
        <ele>381</ele>
        <time>2013-04-07T11:04:13Z</time>
      </trkpt>
      <trkpt lat="48.67231" lon="6.12852">
        <ele>382</ele>
        <time>2013-04-07T11:04:15Z</time>
      </trkpt>
      <trkpt lat="48.67223" lon="6.12855">
        <ele>375</ele>
        <time>2013-04-07T11:04:17Z</time>
      </trkpt>
      <trkpt lat="48.67216" lon="6.12857">
        <ele>378</ele>
        <time>2013-04-07T11:04:19Z</time>
      </trkpt>
      <trkpt lat="48.6721" lon="6.12859">
        <ele>369</ele>
        <time>2013-04-07T11:04:21Z</time>
      </trkpt>
      <trkpt lat="48.67203" lon="6.12861">
        <ele>363</ele>
        <time>2013-04-07T11:04:23Z</time>
      </trkpt>
      <trkpt lat="48.67197" lon="6.12862">
        <ele>361</ele>
        <time>2013-04-07T11:04:25Z</time>
      </trkpt>
      <trkpt lat="48.6719" lon="6.12865">
        <ele>361</ele>
        <time>2013-04-07T11:04:27Z</time>
      </trkpt>
      <trkpt lat="48.67183" lon="6.12868">
        <ele>362</ele>
        <time>2013-04-07T11:04:29Z</time>
      </trkpt>
      <trkpt lat="48.67176" lon="6.12871">
        <ele>365</ele>
        <time>2013-04-07T11:04:31Z</time>
      </trkpt>
      <trkpt lat="48.6717" lon="6.12873">
        <ele>365</ele>
        <time>2013-04-07T11:04:33Z</time>
      </trkpt>
      <trkpt lat="48.67162" lon="6.12874">
        <ele>365</ele>
        <time>2013-04-07T11:04:35Z</time>
      </trkpt>
      <trkpt lat="48.67154" lon="6.12875">
        <ele>365</ele>
        <time>2013-04-07T11:04:37Z</time>
      </trkpt>
      <trkpt lat="48.67146" lon="6.12878">
        <ele>365</ele>
        <time>2013-04-07T11:04:39Z</time>
      </trkpt>
      <trkpt lat="48.67139" lon="6.12881">
        <ele>367</ele>
        <time>2013-04-07T11:04:41Z</time>
      </trkpt>
      <trkpt lat="48.67133" lon="6.12882">
        <ele>369</ele>
        <time>2013-04-07T11:04:43Z</time>
      </trkpt>
      <trkpt lat="48.67128" lon="6.12883">
        <ele>367</ele>
        <time>2013-04-07T11:04:45Z</time>
      </trkpt>
      <trkpt lat="48.67122" lon="6.12884">
        <ele>365</ele>
        <time>2013-04-07T11:04:47Z</time>
      </trkpt>
      <trkpt lat="48.67116" lon="6.12885">
        <ele>368</ele>
        <time>2013-04-07T11:04:49Z</time>
      </trkpt>
      <trkpt lat="48.67109" lon="6.12885">
        <ele>372</ele>
        <time>2013-04-07T11:04:51Z</time>
      </trkpt>
      <trkpt lat="48.67104" lon="6.12886">
        <ele>375</ele>
        <time>2013-04-07T11:04:53Z</time>
      </trkpt>
      <trkpt lat="48.67098" lon="6.12887">
        <ele>371</ele>
        <time>2013-04-07T11:04:55Z</time>
      </trkpt>
      <trkpt lat="48.67092" lon="6.12889">
        <ele>368</ele>
        <time>2013-04-07T11:04:57Z</time>
      </trkpt>
      <trkpt lat="48.67087" lon="6.12892">
        <ele>371</ele>
        <time>2013-04-07T11:04:59Z</time>
      </trkpt>
      <trkpt lat="48.67083" lon="6.12894">
        <ele>373</ele>
        <time>2013-04-07T11:05:01Z</time>
      </trkpt>
      <trkpt lat="48.67078" lon="6.12894">
        <ele>375</ele>
        <time>2013-04-07T11:05:03Z</time>
      </trkpt>
      <trkpt lat="48.67073" lon="6.12895">
        <ele>376</ele>
        <time>2013-04-07T11:05:05Z</time>
      </trkpt>
      <trkpt lat="48.67069" lon="6.12897">
        <ele>374</ele>
        <time>2013-04-07T11:05:07Z</time>
      </trkpt>
      <trkpt lat="48.67064" lon="6.12899">
        <ele>376</ele>
        <time>2013-04-07T11:05:09Z</time>
      </trkpt>
      <trkpt lat="48.67059" lon="6.12901">
        <ele>373</ele>
        <time>2013-04-07T11:05:11Z</time>
      </trkpt>
      <trkpt lat="48.67054" lon="6.12903">
        <ele>377</ele>
        <time>2013-04-07T11:05:13Z</time>
      </trkpt>
      <trkpt lat="48.67048" lon="6.12905">
        <ele>378</ele>
        <time>2013-04-07T11:05:15Z</time>
      </trkpt>
      <trkpt lat="48.67042" lon="6.12907">
        <ele>370</ele>
        <time>2013-04-07T11:05:17Z</time>
      </trkpt>
      <trkpt lat="48.67036" lon="6.12908">
        <ele>371</ele>
        <time>2013-04-07T11:05:19Z</time>
      </trkpt>
      <trkpt lat="48.67029" lon="6.12911">
        <ele>373</ele>
        <time>2013-04-07T11:05:21Z</time>
      </trkpt>
      <trkpt lat="48.6702" lon="6.12914">
        <ele>375</ele>
        <time>2013-04-07T11:05:23Z</time>
      </trkpt>
      <trkpt lat="48.67012" lon="6.12917">
        <ele>369</ele>
        <time>2013-04-07T11:05:25Z</time>
      </trkpt>
      <trkpt lat="48.67003" lon="6.1292">
        <ele>373</ele>
        <time>2013-04-07T11:05:27Z</time>
      </trkpt>
      <trkpt lat="48.66995" lon="6.12923">
        <ele>372</ele>
        <time>2013-04-07T11:05:29Z</time>
      </trkpt>
      <trkpt lat="48.6699" lon="6.12924">
        <ele>375</ele>
        <time>2013-04-07T11:05:31Z</time>
      </trkpt>
      <trkpt lat="48.66986" lon="6.12927">
        <ele>377</ele>
        <time>2013-04-07T11:05:33Z</time>
      </trkpt>
      <trkpt lat="48.6698" lon="6.1293">
        <ele>380</ele>
        <time>2013-04-07T11:05:35Z</time>
      </trkpt>
      <trkpt lat="48.66975" lon="6.12933">
        <ele>380</ele>
        <time>2013-04-07T11:05:37Z</time>
      </trkpt>
      <trkpt lat="48.66969" lon="6.12934">
        <ele>380</ele>
        <time>2013-04-07T11:05:39Z</time>
      </trkpt>
      <trkpt lat="48.66964" lon="6.12936">
        <ele>381</ele>
        <time>2013-04-07T11:05:41Z</time>
      </trkpt>
      <trkpt lat="48.66958" lon="6.12938">
        <ele>381</ele>
        <time>2013-04-07T11:05:43Z</time>
      </trkpt>
      <trkpt lat="48.66953" lon="6.12939">
        <ele>380</ele>
        <time>2013-04-07T11:05:45Z</time>
      </trkpt>
      <trkpt lat="48.66948" lon="6.12941">
        <ele>379</ele>
        <time>2013-04-07T11:05:47Z</time>
      </trkpt>
      <trkpt lat="48.66942" lon="6.12941">
        <ele>375</ele>
        <time>2013-04-07T11:05:49Z</time>
      </trkpt>
      <trkpt lat="48.66936" lon="6.12943">
        <ele>379</ele>
        <time>2013-04-07T11:05:51Z</time>
      </trkpt>
      <trkpt lat="48.66932" lon="6.12943">
        <ele>383</ele>
        <time>2013-04-07T11:05:53Z</time>
      </trkpt>
      <trkpt lat="48.66926" lon="6.12943">
        <ele>381</ele>
        <time>2013-04-07T11:05:55Z</time>
      </trkpt>
      <trkpt lat="48.66921" lon="6.12943">
        <ele>383</ele>
        <time>2013-04-07T11:05:57Z</time>
      </trkpt>
      <trkpt lat="48.66914" lon="6.12944">
        <ele>383</ele>
        <time>2013-04-07T11:05:59Z</time>
      </trkpt>
      <trkpt lat="48.66908" lon="6.12944">
        <ele>380</ele>
        <time>2013-04-07T11:06:01Z</time>
      </trkpt>
      <trkpt lat="48.66901" lon="6.12946">
        <ele>384</ele>
        <time>2013-04-07T11:06:03Z</time>
      </trkpt>
      <trkpt lat="48.66892" lon="6.12947">
        <ele>380</ele>
        <time>2013-04-07T11:06:05Z</time>
      </trkpt>
      <trkpt lat="48.66883" lon="6.12949">
        <ele>379</ele>
        <time>2013-04-07T11:06:07Z</time>
      </trkpt>
      <trkpt lat="48.66874" lon="6.12951">
        <ele>376</ele>
        <time>2013-04-07T11:06:09Z</time>
      </trkpt>
      <trkpt lat="48.66866" lon="6.12953">
        <ele>378</ele>
        <time>2013-04-07T11:06:11Z</time>
      </trkpt>
      <trkpt lat="48.66858" lon="6.12956">
        <ele>376</ele>
        <time>2013-04-07T11:06:13Z</time>
      </trkpt>
      <trkpt lat="48.6685" lon="6.1296">
        <ele>367</ele>
        <time>2013-04-07T11:06:15Z</time>
      </trkpt>
      <trkpt lat="48.6684" lon="6.12963">
        <ele>365</ele>
        <time>2013-04-07T11:06:17Z</time>
      </trkpt>
      <trkpt lat="48.6683" lon="6.12966">
        <ele>369</ele>
        <time>2013-04-07T11:06:19Z</time>
      </trkpt>
      <trkpt lat="48.66821" lon="6.12974">
        <ele>373</ele>
        <time>2013-04-07T11:06:21Z</time>
      </trkpt>
      <trkpt lat="48.66811" lon="6.12979">
        <ele>375</ele>
        <time>2013-04-07T11:06:23Z</time>
      </trkpt>
      <trkpt lat="48.66801" lon="6.12983">
        <ele>376</ele>
        <time>2013-04-07T11:06:25Z</time>
      </trkpt>
      <trkpt lat="48.66791" lon="6.12986">
        <ele>375</ele>
        <time>2013-04-07T11:06:27Z</time>
      </trkpt>
      <trkpt lat="48.66782" lon="6.1299">
        <ele>378</ele>
        <time>2013-04-07T11:06:29Z</time>
      </trkpt>
      <trkpt lat="48.66774" lon="6.12993">
        <ele>380</ele>
        <time>2013-04-07T11:06:31Z</time>
      </trkpt>
      <trkpt lat="48.66765" lon="6.12997">
        <ele>373</ele>
        <time>2013-04-07T11:06:33Z</time>
      </trkpt>
      <trkpt lat="48.66759" lon="6.12997">
        <ele>368</ele>
        <time>2013-04-07T11:06:35Z</time>
      </trkpt>
      <trkpt lat="48.66758" lon="6.12997">
        <ele>361</ele>
        <time>2013-04-07T11:06:37Z</time>
      </trkpt>
      <trkpt lat="48.66758" lon="6.12997">
        <ele>360</ele>
        <time>2013-04-07T11:06:39Z</time>
      </trkpt>
      <trkpt lat="48.66759" lon="6.12996">
        <ele>353</ele>
        <time>2013-04-07T11:06:41Z</time>
      </trkpt>
      <trkpt lat="48.6676" lon="6.12993">
        <ele>359</ele>
        <time>2013-04-07T11:06:43Z</time>
      </trkpt>
      <trkpt lat="48.66763" lon="6.12989">
        <ele>358</ele>
        <time>2013-04-07T11:06:45Z</time>
      </trkpt>
      <trkpt lat="48.66762" lon="6.12985">
        <ele>359</ele>
        <time>2013-04-07T11:06:47Z</time>
      </trkpt>
      <trkpt lat="48.66763" lon="6.12978">
        <ele>365</ele>
        <time>2013-04-07T11:06:49Z</time>
      </trkpt>
      <trkpt lat="48.66764" lon="6.12972">
        <ele>365</ele>
        <time>2013-04-07T11:06:51Z</time>
      </trkpt>
      <trkpt lat="48.66766" lon="6.12965">
        <ele>368</ele>
        <time>2013-04-07T11:06:53Z</time>
      </trkpt>
      <trkpt lat="48.66767" lon="6.12958">
        <ele>369</ele>
        <time>2013-04-07T11:06:55Z</time>
      </trkpt>
      <trkpt lat="48.66769" lon="6.12947">
        <ele>366</ele>
        <time>2013-04-07T11:06:57Z</time>
      </trkpt>
      <trkpt lat="48.66766" lon="6.12933">
        <ele>367</ele>
        <time>2013-04-07T11:06:59Z</time>
      </trkpt>
      <trkpt lat="48.66767" lon="6.12924">
        <ele>370</ele>
        <time>2013-04-07T11:07:01Z</time>
      </trkpt>
      <trkpt lat="48.66766" lon="6.12918">
        <ele>370</ele>
        <time>2013-04-07T11:07:03Z</time>
      </trkpt>
      <trkpt lat="48.66766" lon="6.12911">
        <ele>373</ele>
        <time>2013-04-07T11:07:05Z</time>
      </trkpt>
      <trkpt lat="48.66769" lon="6.12902">
        <ele>378</ele>
        <time>2013-04-07T11:07:07Z</time>
      </trkpt>
      <trkpt lat="48.6677" lon="6.12895">
        <ele>377</ele>
        <time>2013-04-07T11:07:09Z</time>
      </trkpt>
      <trkpt lat="48.66771" lon="6.12883">
        <ele>375</ele>
        <time>2013-04-07T11:07:11Z</time>
      </trkpt>
      <trkpt lat="48.6677" lon="6.12872">
        <ele>379</ele>
        <time>2013-04-07T11:07:13Z</time>
      </trkpt>
      <trkpt lat="48.66772" lon="6.12864">
        <ele>377</ele>
        <time>2013-04-07T11:07:15Z</time>
      </trkpt>
      <trkpt lat="48.66768" lon="6.12855">
        <ele>376</ele>
        <time>2013-04-07T11:07:17Z</time>
      </trkpt>
      <trkpt lat="48.66769" lon="6.12845">
        <ele>373</ele>
        <time>2013-04-07T11:07:19Z</time>
      </trkpt>
      <trkpt lat="48.6677" lon="6.12839">
        <ele>377</ele>
        <time>2013-04-07T11:07:21Z</time>
      </trkpt>
      <trkpt lat="48.66771" lon="6.1283">
        <ele>376</ele>
        <time>2013-04-07T11:07:23Z</time>
      </trkpt>
      <trkpt lat="48.6677" lon="6.12825">
        <ele>378</ele>
        <time>2013-04-07T11:07:25Z</time>
      </trkpt>
      <trkpt lat="48.66769" lon="6.12822">
        <ele>382</ele>
        <time>2013-04-07T11:07:27Z</time>
      </trkpt>
      <trkpt lat="48.66768" lon="6.12822">
        <ele>377</ele>
        <time>2013-04-07T11:07:29Z</time>
      </trkpt>
      <trkpt lat="48.66768" lon="6.12819">
        <ele>378</ele>
        <time>2013-04-07T11:07:31Z</time>
      </trkpt>
      <trkpt lat="48.66766" lon="6.12819">
        <ele>373</ele>
        <time>2013-04-07T11:07:33Z</time>
      </trkpt>
      <trkpt lat="48.66768" lon="6.12819">
        <ele>364</ele>
        <time>2013-04-07T11:07:35Z</time>
      </trkpt>
      <trkpt lat="48.66771" lon="6.12818">
        <ele>362</ele>
        <time>2013-04-07T11:07:37Z</time>
      </trkpt>
      <trkpt lat="48.66774" lon="6.12816">
        <ele>360</ele>
        <time>2013-04-07T11:07:39Z</time>
      </trkpt>
      <trkpt lat="48.66777" lon="6.12816">
        <ele>361</ele>
        <time>2013-04-07T11:07:41Z</time>
      </trkpt>
      <trkpt lat="48.66782" lon="6.12816">
        <ele>360</ele>
        <time>2013-04-07T11:07:43Z</time>
      </trkpt>
      <trkpt lat="48.66788" lon="6.12816">
        <ele>358</ele>
        <time>2013-04-07T11:07:45Z</time>
      </trkpt>
      <trkpt lat="48.66793" lon="6.12815">
        <ele>359</ele>
        <time>2013-04-07T11:07:47Z</time>
      </trkpt>
      <trkpt lat="48.66798" lon="6.12815">
        <ele>361</ele>
        <time>2013-04-07T11:07:49Z</time>
      </trkpt>
      <trkpt lat="48.66803" lon="6.12817">
        <ele>357</ele>
        <time>2013-04-07T11:07:51Z</time>
      </trkpt>
      <trkpt lat="48.66814" lon="6.12821">
        <ele>364</ele>
        <time>2013-04-07T11:07:55Z</time>
      </trkpt>
      <trkpt lat="48.66818" lon="6.12823">
        <ele>362</ele>
        <time>2013-04-07T11:07:57Z</time>
      </trkpt>
      <trkpt lat="48.66823" lon="6.12822">
        <ele>360</ele>
        <time>2013-04-07T11:07:59Z</time>
      </trkpt>
      <trkpt lat="48.66827" lon="6.12823">
        <ele>360</ele>
        <time>2013-04-07T11:08:01Z</time>
      </trkpt>
      <trkpt lat="48.66829" lon="6.12824">
        <ele>360</ele>
        <time>2013-04-07T11:08:03Z</time>
      </trkpt>
      <trkpt lat="48.66839" lon="6.12815">
        <ele>361</ele>
        <time>2013-04-07T11:08:05Z</time>
      </trkpt>
      <trkpt lat="48.66861" lon="6.12802">
        <ele>366</ele>
        <time>2013-04-07T11:08:09Z</time>
      </trkpt>
      <trkpt lat="48.66867" lon="6.128">
        <ele>370</ele>
        <time>2013-04-07T11:08:11Z</time>
      </trkpt>
      <trkpt lat="48.6688" lon="6.128">
        <ele>365</ele>
        <time>2013-04-07T11:08:15Z</time>
      </trkpt>
      <trkpt lat="48.66885" lon="6.12803">
        <ele>357</ele>
        <time>2013-04-07T11:08:17Z</time>
      </trkpt>
      <trkpt lat="48.6689" lon="6.12806">
        <ele>357</ele>
        <time>2013-04-07T11:08:19Z</time>
      </trkpt>
      <trkpt lat="48.66892" lon="6.12808">
        <ele>359</ele>
        <time>2013-04-07T11:08:21Z</time>
      </trkpt>
      <trkpt lat="48.66901" lon="6.12807">
        <ele>358</ele>
        <time>2013-04-07T11:08:25Z</time>
      </trkpt>
      <trkpt lat="48.66912" lon="6.12803">
        <ele>358</ele>
        <time>2013-04-07T11:08:27Z</time>
      </trkpt>
      <trkpt lat="48.6692" lon="6.128">
        <ele>354</ele>
        <time>2013-04-07T11:08:29Z</time>
      </trkpt>
      <trkpt lat="48.66927" lon="6.12794">
        <ele>355</ele>
        <time>2013-04-07T11:08:31Z</time>
      </trkpt>
      <trkpt lat="48.66932" lon="6.12787">
        <ele>360</ele>
        <time>2013-04-07T11:08:33Z</time>
      </trkpt>
      <trkpt lat="48.66936" lon="6.12784">
        <ele>355</ele>
        <time>2013-04-07T11:08:35Z</time>
      </trkpt>
      <trkpt lat="48.66941" lon="6.1278">
        <ele>359</ele>
        <time>2013-04-07T11:08:37Z</time>
      </trkpt>
      <trkpt lat="48.66945" lon="6.12777">
        <ele>354</ele>
        <time>2013-04-07T11:08:39Z</time>
      </trkpt>
      <trkpt lat="48.66951" lon="6.12773">
        <ele>355</ele>
        <time>2013-04-07T11:08:41Z</time>
      </trkpt>
      <trkpt lat="48.66957" lon="6.1277">
        <ele>355</ele>
        <time>2013-04-07T11:08:43Z</time>
      </trkpt>
      <trkpt lat="48.66961" lon="6.12767">
        <ele>351</ele>
        <time>2013-04-07T11:08:45Z</time>
      </trkpt>
      <trkpt lat="48.66964" lon="6.12765">
        <ele>351</ele>
        <time>2013-04-07T11:08:47Z</time>
      </trkpt>
      <trkpt lat="48.66968" lon="6.12762">
        <ele>351</ele>
        <time>2013-04-07T11:08:49Z</time>
      </trkpt>
      <trkpt lat="48.66972" lon="6.12759">
        <ele>353</ele>
        <time>2013-04-07T11:08:51Z</time>
      </trkpt>
      <trkpt lat="48.66976" lon="6.12756">
        <ele>358</ele>
        <time>2013-04-07T11:08:53Z</time>
      </trkpt>
      <trkpt lat="48.6698" lon="6.12754">
        <ele>360</ele>
        <time>2013-04-07T11:08:55Z</time>
      </trkpt>
      <trkpt lat="48.66985" lon="6.1275">
        <ele>360</ele>
        <time>2013-04-07T11:08:57Z</time>
      </trkpt>
      <trkpt lat="48.66988" lon="6.12746">
        <ele>358</ele>
        <time>2013-04-07T11:08:59Z</time>
      </trkpt>
      <trkpt lat="48.6699" lon="6.12745">
        <ele>359</ele>
        <time>2013-04-07T11:09:01Z</time>
      </trkpt>
      <trkpt lat="48.66992" lon="6.12743">
        <ele>359</ele>
        <time>2013-04-07T11:09:03Z</time>
      </trkpt>
      <trkpt lat="48.66995" lon="6.12742">
        <ele>361</ele>
        <time>2013-04-07T11:09:05Z</time>
      </trkpt>
      <trkpt lat="48.66997" lon="6.1274">
        <ele>358</ele>
        <time>2013-04-07T11:09:07Z</time>
      </trkpt>
      <trkpt lat="48.66998" lon="6.12739">
        <ele>358</ele>
        <time>2013-04-07T11:09:09Z</time>
      </trkpt>
      <trkpt lat="48.67002" lon="6.12735">
        <ele>363</ele>
        <time>2013-04-07T11:09:11Z</time>
      </trkpt>
      <trkpt lat="48.67006" lon="6.12732">
        <ele>364</ele>
        <time>2013-04-07T11:09:13Z</time>
      </trkpt>
      <trkpt lat="48.67013" lon="6.1273">
        <ele>364</ele>
        <time>2013-04-07T11:09:15Z</time>
      </trkpt>
      <trkpt lat="48.67017" lon="6.12728">
        <ele>365</ele>
        <time>2013-04-07T11:09:17Z</time>
      </trkpt>
      <trkpt lat="48.67024" lon="6.12724">
        <ele>363</ele>
        <time>2013-04-07T11:09:19Z</time>
      </trkpt>
      <trkpt lat="48.67033" lon="6.12715">
        <ele>364</ele>
        <time>2013-04-07T11:09:21Z</time>
      </trkpt>
      <trkpt lat="48.67045" lon="6.12706">
        <ele>360</ele>
        <time>2013-04-07T11:09:23Z</time>
      </trkpt>
      <trkpt lat="48.67052" lon="6.12697">
        <ele>356</ele>
        <time>2013-04-07T11:09:25Z</time>
      </trkpt>
      <trkpt lat="48.67058" lon="6.12692">
        <ele>356</ele>
        <time>2013-04-07T11:09:27Z</time>
      </trkpt>
      <trkpt lat="48.67064" lon="6.12687">
        <ele>352</ele>
        <time>2013-04-07T11:09:29Z</time>
      </trkpt>
      <trkpt lat="48.67068" lon="6.12685">
        <ele>347</ele>
        <time>2013-04-07T11:09:31Z</time>
      </trkpt>
      <trkpt lat="48.67075" lon="6.12679">
        <ele>344</ele>
        <time>2013-04-07T11:09:33Z</time>
      </trkpt>
      <trkpt lat="48.67081" lon="6.12676">
        <ele>345</ele>
        <time>2013-04-07T11:09:35Z</time>
      </trkpt>
      <trkpt lat="48.67096" lon="6.12667">
        <ele>343</ele>
        <time>2013-04-07T11:09:37Z</time>
      </trkpt>
      <trkpt lat="48.67109" lon="6.12659">
        <ele>343</ele>
        <time>2013-04-07T11:09:39Z</time>
      </trkpt>
      <trkpt lat="48.67117" lon="6.12653">
        <ele>345</ele>
        <time>2013-04-07T11:09:41Z</time>
      </trkpt>
      <trkpt lat="48.67124" lon="6.12647">
        <ele>341</ele>
        <time>2013-04-07T11:09:43Z</time>
      </trkpt>
      <trkpt lat="48.67131" lon="6.12641">
        <ele>341</ele>
        <time>2013-04-07T11:09:45Z</time>
      </trkpt>
      <trkpt lat="48.67138" lon="6.12638">
        <ele>345</ele>
        <time>2013-04-07T11:09:47Z</time>
      </trkpt>
      <trkpt lat="48.67141" lon="6.12635">
        <ele>345</ele>
        <time>2013-04-07T11:09:49Z</time>
      </trkpt>
      <trkpt lat="48.67144" lon="6.12634">
        <ele>347</ele>
        <time>2013-04-07T11:09:51Z</time>
      </trkpt>
      <trkpt lat="48.6715" lon="6.1263">
        <ele>350</ele>
        <time>2013-04-07T11:09:53Z</time>
      </trkpt>
      <trkpt lat="48.67158" lon="6.12623">
        <ele>351</ele>
        <time>2013-04-07T11:09:57Z</time>
      </trkpt>
      <trkpt lat="48.67167" lon="6.12617">
        <ele>355</ele>
        <time>2013-04-07T11:09:59Z</time>
      </trkpt>
      <trkpt lat="48.67173" lon="6.12615">
        <ele>356</ele>
        <time>2013-04-07T11:10:01Z</time>
      </trkpt>
      <trkpt lat="48.67181" lon="6.12612">
        <ele>355</ele>
        <time>2013-04-07T11:10:03Z</time>
      </trkpt>
      <trkpt lat="48.67186" lon="6.12612">
        <ele>356</ele>
        <time>2013-04-07T11:10:05Z</time>
      </trkpt>
      <trkpt lat="48.67193" lon="6.12612">
        <ele>349</ele>
        <time>2013-04-07T11:10:07Z</time>
      </trkpt>
      <trkpt lat="48.67199" lon="6.12612">
        <ele>349</ele>
        <time>2013-04-07T11:10:09Z</time>
      </trkpt>
      <trkpt lat="48.67207" lon="6.12613">
        <ele>347</ele>
        <time>2013-04-07T11:10:11Z</time>
      </trkpt>
      <trkpt lat="48.67212" lon="6.12614">
        <ele>348</ele>
        <time>2013-04-07T11:10:13Z</time>
      </trkpt>
      <trkpt lat="48.67216" lon="6.12616">
        <ele>351</ele>
        <time>2013-04-07T11:10:15Z</time>
      </trkpt>
      <trkpt lat="48.67223" lon="6.12617">
        <ele>359</ele>
        <time>2013-04-07T11:10:17Z</time>
      </trkpt>
      <trkpt lat="48.67228" lon="6.12622">
        <ele>355</ele>
        <time>2013-04-07T11:10:19Z</time>
      </trkpt>
      <trkpt lat="48.67234" lon="6.1263">
        <ele>354</ele>
        <time>2013-04-07T11:10:21Z</time>
      </trkpt>
      <trkpt lat="48.67241" lon="6.12635">
        <ele>345</ele>
        <time>2013-04-07T11:10:23Z</time>
      </trkpt>
      <trkpt lat="48.67247" lon="6.12638">
        <ele>347</ele>
        <time>2013-04-07T11:10:25Z</time>
      </trkpt>
      <trkpt lat="48.67254" lon="6.12641">
        <ele>348</ele>
        <time>2013-04-07T11:10:27Z</time>
      </trkpt>
      <trkpt lat="48.67261" lon="6.12643">
        <ele>347</ele>
        <time>2013-04-07T11:10:29Z</time>
      </trkpt>
      <trkpt lat="48.67268" lon="6.12647">
        <ele>344</ele>
        <time>2013-04-07T11:10:31Z</time>
      </trkpt>
      <trkpt lat="48.67275" lon="6.12649">
        <ele>348</ele>
        <time>2013-04-07T11:10:33Z</time>
      </trkpt>
      <trkpt lat="48.67285" lon="6.12646">
        <ele>345</ele>
        <time>2013-04-07T11:10:35Z</time>
      </trkpt>
      <trkpt lat="48.67297" lon="6.1264">
        <ele>349</ele>
        <time>2013-04-07T11:10:37Z</time>
      </trkpt>
      <trkpt lat="48.67309" lon="6.12635">
        <ele>346</ele>
        <time>2013-04-07T11:10:39Z</time>
      </trkpt>
      <trkpt lat="48.67317" lon="6.12631">
        <ele>343</ele>
        <time>2013-04-07T11:10:41Z</time>
      </trkpt>
      <trkpt lat="48.67326" lon="6.1263">
        <ele>342</ele>
        <time>2013-04-07T11:10:43Z</time>
      </trkpt>
      <trkpt lat="48.67335" lon="6.12627">
        <ele>345</ele>
        <time>2013-04-07T11:10:45Z</time>
      </trkpt>
      <trkpt lat="48.67344" lon="6.12625">
        <ele>346</ele>
        <time>2013-04-07T11:10:47Z</time>
      </trkpt>
      <trkpt lat="48.6735" lon="6.12622">
        <ele>346</ele>
        <time>2013-04-07T11:10:49Z</time>
      </trkpt>
      <trkpt lat="48.67356" lon="6.1262">
        <ele>345</ele>
        <time>2013-04-07T11:10:51Z</time>
      </trkpt>
      <trkpt lat="48.67362" lon="6.12621">
        <ele>343</ele>
        <time>2013-04-07T11:10:53Z</time>
      </trkpt>
      <trkpt lat="48.67365" lon="6.12624">
        <ele>347</ele>
        <time>2013-04-07T11:10:55Z</time>
      </trkpt>
      <trkpt lat="48.67371" lon="6.12626">
        <ele>347</ele>
        <time>2013-04-07T11:10:57Z</time>
      </trkpt>
      <trkpt lat="48.67377" lon="6.12626">
        <ele>351</ele>
        <time>2013-04-07T11:10:59Z</time>
      </trkpt>
      <trkpt lat="48.67382" lon="6.12625">
        <ele>351</ele>
        <time>2013-04-07T11:11:01Z</time>
      </trkpt>
      <trkpt lat="48.67386" lon="6.12624">
        <ele>353</ele>
        <time>2013-04-07T11:11:03Z</time>
      </trkpt>
      <trkpt lat="48.6739" lon="6.12623">
        <ele>352</ele>
        <time>2013-04-07T11:11:05Z</time>
      </trkpt>
      <trkpt lat="48.67394" lon="6.12624">
        <ele>348</ele>
        <time>2013-04-07T11:11:07Z</time>
      </trkpt>
      <trkpt lat="48.67398" lon="6.12625">
        <ele>349</ele>
        <time>2013-04-07T11:11:09Z</time>
      </trkpt>
      <trkpt lat="48.67403" lon="6.12626">
        <ele>350</ele>
        <time>2013-04-07T11:11:11Z</time>
      </trkpt>
      <trkpt lat="48.67408" lon="6.12627">
        <ele>352</ele>
        <time>2013-04-07T11:11:13Z</time>
      </trkpt>
      <trkpt lat="48.67411" lon="6.12627">
        <ele>347</ele>
        <time>2013-04-07T11:11:15Z</time>
      </trkpt>
      <trkpt lat="48.67416" lon="6.12628">
        <ele>351</ele>
        <time>2013-04-07T11:11:17Z</time>
      </trkpt>
      <trkpt lat="48.67419" lon="6.12628">
        <ele>350</ele>
        <time>2013-04-07T11:11:19Z</time>
      </trkpt>
      <trkpt lat="48.67423" lon="6.12627">
        <ele>348</ele>
        <time>2013-04-07T11:11:21Z</time>
      </trkpt>
      <trkpt lat="48.67427" lon="6.12627">
        <ele>345</ele>
        <time>2013-04-07T11:11:23Z</time>
      </trkpt>
      <trkpt lat="48.67432" lon="6.12627">
        <ele>345</ele>
        <time>2013-04-07T11:11:25Z</time>
      </trkpt>
      <trkpt lat="48.67435" lon="6.12626">
        <ele>345</ele>
        <time>2013-04-07T11:11:27Z</time>
      </trkpt>
      <trkpt lat="48.67439" lon="6.12626">
        <ele>345</ele>
        <time>2013-04-07T11:11:29Z</time>
      </trkpt>
      <trkpt lat="48.67442" lon="6.12626">
        <ele>349</ele>
        <time>2013-04-07T11:11:31Z</time>
      </trkpt>
      <trkpt lat="48.67447" lon="6.12624">
        <ele>347</ele>
        <time>2013-04-07T11:11:33Z</time>
      </trkpt>
      <trkpt lat="48.67452" lon="6.12625">
        <ele>346</ele>
        <time>2013-04-07T11:11:35Z</time>
      </trkpt>
      <trkpt lat="48.67458" lon="6.12624">
        <ele>345</ele>
        <time>2013-04-07T11:11:37Z</time>
      </trkpt>
      <trkpt lat="48.67465" lon="6.12623">
        <ele>345</ele>
        <time>2013-04-07T11:11:39Z</time>
      </trkpt>
      <trkpt lat="48.67472" lon="6.12623">
        <ele>345</ele>
        <time>2013-04-07T11:11:41Z</time>
      </trkpt>
      <trkpt lat="48.67477" lon="6.12624">
        <ele>342</ele>
        <time>2013-04-07T11:11:43Z</time>
      </trkpt>
      <trkpt lat="48.67481" lon="6.12624">
        <ele>341</ele>
        <time>2013-04-07T11:11:45Z</time>
      </trkpt>
      <trkpt lat="48.67484" lon="6.12625">
        <ele>340</ele>
        <time>2013-04-07T11:11:47Z</time>
      </trkpt>
      <trkpt lat="48.67487" lon="6.12627">
        <ele>344</ele>
        <time>2013-04-07T11:11:49Z</time>
      </trkpt>
      <trkpt lat="48.6749" lon="6.12626">
        <ele>345</ele>
        <time>2013-04-07T11:11:51Z</time>
      </trkpt>
      <trkpt lat="48.67494" lon="6.12626">
        <ele>347</ele>
        <time>2013-04-07T11:11:53Z</time>
      </trkpt>
      <trkpt lat="48.67499" lon="6.12625">
        <ele>349</ele>
        <time>2013-04-07T11:11:55Z</time>
      </trkpt>
      <trkpt lat="48.67504" lon="6.12623">
        <ele>350</ele>
        <time>2013-04-07T11:11:57Z</time>
      </trkpt>
      <trkpt lat="48.67509" lon="6.12621">
        <ele>347</ele>
        <time>2013-04-07T11:11:59Z</time>
      </trkpt>
      <trkpt lat="48.67516" lon="6.12619">
        <ele>353</ele>
        <time>2013-04-07T11:12:01Z</time>
      </trkpt>
      <trkpt lat="48.67523" lon="6.1262">
        <ele>353</ele>
        <time>2013-04-07T11:12:03Z</time>
      </trkpt>
      <trkpt lat="48.67531" lon="6.12619">
        <ele>353</ele>
        <time>2013-04-07T11:12:05Z</time>
      </trkpt>
      <trkpt lat="48.67539" lon="6.12621">
        <ele>349</ele>
        <time>2013-04-07T11:12:07Z</time>
      </trkpt>
      <trkpt lat="48.67548" lon="6.12621">
        <ele>352</ele>
        <time>2013-04-07T11:12:09Z</time>
      </trkpt>
      <trkpt lat="48.67556" lon="6.12621">
        <ele>347</ele>
        <time>2013-04-07T11:12:11Z</time>
      </trkpt>
      <trkpt lat="48.67564" lon="6.1262">
        <ele>350</ele>
        <time>2013-04-07T11:12:13Z</time>
      </trkpt>
      <trkpt lat="48.67571" lon="6.1262">
        <ele>347</ele>
        <time>2013-04-07T11:12:15Z</time>
      </trkpt>
      <trkpt lat="48.67578" lon="6.12621">
        <ele>345</ele>
        <time>2013-04-07T11:12:17Z</time>
      </trkpt>
      <trkpt lat="48.67587" lon="6.1262">
        <ele>347</ele>
        <time>2013-04-07T11:12:19Z</time>
      </trkpt>
      <trkpt lat="48.67596" lon="6.1262">
        <ele>347</ele>
        <time>2013-04-07T11:12:21Z</time>
      </trkpt>
      <trkpt lat="48.67608" lon="6.1262">
        <ele>353</ele>
        <time>2013-04-07T11:12:23Z</time>
      </trkpt>
      <trkpt lat="48.67622" lon="6.1262">
        <ele>354</ele>
        <time>2013-04-07T11:12:25Z</time>
      </trkpt>
      <trkpt lat="48.67636" lon="6.12623">
        <ele>357</ele>
        <time>2013-04-07T11:12:27Z</time>
      </trkpt>
      <trkpt lat="48.67648" lon="6.12624">
        <ele>351</ele>
        <time>2013-04-07T11:12:29Z</time>
      </trkpt>
      <trkpt lat="48.67661" lon="6.12623">
        <ele>350</ele>
        <time>2013-04-07T11:12:31Z</time>
      </trkpt>
      <trkpt lat="48.67669" lon="6.12624">
        <ele>350</ele>
        <time>2013-04-07T11:12:33Z</time>
      </trkpt>
      <trkpt lat="48.6768" lon="6.12627">
        <ele>353</ele>
        <time>2013-04-07T11:12:35Z</time>
      </trkpt>
      <trkpt lat="48.67692" lon="6.12631">
        <ele>351</ele>
        <time>2013-04-07T11:12:37Z</time>
      </trkpt>
      <trkpt lat="48.67703" lon="6.1264">
        <ele>352</ele>
        <time>2013-04-07T11:12:39Z</time>
      </trkpt>
      <trkpt lat="48.67716" lon="6.12646">
        <ele>351</ele>
        <time>2013-04-07T11:12:41Z</time>
      </trkpt>
      <trkpt lat="48.67729" lon="6.12649">
        <ele>352</ele>
        <time>2013-04-07T11:12:43Z</time>
      </trkpt>
      <trkpt lat="48.67737" lon="6.12652">
        <ele>352</ele>
        <time>2013-04-07T11:12:45Z</time>
      </trkpt>
      <trkpt lat="48.67747" lon="6.12655">
        <ele>353</ele>
        <time>2013-04-07T11:12:47Z</time>
      </trkpt>
      <trkpt lat="48.67758" lon="6.12658">
        <ele>355</ele>
        <time>2013-04-07T11:12:49Z</time>
      </trkpt>
      <trkpt lat="48.6777" lon="6.12656">
        <ele>358</ele>
        <time>2013-04-07T11:12:51Z</time>
      </trkpt>
      <trkpt lat="48.6778" lon="6.12658">
        <ele>354</ele>
        <time>2013-04-07T11:12:53Z</time>
      </trkpt>
      <trkpt lat="48.67791" lon="6.12659">
        <ele>353</ele>
        <time>2013-04-07T11:12:55Z</time>
      </trkpt>
      <trkpt lat="48.67802" lon="6.1266">
        <ele>351</ele>
        <time>2013-04-07T11:12:57Z</time>
      </trkpt>
      <trkpt lat="48.67812" lon="6.12661">
        <ele>354</ele>
        <time>2013-04-07T11:12:59Z</time>
      </trkpt>
      <trkpt lat="48.67825" lon="6.12659">
        <ele>350</ele>
        <time>2013-04-07T11:13:01Z</time>
      </trkpt>
      <trkpt lat="48.67837" lon="6.12658">
        <ele>349</ele>
        <time>2013-04-07T11:13:03Z</time>
      </trkpt>
      <trkpt lat="48.67847" lon="6.1266">
        <ele>354</ele>
        <time>2013-04-07T11:13:05Z</time>
      </trkpt>
      <trkpt lat="48.67856" lon="6.12663">
        <ele>353</ele>
        <time>2013-04-07T11:13:07Z</time>
      </trkpt>
      <trkpt lat="48.67867" lon="6.12665">
        <ele>348</ele>
        <time>2013-04-07T11:13:09Z</time>
      </trkpt>
      <trkpt lat="48.67879" lon="6.12666">
        <ele>352</ele>
        <time>2013-04-07T11:13:11Z</time>
      </trkpt>
      <trkpt lat="48.67891" lon="6.12664">
        <ele>355</ele>
        <time>2013-04-07T11:13:13Z</time>
      </trkpt>
      <trkpt lat="48.67902" lon="6.12666">
        <ele>352</ele>
        <time>2013-04-07T11:13:15Z</time>
      </trkpt>
      <trkpt lat="48.6791" lon="6.12668">
        <ele>351</ele>
        <time>2013-04-07T11:13:17Z</time>
      </trkpt>
      <trkpt lat="48.6792" lon="6.12666">
        <ele>353</ele>
        <time>2013-04-07T11:13:19Z</time>
      </trkpt>
      <trkpt lat="48.6793" lon="6.12662">
        <ele>353</ele>
        <time>2013-04-07T11:13:21Z</time>
      </trkpt>
      <trkpt lat="48.67941" lon="6.12653">
        <ele>355</ele>
        <time>2013-04-07T11:13:23Z</time>
      </trkpt>
      <trkpt lat="48.67951" lon="6.12644">
        <ele>355</ele>
        <time>2013-04-07T11:13:25Z</time>
      </trkpt>
      <trkpt lat="48.67955" lon="6.12641">
        <ele>357</ele>
        <time>2013-04-07T11:13:27Z</time>
      </trkpt>
      <trkpt lat="48.67964" lon="6.12635">
        <ele>362</ele>
        <time>2013-04-07T11:13:29Z</time>
      </trkpt>
      <trkpt lat="48.67973" lon="6.12628">
        <ele>360</ele>
        <time>2013-04-07T11:13:31Z</time>
      </trkpt>
      <trkpt lat="48.67983" lon="6.12621">
        <ele>363</ele>
        <time>2013-04-07T11:13:33Z</time>
      </trkpt>
      <trkpt lat="48.6799" lon="6.12614">
        <ele>361</ele>
        <time>2013-04-07T11:13:36Z</time>
      </trkpt>
      <trkpt lat="48.67996" lon="6.12606">
        <ele>363</ele>
        <time>2013-04-07T11:13:38Z</time>
      </trkpt>
      <trkpt lat="48.68" lon="6.12602">
        <ele>361</ele>
        <time>2013-04-07T11:13:40Z</time>
      </trkpt>
      <trkpt lat="48.68007" lon="6.12603">
        <ele>363</ele>
        <time>2013-04-07T11:13:42Z</time>
      </trkpt>
      <trkpt lat="48.68014" lon="6.12602">
        <ele>360</ele>
        <time>2013-04-07T11:13:44Z</time>
      </trkpt>
      <trkpt lat="48.68021" lon="6.126">
        <ele>360</ele>
        <time>2013-04-07T11:13:46Z</time>
      </trkpt>
      <trkpt lat="48.68029" lon="6.12601">
        <ele>360</ele>
        <time>2013-04-07T11:13:48Z</time>
      </trkpt>
      <trkpt lat="48.68042" lon="6.12598">
        <ele>353</ele>
        <time>2013-04-07T11:13:50Z</time>
      </trkpt>
      <trkpt lat="48.68057" lon="6.12592">
        <ele>351</ele>
        <time>2013-04-07T11:13:52Z</time>
      </trkpt>
      <trkpt lat="48.6807" lon="6.12587">
        <ele>351</ele>
        <time>2013-04-07T11:13:54Z</time>
      </trkpt>
      <trkpt lat="48.68079" lon="6.12583">
        <ele>351</ele>
        <time>2013-04-07T11:13:56Z</time>
      </trkpt>
      <trkpt lat="48.68085" lon="6.12583">
        <ele>348</ele>
        <time>2013-04-07T11:13:58Z</time>
      </trkpt>
      <trkpt lat="48.68094" lon="6.12583">
        <ele>349</ele>
        <time>2013-04-07T11:14:00Z</time>
      </trkpt>
      <trkpt lat="48.68102" lon="6.12585">
        <ele>352</ele>
        <time>2013-04-07T11:14:02Z</time>
      </trkpt>
      <trkpt lat="48.68107" lon="6.12587">
        <ele>349</ele>
        <time>2013-04-07T11:14:04Z</time>
      </trkpt>
      <trkpt lat="48.68113" lon="6.1259">
        <ele>350</ele>
        <time>2013-04-07T11:14:06Z</time>
      </trkpt>
      <trkpt lat="48.68118" lon="6.12594">
        <ele>349</ele>
        <time>2013-04-07T11:14:08Z</time>
      </trkpt>
      <trkpt lat="48.68124" lon="6.12597">
        <ele>349</ele>
        <time>2013-04-07T11:14:10Z</time>
      </trkpt>
      <trkpt lat="48.68129" lon="6.12599">
        <ele>348</ele>
        <time>2013-04-07T11:14:12Z</time>
      </trkpt>
      <trkpt lat="48.68132" lon="6.12601">
        <ele>342</ele>
        <time>2013-04-07T11:14:14Z</time>
      </trkpt>
      <trkpt lat="48.68136" lon="6.12604">
        <ele>343</ele>
        <time>2013-04-07T11:14:16Z</time>
      </trkpt>
      <trkpt lat="48.68141" lon="6.12608">
        <ele>342</ele>
        <time>2013-04-07T11:14:18Z</time>
      </trkpt>
      <trkpt lat="48.68147" lon="6.12614">
        <ele>339</ele>
        <time>2013-04-07T11:14:20Z</time>
      </trkpt>
      <trkpt lat="48.68153" lon="6.1262">
        <ele>342</ele>
        <time>2013-04-07T11:14:22Z</time>
      </trkpt>
      <trkpt lat="48.68156" lon="6.12625">
        <ele>337</ele>
        <time>2013-04-07T11:14:24Z</time>
      </trkpt>
      <trkpt lat="48.68161" lon="6.12629">
        <ele>339</ele>
        <time>2013-04-07T11:14:26Z</time>
      </trkpt>
      <trkpt lat="48.68168" lon="6.12635">
        <ele>344</ele>
        <time>2013-04-07T11:14:28Z</time>
      </trkpt>
      <trkpt lat="48.68175" lon="6.12642">
        <ele>348</ele>
        <time>2013-04-07T11:14:30Z</time>
      </trkpt>
      <trkpt lat="48.68184" lon="6.12646">
        <ele>351</ele>
        <time>2013-04-07T11:14:32Z</time>
      </trkpt>
      <trkpt lat="48.68192" lon="6.12652">
        <ele>349</ele>
        <time>2013-04-07T11:14:34Z</time>
      </trkpt>
      <trkpt lat="48.68201" lon="6.12662">
        <ele>347</ele>
        <time>2013-04-07T11:14:36Z</time>
      </trkpt>
      <trkpt lat="48.68208" lon="6.1267">
        <ele>345</ele>
        <time>2013-04-07T11:14:38Z</time>
      </trkpt>
      <trkpt lat="48.68218" lon="6.12676">
        <ele>349</ele>
        <time>2013-04-07T11:14:40Z</time>
      </trkpt>
      <trkpt lat="48.68229" lon="6.12682">
        <ele>352</ele>
        <time>2013-04-07T11:14:42Z</time>
      </trkpt>
      <trkpt lat="48.68238" lon="6.12686">
        <ele>354</ele>
        <time>2013-04-07T11:14:44Z</time>
      </trkpt>
      <trkpt lat="48.68247" lon="6.12692">
        <ele>351</ele>
        <time>2013-04-07T11:14:46Z</time>
      </trkpt>
      <trkpt lat="48.68255" lon="6.127">
        <ele>350</ele>
        <time>2013-04-07T11:14:48Z</time>
      </trkpt>
      <trkpt lat="48.68262" lon="6.12709">
        <ele>352</ele>
        <time>2013-04-07T11:14:50Z</time>
      </trkpt>
      <trkpt lat="48.68269" lon="6.12717">
        <ele>350</ele>
        <time>2013-04-07T11:14:52Z</time>
      </trkpt>
      <trkpt lat="48.68276" lon="6.12724">
        <ele>347</ele>
        <time>2013-04-07T11:14:54Z</time>
      </trkpt>
      <trkpt lat="48.68284" lon="6.12731">
        <ele>346</ele>
        <time>2013-04-07T11:14:56Z</time>
      </trkpt>
      <trkpt lat="48.68291" lon="6.12737">
        <ele>347</ele>
        <time>2013-04-07T11:14:58Z</time>
      </trkpt>
      <trkpt lat="48.68296" lon="6.12744">
        <ele>346</ele>
        <time>2013-04-07T11:15:00Z</time>
      </trkpt>
      <trkpt lat="48.683" lon="6.12751">
        <ele>344</ele>
        <time>2013-04-07T11:15:02Z</time>
      </trkpt>
      <trkpt lat="48.68307" lon="6.12758">
        <ele>345</ele>
        <time>2013-04-07T11:15:04Z</time>
      </trkpt>
      <trkpt lat="48.68316" lon="6.12765">
        <ele>347</ele>
        <time>2013-04-07T11:15:06Z</time>
      </trkpt>
      <trkpt lat="48.68323" lon="6.12772">
        <ele>346</ele>
        <time>2013-04-07T11:15:08Z</time>
      </trkpt>
      <trkpt lat="48.68333" lon="6.12776">
        <ele>349</ele>
        <time>2013-04-07T11:15:10Z</time>
      </trkpt>
      <trkpt lat="48.68344" lon="6.12781">
        <ele>348</ele>
        <time>2013-04-07T11:15:12Z</time>
      </trkpt>
      <trkpt lat="48.68353" lon="6.12785">
        <ele>348</ele>
        <time>2013-04-07T11:15:14Z</time>
      </trkpt>
      <trkpt lat="48.68358" lon="6.12794">
        <ele>349</ele>
        <time>2013-04-07T11:15:16Z</time>
      </trkpt>
      <trkpt lat="48.68366" lon="6.12806">
        <ele>346</ele>
        <time>2013-04-07T11:15:18Z</time>
      </trkpt>
      <trkpt lat="48.68373" lon="6.12818">
        <ele>343</ele>
        <time>2013-04-07T11:15:20Z</time>
      </trkpt>
      <trkpt lat="48.68378" lon="6.12827">
        <ele>341</ele>
        <time>2013-04-07T11:15:22Z</time>
      </trkpt>
      <trkpt lat="48.68383" lon="6.12835">
        <ele>338</ele>
        <time>2013-04-07T11:15:24Z</time>
      </trkpt>
      <trkpt lat="48.68389" lon="6.12843">
        <ele>338</ele>
        <time>2013-04-07T11:15:26Z</time>
      </trkpt>
      <trkpt lat="48.68398" lon="6.12851">
        <ele>341</ele>
        <time>2013-04-07T11:15:28Z</time>
      </trkpt>
      <trkpt lat="48.68405" lon="6.12856">
        <ele>342</ele>
        <time>2013-04-07T11:15:30Z</time>
      </trkpt>
      <trkpt lat="48.68414" lon="6.12864">
        <ele>343</ele>
        <time>2013-04-07T11:15:32Z</time>
      </trkpt>
      <trkpt lat="48.68422" lon="6.12877">
        <ele>343</ele>
        <time>2013-04-07T11:15:34Z</time>
      </trkpt>
      <trkpt lat="48.6843" lon="6.12887">
        <ele>340</ele>
        <time>2013-04-07T11:15:36Z</time>
      </trkpt>
      <trkpt lat="48.68439" lon="6.12897">
        <ele>341</ele>
        <time>2013-04-07T11:15:38Z</time>
      </trkpt>
      <trkpt lat="48.68449" lon="6.12903">
        <ele>341</ele>
        <time>2013-04-07T11:15:40Z</time>
      </trkpt>
      <trkpt lat="48.68459" lon="6.12903">
        <ele>342</ele>
        <time>2013-04-07T11:15:42Z</time>
      </trkpt>
      <trkpt lat="48.68466" lon="6.129">
        <ele>345</ele>
        <time>2013-04-07T11:15:44Z</time>
      </trkpt>
      <trkpt lat="48.68473" lon="6.12899">
        <ele>350</ele>
        <time>2013-04-07T11:15:46Z</time>
      </trkpt>
      <trkpt lat="48.68483" lon="6.12889">
        <ele>343</ele>
        <time>2013-04-07T11:15:48Z</time>
      </trkpt>
      <trkpt lat="48.68492" lon="6.1288">
        <ele>341</ele>
        <time>2013-04-07T11:15:50Z</time>
      </trkpt>
      <trkpt lat="48.685" lon="6.12873">
        <ele>342</ele>
        <time>2013-04-07T11:15:52Z</time>
      </trkpt>
      <trkpt lat="48.68508" lon="6.12867">
        <ele>341</ele>
        <time>2013-04-07T11:15:54Z</time>
      </trkpt>
      <trkpt lat="48.68516" lon="6.1286">
        <ele>339</ele>
        <time>2013-04-07T11:15:56Z</time>
      </trkpt>
      <trkpt lat="48.68523" lon="6.12855">
        <ele>339</ele>
        <time>2013-04-07T11:15:58Z</time>
      </trkpt>
      <trkpt lat="48.68531" lon="6.12849">
        <ele>340</ele>
        <time>2013-04-07T11:16:00Z</time>
      </trkpt>
      <trkpt lat="48.6854" lon="6.12842">
        <ele>340</ele>
        <time>2013-04-07T11:16:02Z</time>
      </trkpt>
      <trkpt lat="48.68549" lon="6.12837">
        <ele>340</ele>
        <time>2013-04-07T11:16:04Z</time>
      </trkpt>
      <trkpt lat="48.68557" lon="6.12832">
        <ele>339</ele>
        <time>2013-04-07T11:16:06Z</time>
      </trkpt>
      <trkpt lat="48.68563" lon="6.12828">
        <ele>340</ele>
        <time>2013-04-07T11:16:08Z</time>
      </trkpt>
      <trkpt lat="48.68571" lon="6.12823">
        <ele>340</ele>
        <time>2013-04-07T11:16:10Z</time>
      </trkpt>
      <trkpt lat="48.68579" lon="6.1282">
        <ele>342</ele>
        <time>2013-04-07T11:16:12Z</time>
      </trkpt>
      <trkpt lat="48.68586" lon="6.1282">
        <ele>345</ele>
        <time>2013-04-07T11:16:14Z</time>
      </trkpt>
      <trkpt lat="48.68593" lon="6.1282">
        <ele>348</ele>
        <time>2013-04-07T11:16:16Z</time>
      </trkpt>
      <trkpt lat="48.68599" lon="6.12818">
        <ele>347</ele>
        <time>2013-04-07T11:16:18Z</time>
      </trkpt>
      <trkpt lat="48.68607" lon="6.12818">
        <ele>348</ele>
        <time>2013-04-07T11:16:20Z</time>
      </trkpt>
      <trkpt lat="48.68614" lon="6.12818">
        <ele>348</ele>
        <time>2013-04-07T11:16:22Z</time>
      </trkpt>
      <trkpt lat="48.68621" lon="6.12818">
        <ele>352</ele>
        <time>2013-04-07T11:16:24Z</time>
      </trkpt>
      <trkpt lat="48.68629" lon="6.12817">
        <ele>355</ele>
        <time>2013-04-07T11:16:26Z</time>
      </trkpt>
      <trkpt lat="48.68636" lon="6.12816">
        <ele>353</ele>
        <time>2013-04-07T11:16:28Z</time>
      </trkpt>
      <trkpt lat="48.68642" lon="6.12814">
        <ele>352</ele>
        <time>2013-04-07T11:16:30Z</time>
      </trkpt>
      <trkpt lat="48.68649" lon="6.12812">
        <ele>351</ele>
        <time>2013-04-07T11:16:32Z</time>
      </trkpt>
      <trkpt lat="48.68656" lon="6.1281">
        <ele>353</ele>
        <time>2013-04-07T11:16:34Z</time>
      </trkpt>
      <trkpt lat="48.68664" lon="6.12808">
        <ele>354</ele>
        <time>2013-04-07T11:16:36Z</time>
      </trkpt>
      <trkpt lat="48.68671" lon="6.12805">
        <ele>354</ele>
        <time>2013-04-07T11:16:38Z</time>
      </trkpt>
      <trkpt lat="48.68679" lon="6.12804">
        <ele>355</ele>
        <time>2013-04-07T11:16:40Z</time>
      </trkpt>
      <trkpt lat="48.68688" lon="6.12801">
        <ele>358</ele>
        <time>2013-04-07T11:16:42Z</time>
      </trkpt>
      <trkpt lat="48.68697" lon="6.12796">
        <ele>360</ele>
        <time>2013-04-07T11:16:44Z</time>
      </trkpt>
      <trkpt lat="48.68705" lon="6.12792">
        <ele>359</ele>
        <time>2013-04-07T11:16:46Z</time>
      </trkpt>
      <trkpt lat="48.68713" lon="6.12789">
        <ele>359</ele>
        <time>2013-04-07T11:16:48Z</time>
      </trkpt>
      <trkpt lat="48.6872" lon="6.12786">
        <ele>360</ele>
        <time>2013-04-07T11:16:50Z</time>
      </trkpt>
      <trkpt lat="48.68728" lon="6.12783">
        <ele>361</ele>
        <time>2013-04-07T11:16:52Z</time>
      </trkpt>
      <trkpt lat="48.68736" lon="6.12779">
        <ele>359</ele>
        <time>2013-04-07T11:16:54Z</time>
      </trkpt>
      <trkpt lat="48.68746" lon="6.12774">
        <ele>358</ele>
        <time>2013-04-07T11:16:56Z</time>
      </trkpt>
      <trkpt lat="48.68755" lon="6.12769">
        <ele>358</ele>
        <time>2013-04-07T11:16:58Z</time>
      </trkpt>
      <trkpt lat="48.68764" lon="6.12765">
        <ele>358</ele>
        <time>2013-04-07T11:17:00Z</time>
      </trkpt>
      <trkpt lat="48.68771" lon="6.12763">
        <ele>354</ele>
        <time>2013-04-07T11:17:02Z</time>
      </trkpt>
      <trkpt lat="48.68774" lon="6.12763">
        <ele>352</ele>
        <time>2013-04-07T11:17:04Z</time>
      </trkpt>
      <trkpt lat="48.68779" lon="6.12766">
        <ele>350</ele>
        <time>2013-04-07T11:17:06Z</time>
      </trkpt>
      <trkpt lat="48.68782" lon="6.1277">
        <ele>351</ele>
        <time>2013-04-07T11:17:08Z</time>
      </trkpt>
      <trkpt lat="48.68785" lon="6.12778">
        <ele>350</ele>
        <time>2013-04-07T11:17:10Z</time>
      </trkpt>
      <trkpt lat="48.68785" lon="6.12788">
        <ele>350</ele>
        <time>2013-04-07T11:17:12Z</time>
      </trkpt>
      <trkpt lat="48.68787" lon="6.12803">
        <ele>350</ele>
        <time>2013-04-07T11:17:14Z</time>
      </trkpt>
      <trkpt lat="48.68788" lon="6.12817">
        <ele>347</ele>
        <time>2013-04-07T11:17:16Z</time>
      </trkpt>
      <trkpt lat="48.6879" lon="6.12834">
        <ele>346</ele>
        <time>2013-04-07T11:17:18Z</time>
      </trkpt>
      <trkpt lat="48.68793" lon="6.12851">
        <ele>348</ele>
        <time>2013-04-07T11:17:20Z</time>
      </trkpt>
      <trkpt lat="48.68795" lon="6.12868">
        <ele>348</ele>
        <time>2013-04-07T11:17:22Z</time>
      </trkpt>
      <trkpt lat="48.68796" lon="6.12884">
        <ele>346</ele>
        <time>2013-04-07T11:17:24Z</time>
      </trkpt>
      <trkpt lat="48.68798" lon="6.12904">
        <ele>345</ele>
        <time>2013-04-07T11:17:26Z</time>
      </trkpt>
      <trkpt lat="48.68799" lon="6.12924">
        <ele>344</ele>
        <time>2013-04-07T11:17:28Z</time>
      </trkpt>
      <trkpt lat="48.68801" lon="6.12944">
        <ele>345</ele>
        <time>2013-04-07T11:17:30Z</time>
      </trkpt>
      <trkpt lat="48.68803" lon="6.12963">
        <ele>345</ele>
        <time>2013-04-07T11:17:32Z</time>
      </trkpt>
      <trkpt lat="48.68805" lon="6.12985">
        <ele>344</ele>
        <time>2013-04-07T11:17:34Z</time>
      </trkpt>
      <trkpt lat="48.68807" lon="6.13008">
        <ele>344</ele>
        <time>2013-04-07T11:17:36Z</time>
      </trkpt>
      <trkpt lat="48.68808" lon="6.13031">
        <ele>343</ele>
        <time>2013-04-07T11:17:38Z</time>
      </trkpt>
      <trkpt lat="48.68809" lon="6.13056">
        <ele>341</ele>
        <time>2013-04-07T11:17:40Z</time>
      </trkpt>
      <trkpt lat="48.68811" lon="6.1308">
        <ele>338</ele>
        <time>2013-04-07T11:17:42Z</time>
      </trkpt>
      <trkpt lat="48.68814" lon="6.13104">
        <ele>336</ele>
        <time>2013-04-07T11:17:44Z</time>
      </trkpt>
      <trkpt lat="48.68817" lon="6.13129">
        <ele>335</ele>
        <time>2013-04-07T11:17:46Z</time>
      </trkpt>
      <trkpt lat="48.68821" lon="6.13154">
        <ele>333</ele>
        <time>2013-04-07T11:17:48Z</time>
      </trkpt>
      <trkpt lat="48.68812" lon="6.13168">
        <ele>327</ele>
        <time>2013-04-07T11:17:56Z</time>
      </trkpt>
      <trkpt lat="48.68797" lon="6.13154">
        <ele>324</ele>
        <time>2013-04-07T11:17:58Z</time>
      </trkpt>
      <trkpt lat="48.68778" lon="6.13141">
        <ele>322</ele>
        <time>2013-04-07T11:18:00Z</time>
      </trkpt>
      <trkpt lat="48.68755" lon="6.13132">
        <ele>323</ele>
        <time>2013-04-07T11:18:02Z</time>
      </trkpt>
      <trkpt lat="48.6873" lon="6.13128">
        <ele>326</ele>
        <time>2013-04-07T11:18:04Z</time>
      </trkpt>
      <trkpt lat="48.68706" lon="6.13124">
        <ele>324</ele>
        <time>2013-04-07T11:18:06Z</time>
      </trkpt>
      <trkpt lat="48.68681" lon="6.13122">
        <ele>325</ele>
        <time>2013-04-07T11:18:08Z</time>
      </trkpt>
      <trkpt lat="48.68657" lon="6.13121">
        <ele>326</ele>
        <time>2013-04-07T11:18:10Z</time>
      </trkpt>
      <trkpt lat="48.6863" lon="6.13126">
        <ele>325</ele>
        <time>2013-04-07T11:18:12Z</time>
      </trkpt>
      <trkpt lat="48.68603" lon="6.13139">
        <ele>329</ele>
        <time>2013-04-07T11:18:14Z</time>
      </trkpt>
      <trkpt lat="48.68578" lon="6.13154">
        <ele>331</ele>
        <time>2013-04-07T11:18:16Z</time>
      </trkpt>
      <trkpt lat="48.68554" lon="6.13172">
        <ele>332</ele>
        <time>2013-04-07T11:18:18Z</time>
      </trkpt>
      <trkpt lat="48.68543" lon="6.13183">
        <ele>332</ele>
        <time>2013-04-07T11:18:19Z</time>
      </trkpt>
      <trkpt lat="48.6853" lon="6.13196">
        <ele>332</ele>
        <time>2013-04-07T11:18:20Z</time>
      </trkpt>
      <trkpt lat="48.68507" lon="6.13224">
        <ele>334</ele>
        <time>2013-04-07T11:18:22Z</time>
      </trkpt>
      <trkpt lat="48.68488" lon="6.13257">
        <ele>332</ele>
        <time>2013-04-07T11:18:24Z</time>
      </trkpt>
      <trkpt lat="48.6847" lon="6.13294">
        <ele>333</ele>
        <time>2013-04-07T11:18:26Z</time>
      </trkpt>
      <trkpt lat="48.68458" lon="6.13337">
        <ele>333</ele>
        <time>2013-04-07T11:18:28Z</time>
      </trkpt>
      <trkpt lat="48.68451" lon="6.13382">
        <ele>330</ele>
        <time>2013-04-07T11:18:30Z</time>
      </trkpt>
      <trkpt lat="48.68448" lon="6.13427">
        <ele>329</ele>
        <time>2013-04-07T11:18:32Z</time>
      </trkpt>
      <trkpt lat="48.68452" lon="6.13473">
        <ele>330</ele>
        <time>2013-04-07T11:18:34Z</time>
      </trkpt>
      <trkpt lat="48.68457" lon="6.13519">
        <ele>324</ele>
        <time>2013-04-07T11:18:36Z</time>
      </trkpt>
      <trkpt lat="48.68461" lon="6.13565">
        <ele>320</ele>
        <time>2013-04-07T11:18:38Z</time>
      </trkpt>
      <trkpt lat="48.68465" lon="6.1361">
        <ele>317</ele>
        <time>2013-04-07T11:18:40Z</time>
      </trkpt>
      <trkpt lat="48.68467" lon="6.13658">
        <ele>305</ele>
        <time>2013-04-07T11:18:42Z</time>
      </trkpt>
      <trkpt lat="48.68465" lon="6.13701">
        <ele>302</ele>
        <time>2013-04-07T11:18:44Z</time>
      </trkpt>
      <trkpt lat="48.68457" lon="6.13744">
        <ele>296</ele>
        <time>2013-04-07T11:18:46Z</time>
      </trkpt>
      <trkpt lat="48.68446" lon="6.13783">
        <ele>293</ele>
        <time>2013-04-07T11:18:48Z</time>
      </trkpt>
      <trkpt lat="48.68432" lon="6.13818">
        <ele>291</ele>
        <time>2013-04-07T11:18:50Z</time>
      </trkpt>
      <trkpt lat="48.68413" lon="6.13845">
        <ele>289</ele>
        <time>2013-04-07T11:18:52Z</time>
      </trkpt>
      <trkpt lat="48.68394" lon="6.1387">
        <ele>280</ele>
        <time>2013-04-07T11:18:54Z</time>
      </trkpt>
      <trkpt lat="48.68374" lon="6.1389">
        <ele>274</ele>
        <time>2013-04-07T11:18:56Z</time>
      </trkpt>
      <trkpt lat="48.68359" lon="6.13904">
        <ele>275</ele>
        <time>2013-04-07T11:18:58Z</time>
      </trkpt>
      <trkpt lat="48.68346" lon="6.13908">
        <ele>276</ele>
        <time>2013-04-07T11:19:00Z</time>
      </trkpt>
      <trkpt lat="48.68337" lon="6.13905">
        <ele>273</ele>
        <time>2013-04-07T11:19:02Z</time>
      </trkpt>
      <trkpt lat="48.6833" lon="6.13902">
        <ele>277</ele>
        <time>2013-04-07T11:19:04Z</time>
      </trkpt>
      <trkpt lat="48.68324" lon="6.139">
        <ele>278</ele>
        <time>2013-04-07T11:19:06Z</time>
      </trkpt>
      <trkpt lat="48.68317" lon="6.13904">
        <ele>277</ele>
        <time>2013-04-07T11:19:08Z</time>
      </trkpt>
      <trkpt lat="48.68311" lon="6.13908">
        <ele>277</ele>
        <time>2013-04-07T11:19:10Z</time>
      </trkpt>
      <trkpt lat="48.68302" lon="6.13915">
        <ele>280</ele>
        <time>2013-04-07T11:19:12Z</time>
      </trkpt>
      <trkpt lat="48.68291" lon="6.13924">
        <ele>278</ele>
        <time>2013-04-07T11:19:14Z</time>
      </trkpt>
      <trkpt lat="48.68276" lon="6.13937">
        <ele>276</ele>
        <time>2013-04-07T11:19:16Z</time>
      </trkpt>
      <trkpt lat="48.68261" lon="6.13951">
        <ele>272</ele>
        <time>2013-04-07T11:19:18Z</time>
      </trkpt>
      <trkpt lat="48.68244" lon="6.13965">
        <ele>271</ele>
        <time>2013-04-07T11:19:20Z</time>
      </trkpt>
      <trkpt lat="48.68226" lon="6.1398">
        <ele>269</ele>
        <time>2013-04-07T11:19:22Z</time>
      </trkpt>
      <trkpt lat="48.68207" lon="6.13996">
        <ele>266</ele>
        <time>2013-04-07T11:19:24Z</time>
      </trkpt>
      <trkpt lat="48.68189" lon="6.14011">
        <ele>266</ele>
        <time>2013-04-07T11:19:26Z</time>
      </trkpt>
      <trkpt lat="48.68168" lon="6.14027">
        <ele>265</ele>
        <time>2013-04-07T11:19:28Z</time>
      </trkpt>
      <trkpt lat="48.68147" lon="6.14043">
        <ele>263</ele>
        <time>2013-04-07T11:19:30Z</time>
      </trkpt>
      <trkpt lat="48.68127" lon="6.14059">
        <ele>262</ele>
        <time>2013-04-07T11:19:32Z</time>
      </trkpt>
      <trkpt lat="48.68106" lon="6.14076">
        <ele>259</ele>
        <time>2013-04-07T11:19:34Z</time>
      </trkpt>
      <trkpt lat="48.68085" lon="6.14089">
        <ele>257</ele>
        <time>2013-04-07T11:19:36Z</time>
      </trkpt>
      <trkpt lat="48.68064" lon="6.14101">
        <ele>257</ele>
        <time>2013-04-07T11:19:38Z</time>
      </trkpt>
      <trkpt lat="48.68041" lon="6.14112">
        <ele>257</ele>
        <time>2013-04-07T11:19:40Z</time>
      </trkpt>
      <trkpt lat="48.68018" lon="6.14121">
        <ele>257</ele>
        <time>2013-04-07T11:19:42Z</time>
      </trkpt>
      <trkpt lat="48.67995" lon="6.14129">
        <ele>257</ele>
        <time>2013-04-07T11:19:44Z</time>
      </trkpt>
      <trkpt lat="48.67964" lon="6.14141">
        <ele>259</ele>
        <time>2013-04-07T11:19:47Z</time>
      </trkpt>
      <trkpt lat="48.67953" lon="6.14144">
        <ele>257</ele>
        <time>2013-04-07T11:19:48Z</time>
      </trkpt>
      <trkpt lat="48.67936" lon="6.14144">
        <ele>254</ele>
        <time>2013-04-07T11:19:50Z</time>
      </trkpt>
      <trkpt lat="48.67923" lon="6.14132">
        <ele>253</ele>
        <time>2013-04-07T11:19:52Z</time>
      </trkpt>
      <trkpt lat="48.6791" lon="6.14132">
        <ele>252</ele>
        <time>2013-04-07T11:19:54Z</time>
      </trkpt>
      <trkpt lat="48.67899" lon="6.1414">
        <ele>257</ele>
        <time>2013-04-07T11:19:56Z</time>
      </trkpt>
      <trkpt lat="48.67886" lon="6.14148">
        <ele>253</ele>
        <time>2013-04-07T11:19:58Z</time>
      </trkpt>
      <trkpt lat="48.67875" lon="6.14156">
        <ele>249</ele>
        <time>2013-04-07T11:20:00Z</time>
      </trkpt>
      <trkpt lat="48.67871" lon="6.14172">
        <ele>248</ele>
        <time>2013-04-07T11:20:02Z</time>
      </trkpt>
      <trkpt lat="48.67877" lon="6.14186">
        <ele>244</ele>
        <time>2013-04-07T11:20:04Z</time>
      </trkpt>
      <trkpt lat="48.67882" lon="6.14192">
        <ele>240</ele>
        <time>2013-04-07T11:20:06Z</time>
      </trkpt>
      <trkpt lat="48.67886" lon="6.14197">
        <ele>240</ele>
        <time>2013-04-07T11:20:08Z</time>
      </trkpt>
      <trkpt lat="48.6789" lon="6.142">
        <ele>240</ele>
        <time>2013-04-07T11:20:10Z</time>
      </trkpt>
      <trkpt lat="48.67892" lon="6.14204">
        <ele>240</ele>
        <time>2013-04-07T11:20:12Z</time>
      </trkpt>
      <trkpt lat="48.67895" lon="6.14207">
        <ele>238</ele>
        <time>2013-04-07T11:20:14Z</time>
      </trkpt>
      <trkpt lat="48.67899" lon="6.1421">
        <ele>240</ele>
        <time>2013-04-07T11:20:16Z</time>
      </trkpt>
      <trkpt lat="48.67901" lon="6.14213">
        <ele>240</ele>
        <time>2013-04-07T11:20:18Z</time>
      </trkpt>
      <trkpt lat="48.67902" lon="6.14216">
        <ele>240</ele>
        <time>2013-04-07T11:20:20Z</time>
      </trkpt>
      <trkpt lat="48.67905" lon="6.1422">
        <ele>239</ele>
        <time>2013-04-07T11:20:22Z</time>
      </trkpt>
      <trkpt lat="48.67909" lon="6.14224">
        <ele>239</ele>
        <time>2013-04-07T11:20:24Z</time>
      </trkpt>
      <trkpt lat="48.67912" lon="6.14226">
        <ele>238</ele>
        <time>2013-04-07T11:20:26Z</time>
      </trkpt>
      <trkpt lat="48.67914" lon="6.14232">
        <ele>238</ele>
        <time>2013-04-07T11:20:28Z</time>
      </trkpt>
      <trkpt lat="48.67917" lon="6.1424">
        <ele>239</ele>
        <time>2013-04-07T11:20:30Z</time>
      </trkpt>
      <trkpt lat="48.67923" lon="6.14249">
        <ele>238</ele>
        <time>2013-04-07T11:20:32Z</time>
      </trkpt>
      <trkpt lat="48.6793" lon="6.14261">
        <ele>236</ele>
        <time>2013-04-07T11:20:34Z</time>
      </trkpt>
      <trkpt lat="48.67936" lon="6.14272">
        <ele>237</ele>
        <time>2013-04-07T11:20:36Z</time>
      </trkpt>
      <trkpt lat="48.67944" lon="6.14286">
        <ele>236</ele>
        <time>2013-04-07T11:20:38Z</time>
      </trkpt>
      <trkpt lat="48.67952" lon="6.14299">
        <ele>238</ele>
        <time>2013-04-07T11:20:40Z</time>
      </trkpt>
      <trkpt lat="48.67962" lon="6.14316">
        <ele>236</ele>
        <time>2013-04-07T11:20:42Z</time>
      </trkpt>
      <trkpt lat="48.67971" lon="6.14336">
        <ele>235</ele>
        <time>2013-04-07T11:20:44Z</time>
      </trkpt>
      <trkpt lat="48.67981" lon="6.14356">
        <ele>235</ele>
        <time>2013-04-07T11:20:46Z</time>
      </trkpt>
      <trkpt lat="48.67991" lon="6.14375">
        <ele>235</ele>
        <time>2013-04-07T11:20:48Z</time>
      </trkpt>
      <trkpt lat="48.68003" lon="6.14397">
        <ele>232</ele>
        <time>2013-04-07T11:20:50Z</time>
      </trkpt>
      <trkpt lat="48.68015" lon="6.1442">
        <ele>230</ele>
        <time>2013-04-07T11:20:52Z</time>
      </trkpt>
      <trkpt lat="48.68025" lon="6.14442">
        <ele>232</ele>
        <time>2013-04-07T11:20:54Z</time>
      </trkpt>
      <trkpt lat="48.68034" lon="6.14462">
        <ele>233</ele>
        <time>2013-04-07T11:20:56Z</time>
      </trkpt>
      <trkpt lat="48.68044" lon="6.14482">
        <ele>232</ele>
        <time>2013-04-07T11:20:58Z</time>
      </trkpt>
      <trkpt lat="48.68055" lon="6.14502">
        <ele>235</ele>
        <time>2013-04-07T11:21:00Z</time>
      </trkpt>
      <trkpt lat="48.68066" lon="6.14522">
        <ele>237</ele>
        <time>2013-04-07T11:21:02Z</time>
      </trkpt>
      <trkpt lat="48.68078" lon="6.14543">
        <ele>238</ele>
        <time>2013-04-07T11:21:04Z</time>
      </trkpt>
      <trkpt lat="48.6809" lon="6.14564">
        <ele>237</ele>
        <time>2013-04-07T11:21:06Z</time>
      </trkpt>
      <trkpt lat="48.68102" lon="6.14586">
        <ele>234</ele>
        <time>2013-04-07T11:21:08Z</time>
      </trkpt>
      <trkpt lat="48.68113" lon="6.14609">
        <ele>232</ele>
        <time>2013-04-07T11:21:10Z</time>
      </trkpt>
      <trkpt lat="48.68123" lon="6.14629">
        <ele>230</ele>
        <time>2013-04-07T11:21:12Z</time>
      </trkpt>
      <trkpt lat="48.68132" lon="6.14647">
        <ele>231</ele>
        <time>2013-04-07T11:21:14Z</time>
      </trkpt>
      <trkpt lat="48.6814" lon="6.14665">
        <ele>234</ele>
        <time>2013-04-07T11:21:16Z</time>
      </trkpt>
      <trkpt lat="48.68149" lon="6.14683">
        <ele>233</ele>
        <time>2013-04-07T11:21:18Z</time>
      </trkpt>
      <trkpt lat="48.68158" lon="6.14702">
        <ele>237</ele>
        <time>2013-04-07T11:21:20Z</time>
      </trkpt>
      <trkpt lat="48.68168" lon="6.14719">
        <ele>234</ele>
        <time>2013-04-07T11:21:22Z</time>
      </trkpt>
      <trkpt lat="48.68178" lon="6.14737">
        <ele>234</ele>
        <time>2013-04-07T11:21:24Z</time>
      </trkpt>
      <trkpt lat="48.68187" lon="6.14753">
        <ele>236</ele>
        <time>2013-04-07T11:21:26Z</time>
      </trkpt>
      <trkpt lat="48.68199" lon="6.14772">
        <ele>237</ele>
        <time>2013-04-07T11:21:28Z</time>
      </trkpt>
      <trkpt lat="48.68213" lon="6.14796">
        <ele>232</ele>
        <time>2013-04-07T11:21:30Z</time>
      </trkpt>
      <trkpt lat="48.68224" lon="6.14814">
        <ele>233</ele>
        <time>2013-04-07T11:21:32Z</time>
      </trkpt>
      <trkpt lat="48.68237" lon="6.14831">
        <ele>232</ele>
        <time>2013-04-07T11:21:34Z</time>
      </trkpt>
      <trkpt lat="48.6825" lon="6.14849">
        <ele>233</ele>
        <time>2013-04-07T11:21:36Z</time>
      </trkpt>
      <trkpt lat="48.68262" lon="6.14869">
        <ele>234</ele>
        <time>2013-04-07T11:21:38Z</time>
      </trkpt>
      <trkpt lat="48.68276" lon="6.1489">
        <ele>227</ele>
        <time>2013-04-07T11:21:40Z</time>
      </trkpt>
      <trkpt lat="48.68289" lon="6.14911">
        <ele>223</ele>
        <time>2013-04-07T11:21:42Z</time>
      </trkpt>
      <trkpt lat="48.68298" lon="6.14927">
        <ele>223</ele>
        <time>2013-04-07T11:21:44Z</time>
      </trkpt>
      <trkpt lat="48.68308" lon="6.14941">
        <ele>223</ele>
        <time>2013-04-07T11:21:46Z</time>
      </trkpt>
      <trkpt lat="48.68315" lon="6.14952">
        <ele>224</ele>
        <time>2013-04-07T11:21:48Z</time>
      </trkpt>
      <trkpt lat="48.68322" lon="6.14963">
        <ele>227</ele>
        <time>2013-04-07T11:21:50Z</time>
      </trkpt>
      <trkpt lat="48.68329" lon="6.14976">
        <ele>226</ele>
        <time>2013-04-07T11:21:52Z</time>
      </trkpt>
      <trkpt lat="48.68337" lon="6.14989">
        <ele>227</ele>
        <time>2013-04-07T11:21:54Z</time>
      </trkpt>
      <trkpt lat="48.68344" lon="6.15002">
        <ele>228</ele>
        <time>2013-04-07T11:21:56Z</time>
      </trkpt>
      <trkpt lat="48.68351" lon="6.15013">
        <ele>223</ele>
        <time>2013-04-07T11:21:58Z</time>
      </trkpt>
      <trkpt lat="48.68355" lon="6.15024">
        <ele>225</ele>
        <time>2013-04-07T11:22:00Z</time>
      </trkpt>
      <trkpt lat="48.68361" lon="6.15036">
        <ele>224</ele>
        <time>2013-04-07T11:22:02Z</time>
      </trkpt>
      <trkpt lat="48.68367" lon="6.15048">
        <ele>224</ele>
        <time>2013-04-07T11:22:04Z</time>
      </trkpt>
      <trkpt lat="48.68372" lon="6.15059">
        <ele>227</ele>
        <time>2013-04-07T11:22:06Z</time>
      </trkpt>
      <trkpt lat="48.68377" lon="6.1507">
        <ele>229</ele>
        <time>2013-04-07T11:22:08Z</time>
      </trkpt>
      <trkpt lat="48.68378" lon="6.15078">
        <ele>229</ele>
        <time>2013-04-07T11:22:10Z</time>
      </trkpt>
      <trkpt lat="48.68378" lon="6.15082">
        <ele>228</ele>
        <time>2013-04-07T11:22:12Z</time>
      </trkpt>
      <trkpt lat="48.68381" lon="6.1509">
        <ele>224</ele>
        <time>2013-04-07T11:22:14Z</time>
      </trkpt>
      <trkpt lat="48.68391" lon="6.15097">
        <ele>221</ele>
        <time>2013-04-07T11:22:16Z</time>
      </trkpt>
      <trkpt lat="48.68399" lon="6.15105">
        <ele>220</ele>
        <time>2013-04-07T11:22:18Z</time>
      </trkpt>
      <trkpt lat="48.68403" lon="6.15117">
        <ele>223</ele>
        <time>2013-04-07T11:22:20Z</time>
      </trkpt>
      <trkpt lat="48.68406" lon="6.15128">
        <ele>225</ele>
        <time>2013-04-07T11:22:22Z</time>
      </trkpt>
      <trkpt lat="48.68409" lon="6.15142">
        <ele>225</ele>
        <time>2013-04-07T11:22:24Z</time>
      </trkpt>
      <trkpt lat="48.68412" lon="6.15157">
        <ele>223</ele>
        <time>2013-04-07T11:22:26Z</time>
      </trkpt>
      <trkpt lat="48.68416" lon="6.15171">
        <ele>225</ele>
        <time>2013-04-07T11:22:28Z</time>
      </trkpt>
      <trkpt lat="48.68419" lon="6.15183">
        <ele>227</ele>
        <time>2013-04-07T11:22:30Z</time>
      </trkpt>
      <trkpt lat="48.68423" lon="6.15198">
        <ele>223</ele>
        <time>2013-04-07T11:22:32Z</time>
      </trkpt>
      <trkpt lat="48.68426" lon="6.15212">
        <ele>228</ele>
        <time>2013-04-07T11:22:34Z</time>
      </trkpt>
      <trkpt lat="48.68429" lon="6.15227">
        <ele>228</ele>
        <time>2013-04-07T11:22:36Z</time>
      </trkpt>
      <trkpt lat="48.68433" lon="6.15244">
        <ele>228</ele>
        <time>2013-04-07T11:22:38Z</time>
      </trkpt>
      <trkpt lat="48.68436" lon="6.15261">
        <ele>228</ele>
        <time>2013-04-07T11:22:40Z</time>
      </trkpt>
      <trkpt lat="48.68439" lon="6.15277">
        <ele>228</ele>
        <time>2013-04-07T11:22:42Z</time>
      </trkpt>
      <trkpt lat="48.68442" lon="6.15292">
        <ele>232</ele>
        <time>2013-04-07T11:22:44Z</time>
      </trkpt>
      <trkpt lat="48.68444" lon="6.15308">
        <ele>234</ele>
        <time>2013-04-07T11:22:46Z</time>
      </trkpt>
      <trkpt lat="48.68447" lon="6.15324">
        <ele>232</ele>
        <time>2013-04-07T11:22:48Z</time>
      </trkpt>
      <trkpt lat="48.68449" lon="6.1534">
        <ele>235</ele>
        <time>2013-04-07T11:22:50Z</time>
      </trkpt>
      <trkpt lat="48.6845" lon="6.15353">
        <ele>235</ele>
        <time>2013-04-07T11:22:52Z</time>
      </trkpt>
      <trkpt lat="48.68453" lon="6.15367">
        <ele>236</ele>
        <time>2013-04-07T11:22:54Z</time>
      </trkpt>
      <trkpt lat="48.68456" lon="6.15388">
        <ele>225</ele>
        <time>2013-04-07T11:22:56Z</time>
      </trkpt>
      <trkpt lat="48.68458" lon="6.15405">
        <ele>224</ele>
        <time>2013-04-07T11:22:58Z</time>
      </trkpt>
      <trkpt lat="48.6846" lon="6.1542">
        <ele>226</ele>
        <time>2013-04-07T11:23:00Z</time>
      </trkpt>
      <trkpt lat="48.68461" lon="6.15433">
        <ele>225</ele>
        <time>2013-04-07T11:23:02Z</time>
      </trkpt>
      <trkpt lat="48.68464" lon="6.15448">
        <ele>226</ele>
        <time>2013-04-07T11:23:04Z</time>
      </trkpt>
      <trkpt lat="48.68465" lon="6.15461">
        <ele>225</ele>
        <time>2013-04-07T11:23:06Z</time>
      </trkpt>
      <trkpt lat="48.68467" lon="6.15475">
        <ele>224</ele>
        <time>2013-04-07T11:23:08Z</time>
      </trkpt>
      <trkpt lat="48.6847" lon="6.15492">
        <ele>230</ele>
        <time>2013-04-07T11:23:10Z</time>
      </trkpt>
      <trkpt lat="48.68472" lon="6.15511">
        <ele>228</ele>
        <time>2013-04-07T11:23:12Z</time>
      </trkpt>
      <trkpt lat="48.68472" lon="6.15529">
        <ele>226</ele>
        <time>2013-04-07T11:23:14Z</time>
      </trkpt>
      <trkpt lat="48.68471" lon="6.15543">
        <ele>226</ele>
        <time>2013-04-07T11:23:16Z</time>
      </trkpt>
      <trkpt lat="48.68471" lon="6.15555">
        <ele>228</ele>
        <time>2013-04-07T11:23:18Z</time>
      </trkpt>
      <trkpt lat="48.68472" lon="6.15571">
        <ele>228</ele>
        <time>2013-04-07T11:23:20Z</time>
      </trkpt>
      <trkpt lat="48.6847" lon="6.15586">
        <ele>227</ele>
        <time>2013-04-07T11:23:22Z</time>
      </trkpt>
      <trkpt lat="48.68469" lon="6.15603">
        <ele>224</ele>
        <time>2013-04-07T11:23:24Z</time>
      </trkpt>
      <trkpt lat="48.68468" lon="6.15618">
        <ele>225</ele>
        <time>2013-04-07T11:23:26Z</time>
      </trkpt>
      <trkpt lat="48.68467" lon="6.15635">
        <ele>226</ele>
        <time>2013-04-07T11:23:28Z</time>
      </trkpt>
      <trkpt lat="48.68464" lon="6.15652">
        <ele>223</ele>
        <time>2013-04-07T11:23:30Z</time>
      </trkpt>
      <trkpt lat="48.68461" lon="6.15668">
        <ele>223</ele>
        <time>2013-04-07T11:23:32Z</time>
      </trkpt>
      <trkpt lat="48.68458" lon="6.15684">
        <ele>226</ele>
        <time>2013-04-07T11:23:34Z</time>
      </trkpt>
      <trkpt lat="48.68454" lon="6.15701">
        <ele>226</ele>
        <time>2013-04-07T11:23:36Z</time>
      </trkpt>
      <trkpt lat="48.6845" lon="6.15717">
        <ele>227</ele>
        <time>2013-04-07T11:23:38Z</time>
      </trkpt>
      <trkpt lat="48.68447" lon="6.15733">
        <ele>230</ele>
        <time>2013-04-07T11:23:40Z</time>
      </trkpt>
      <trkpt lat="48.68443" lon="6.15755">
        <ele>226</ele>
        <time>2013-04-07T11:23:42Z</time>
      </trkpt>
      <trkpt lat="48.68441" lon="6.15774">
        <ele>224</ele>
        <time>2013-04-07T11:23:44Z</time>
      </trkpt>
      <trkpt lat="48.68444" lon="6.15793">
        <ele>224</ele>
        <time>2013-04-07T11:23:46Z</time>
      </trkpt>
      <trkpt lat="48.68448" lon="6.15809">
        <ele>225</ele>
        <time>2013-04-07T11:23:48Z</time>
      </trkpt>
      <trkpt lat="48.68453" lon="6.15826">
        <ele>224</ele>
        <time>2013-04-07T11:23:50Z</time>
      </trkpt>
      <trkpt lat="48.68458" lon="6.15841">
        <ele>223</ele>
        <time>2013-04-07T11:23:52Z</time>
      </trkpt>
      <trkpt lat="48.68463" lon="6.15854">
        <ele>224</ele>
        <time>2013-04-07T11:23:54Z</time>
      </trkpt>
      <trkpt lat="48.6847" lon="6.15867">
        <ele>218</ele>
        <time>2013-04-07T11:23:56Z</time>
      </trkpt>
      <trkpt lat="48.68473" lon="6.15872">
        <ele>219</ele>
        <time>2013-04-07T11:23:58Z</time>
      </trkpt>
      <trkpt lat="48.68475" lon="6.15876">
        <ele>220</ele>
        <time>2013-04-07T11:24:00Z</time>
      </trkpt>
      <trkpt lat="48.68477" lon="6.15883">
        <ele>221</ele>
        <time>2013-04-07T11:24:02Z</time>
      </trkpt>
      <trkpt lat="48.68478" lon="6.15888">
        <ele>223</ele>
        <time>2013-04-07T11:24:04Z</time>
      </trkpt>
      <trkpt lat="48.6848" lon="6.15894">
        <ele>221</ele>
        <time>2013-04-07T11:24:06Z</time>
      </trkpt>
      <trkpt lat="48.68481" lon="6.15899">
        <ele>223</ele>
        <time>2013-04-07T11:24:08Z</time>
      </trkpt>
      <trkpt lat="48.68483" lon="6.15904">
        <ele>225</ele>
        <time>2013-04-07T11:24:10Z</time>
      </trkpt>
      <trkpt lat="48.68485" lon="6.15911">
        <ele>224</ele>
        <time>2013-04-07T11:24:12Z</time>
      </trkpt>
      <trkpt lat="48.68486" lon="6.15918">
        <ele>222</ele>
        <time>2013-04-07T11:24:14Z</time>
      </trkpt>
      <trkpt lat="48.68488" lon="6.15924">
        <ele>222</ele>
        <time>2013-04-07T11:24:16Z</time>
      </trkpt>
      <trkpt lat="48.6849" lon="6.15936">
        <ele>222</ele>
        <time>2013-04-07T11:24:20Z</time>
      </trkpt>
      <trkpt lat="48.68491" lon="6.15945">
        <ele>221</ele>
        <time>2013-04-07T11:24:22Z</time>
      </trkpt>
      <trkpt lat="48.68493" lon="6.15953">
        <ele>220</ele>
        <time>2013-04-07T11:24:24Z</time>
      </trkpt>
      <trkpt lat="48.68496" lon="6.15961">
        <ele>225</ele>
        <time>2013-04-07T11:24:26Z</time>
      </trkpt>
      <trkpt lat="48.68498" lon="6.15967">
        <ele>226</ele>
        <time>2013-04-07T11:24:28Z</time>
      </trkpt>
      <trkpt lat="48.685" lon="6.15973">
        <ele>223</ele>
        <time>2013-04-07T11:24:30Z</time>
      </trkpt>
      <trkpt lat="48.68503" lon="6.15979">
        <ele>222</ele>
        <time>2013-04-07T11:24:32Z</time>
      </trkpt>
      <trkpt lat="48.68508" lon="6.15988">
        <ele>216</ele>
        <time>2013-04-07T11:24:34Z</time>
      </trkpt>
      <trkpt lat="48.68512" lon="6.15989">
        <ele>219</ele>
        <time>2013-04-07T11:24:36Z</time>
      </trkpt>
      <trkpt lat="48.6852" lon="6.15988">
        <ele>225</ele>
        <time>2013-04-07T11:24:40Z</time>
      </trkpt>
      <trkpt lat="48.68525" lon="6.15988">
        <ele>230</ele>
        <time>2013-04-07T11:24:42Z</time>
      </trkpt>
      <trkpt lat="48.68528" lon="6.15988">
        <ele>231</ele>
        <time>2013-04-07T11:24:43Z</time>
      </trkpt>
      <trkpt lat="48.68535" lon="6.15986">
        <ele>232</ele>
        <time>2013-04-07T11:24:46Z</time>
      </trkpt>
      <trkpt lat="48.68545" lon="6.1598">
        <ele>239</ele>
        <time>2013-04-07T11:24:52Z</time>
      </trkpt>
      <trkpt lat="48.68554" lon="6.15975">
        <ele>240</ele>
        <time>2013-04-07T11:25:24Z</time>
      </trkpt>
      <trkpt lat="48.68554" lon="6.15975">
        <ele>240</ele>
        <time>2013-04-07T11:25:50Z</time>
      </trkpt>
    </trkseg>
  </trk>
</gpx>